<?xml version="1.0" encoding="UTF-8"?>
<gpx xmlns="http://www.topografix.com/GPX/1/1" xmlns:dkl="http://www.gpsware.de/DKL/1/1" xmlns:rtx="http://www.bike-gps.de/RTX/1/1" version="1.1" creator="KOMPASS Digital Map" xmlns:xsi="http://www.w3.org/2001/XMLSchema-instance" xsi:schemaLocation="http://www.topografix.com/GPX/1/1 http://www.topografix.com/GPX/1/1/gpx.xsd">
 <metadata>
 <name>KOMPASS Digital Map Track</name>
 <desc> </desc>
 <time>2010-08-23T17:42:49Z</time>
 <bounds minlat="47.422359" minlon="13.098696" maxlat="47.738426" maxlon="13.221324"/>
 </metadata>
 <trk>
 <name>2010_Bo-Adnet-Krispl</name>
 <cmt>Adnet-Krispl-Gaißau-Hl</cmt>
 <extensions>
 <dkl:dkl>
 <dkl:format_version>1.1</dkl:format_version>
 <dkl:format>
 <dkl:color>FF0000</dkl:color>
 <dkl:style>00000000</dkl:style>
 <dkl:strength>3</dkl:strength>
 <dkl:transparent>0</dkl:transparent>
 </dkl:format>
 </dkl:dkl>
 </extensions>
 <trkseg>
 <trkpt lat="47.422359" lon="13.219508">
 <ele>530.81</ele>
 <time>2010-08-23T07:13:55Z</time>
 </trkpt>
 <trkpt lat="47.422398" lon="13.219508">
 <ele>530.81</ele>
 <time>2010-08-23T07:13:56Z</time>
 </trkpt>
 <trkpt lat="47.422783" lon="13.219500">
 <ele>530.14</ele>
 <time>2010-08-23T07:14:05Z</time>
 </trkpt>
 <trkpt lat="47.423328" lon="13.219398">
 <ele>530.31</ele>
 <time>2010-08-23T07:14:16Z</time>
 </trkpt>
 <trkpt lat="47.423832" lon="13.219367">
 <ele>530.14</ele>
 <time>2010-08-23T07:14:26Z</time>
 </trkpt>
 <trkpt lat="47.424110" lon="13.219393">
 <ele>530.13</ele>
 <time>2010-08-23T07:14:32Z</time>
 </trkpt>
 <trkpt lat="47.424141" lon="13.219564">
 <ele>530.15</ele>
 <time>2010-08-23T07:14:36Z</time>
 </trkpt>
 <trkpt lat="47.424107" lon="13.219823">
 <ele>528.95</ele>
 <time>2010-08-23T07:14:40Z</time>
 </trkpt>
 <trkpt lat="47.424091" lon="13.219959">
 <ele>528.52</ele>
 <time>2010-08-23T07:14:42Z</time>
 </trkpt>
 <trkpt lat="47.424168" lon="13.220199">
 <ele>530.02</ele>
 <time>2010-08-23T07:14:47Z</time>
 </trkpt>
 <trkpt lat="47.424255" lon="13.220263">
 <ele>530.55</ele>
 <time>2010-08-23T07:14:50Z</time>
 </trkpt>
 <trkpt lat="47.424610" lon="13.220429">
 <ele>530.44</ele>
 <time>2010-08-23T07:14:59Z</time>
 </trkpt>
 <trkpt lat="47.424698" lon="13.220461">
 <ele>530.37</ele>
 <time>2010-08-23T07:15:01Z</time>
 </trkpt>
 <trkpt lat="47.424931" lon="13.220654">
 <ele>530.29</ele>
 <time>2010-08-23T07:15:07Z</time>
 </trkpt>
 <trkpt lat="47.425144" lon="13.220893">
 <ele>530.94</ele>
 <time>2010-08-23T07:15:14Z</time>
 </trkpt>
 <trkpt lat="47.425190" lon="13.220971">
 <ele>531.09</ele>
 <time>2010-08-23T07:15:17Z</time>
 </trkpt>
 <trkpt lat="47.425297" lon="13.220913">
 <ele>531.01</ele>
 <time>2010-08-23T07:15:21Z</time>
 </trkpt>
 <trkpt lat="47.425320" lon="13.220876">
 <ele>531.11</ele>
 <time>2010-08-23T07:15:22Z</time>
 </trkpt>
 <trkpt lat="47.425480" lon="13.220754">
 <ele>531.53</ele>
 <time>2010-08-23T07:15:27Z</time>
 </trkpt>
 <trkpt lat="47.425686" lon="13.220737">
 <ele>533.55</ele>
 <time>2010-08-23T07:15:34Z</time>
 </trkpt>
 <trkpt lat="47.425861" lon="13.220795">
 <ele>534.07</ele>
 <time>2010-08-23T07:15:40Z</time>
 </trkpt>
 <trkpt lat="47.426174" lon="13.220910">
 <ele>534.24</ele>
 <time>2010-08-23T07:15:49Z</time>
 </trkpt>
 <trkpt lat="47.426456" lon="13.221020">
 <ele>534.02</ele>
 <time>2010-08-23T07:15:57Z</time>
 </trkpt>
 <trkpt lat="47.426552" lon="13.221057">
 <ele>533.74</ele>
 <time>2010-08-23T07:15:59Z</time>
 </trkpt>
 <trkpt lat="47.426701" lon="13.221133">
 <ele>532.52</ele>
 <time>2010-08-23T07:16:02Z</time>
 </trkpt>
 <trkpt lat="47.427063" lon="13.221297">
 <ele>531.58</ele>
 <time>2010-08-23T07:16:09Z</time>
 </trkpt>
 <trkpt lat="47.427116" lon="13.221324">
 <ele>531.54</ele>
 <time>2010-08-23T07:16:10Z</time>
 </trkpt>
 <trkpt lat="47.427277" lon="13.221222">
 <ele>531.00</ele>
 <time>2010-08-23T07:16:14Z</time>
 </trkpt>
 <trkpt lat="47.427254" lon="13.220998">
 <ele>530.98</ele>
 <time>2010-08-23T07:16:15Z</time>
 </trkpt>
 <trkpt lat="47.427380" lon="13.220569">
 <ele>529.63</ele>
 <time>2010-08-23T07:16:22Z</time>
 </trkpt>
 <trkpt lat="47.427532" lon="13.220479">
 <ele>530.98</ele>
 <time>2010-08-23T07:16:26Z</time>
 </trkpt>
 <trkpt lat="47.427692" lon="13.220493">
 <ele>531.39</ele>
 <time>2010-08-23T07:16:30Z</time>
 </trkpt>
 <trkpt lat="47.427853" lon="13.220484">
 <ele>531.91</ele>
 <time>2010-08-23T07:16:34Z</time>
 </trkpt>
 <trkpt lat="47.428017" lon="13.220387">
 <ele>531.92</ele>
 <time>2010-08-23T07:16:38Z</time>
 </trkpt>
 <trkpt lat="47.428093" lon="13.220306">
 <ele>531.87</ele>
 <time>2010-08-23T07:16:40Z</time>
 </trkpt>
 <trkpt lat="47.428211" lon="13.220016">
 <ele>532.20</ele>
 <time>2010-08-23T07:16:45Z</time>
 </trkpt>
 <trkpt lat="47.428219" lon="13.219947">
 <ele>532.17</ele>
 <time>2010-08-23T07:16:46Z</time>
 </trkpt>
 <trkpt lat="47.428230" lon="13.219723">
 <ele>531.95</ele>
 <time>2010-08-23T07:16:49Z</time>
 </trkpt>
 <trkpt lat="47.428299" lon="13.219441">
 <ele>531.58</ele>
 <time>2010-08-23T07:16:53Z</time>
 </trkpt>
 <trkpt lat="47.428459" lon="13.219135">
 <ele>531.38</ele>
 <time>2010-08-23T07:16:58Z</time>
 </trkpt>
 <trkpt lat="47.428631" lon="13.218969">
 <ele>531.17</ele>
 <time>2010-08-23T07:17:02Z</time>
 </trkpt>
 <trkpt lat="47.428722" lon="13.218902">
 <ele>531.11</ele>
 <time>2010-08-23T07:17:04Z</time>
 </trkpt>
 <trkpt lat="47.428890" lon="13.218630">
 <ele>531.53</ele>
 <time>2010-08-23T07:17:09Z</time>
 </trkpt>
 <trkpt lat="47.428959" lon="13.218433">
 <ele>531.66</ele>
 <time>2010-08-23T07:17:12Z</time>
 </trkpt>
 <trkpt lat="47.429100" lon="13.218237">
 <ele>531.79</ele>
 <time>2010-08-23T07:17:16Z</time>
 </trkpt>
 <trkpt lat="47.429310" lon="13.218052">
 <ele>532.03</ele>
 <time>2010-08-23T07:17:21Z</time>
 </trkpt>
 <trkpt lat="47.429451" lon="13.217774">
 <ele>532.50</ele>
 <time>2010-08-23T07:17:26Z</time>
 </trkpt>
 <trkpt lat="47.429474" lon="13.217631">
 <ele>532.40</ele>
 <time>2010-08-23T07:17:28Z</time>
 </trkpt>
 <trkpt lat="47.429497" lon="13.217408">
 <ele>532.23</ele>
 <time>2010-08-23T07:17:31Z</time>
 </trkpt>
 <trkpt lat="47.429562" lon="13.217142">
 <ele>532.38</ele>
 <time>2010-08-23T07:17:35Z</time>
 </trkpt>
 <trkpt lat="47.429611" lon="13.216666">
 <ele>533.47</ele>
 <time>2010-08-23T07:17:42Z</time>
 </trkpt>
 <trkpt lat="47.429786" lon="13.216736">
 <ele>533.47</ele>
 <time>2010-08-23T07:17:43Z</time>
 </trkpt>
 <trkpt lat="47.429828" lon="13.216552">
 <ele>533.84</ele>
 <time>2010-08-23T07:17:48Z</time>
 </trkpt>
 <trkpt lat="47.429940" lon="13.216465">
 <ele>533.91</ele>
 <time>2010-08-23T07:17:49Z</time>
 </trkpt>
 <trkpt lat="47.430275" lon="13.216355">
 <ele>533.96</ele>
 <time>2010-08-23T07:17:58Z</time>
 </trkpt>
 <trkpt lat="47.430453" lon="13.216232">
 <ele>534.01</ele>
 <time>2010-08-23T07:18:02Z</time>
 </trkpt>
 <trkpt lat="47.430654" lon="13.216126">
 <ele>534.42</ele>
 <time>2010-08-23T07:18:09Z</time>
 </trkpt>
 <trkpt lat="47.430801" lon="13.216154">
 <ele>534.44</ele>
 <time>2010-08-23T07:18:10Z</time>
 </trkpt>
 <trkpt lat="47.431191" lon="13.215926">
 <ele>534.99</ele>
 <time>2010-08-23T07:18:19Z</time>
 </trkpt>
 <trkpt lat="47.431660" lon="13.215711">
 <ele>535.11</ele>
 <time>2010-08-23T07:18:27Z</time>
 </trkpt>
 <trkpt lat="47.431948" lon="13.215419">
 <ele>534.52</ele>
 <time>2010-08-23T07:18:35Z</time>
 </trkpt>
 <trkpt lat="47.432413" lon="13.214914">
 <ele>535.18</ele>
 <time>2010-08-23T07:18:44Z</time>
 </trkpt>
 <trkpt lat="47.432734" lon="13.214555">
 <ele>535.39</ele>
 <time>2010-08-23T07:18:52Z</time>
 </trkpt>
 <trkpt lat="47.432976" lon="13.214182">
 <ele>535.10</ele>
 <time>2010-08-23T07:18:59Z</time>
 </trkpt>
 <trkpt lat="47.433282" lon="13.213624">
 <ele>535.62</ele>
 <time>2010-08-23T07:19:09Z</time>
 </trkpt>
 <trkpt lat="47.433472" lon="13.213156">
 <ele>535.89</ele>
 <time>2010-08-23T07:19:16Z</time>
 </trkpt>
 <trkpt lat="47.433796" lon="13.212488">
 <ele>535.98</ele>
 <time>2010-08-23T07:19:27Z</time>
 </trkpt>
 <trkpt lat="47.433979" lon="13.212035">
 <ele>536.05</ele>
 <time>2010-08-23T07:19:34Z</time>
 </trkpt>
 <trkpt lat="47.434212" lon="13.211456">
 <ele>536.10</ele>
 <time>2010-08-23T07:19:43Z</time>
 </trkpt>
 <trkpt lat="47.434383" lon="13.211193">
 <ele>536.48</ele>
 <time>2010-08-23T07:19:48Z</time>
 </trkpt>
 <trkpt lat="47.434689" lon="13.210974">
 <ele>536.55</ele>
 <time>2010-08-23T07:19:55Z</time>
 </trkpt>
 <trkpt lat="47.434933" lon="13.210887">
 <ele>536.47</ele>
 <time>2010-08-23T07:20:00Z</time>
 </trkpt>
 <trkpt lat="47.435432" lon="13.210784">
 <ele>536.76</ele>
 <time>2010-08-23T07:20:10Z</time>
 </trkpt>
 <trkpt lat="47.435925" lon="13.210623">
 <ele>537.02</ele>
 <time>2010-08-23T07:20:20Z</time>
 </trkpt>
 <trkpt lat="47.436413" lon="13.210426">
 <ele>537.37</ele>
 <time>2010-08-23T07:20:30Z</time>
 </trkpt>
 <trkpt lat="47.436459" lon="13.210404">
 <ele>537.35</ele>
 <time>2010-08-23T07:20:31Z</time>
 </trkpt>
 <trkpt lat="47.436604" lon="13.210442">
 <ele>537.80</ele>
 <time>2010-08-23T07:20:35Z</time>
 </trkpt>
 <trkpt lat="47.436623" lon="13.210550">
 <ele>538.03</ele>
 <time>2010-08-23T07:20:37Z</time>
 </trkpt>
 <trkpt lat="47.436684" lon="13.210752">
 <ele>538.01</ele>
 <time>2010-08-23T07:20:41Z</time>
 </trkpt>
 <trkpt lat="47.436802" lon="13.210863">
 <ele>539.38</ele>
 <time>2010-08-23T07:20:46Z</time>
 </trkpt>
 <trkpt lat="47.436840" lon="13.210894">
 <ele>539.72</ele>
 <time>2010-08-23T07:20:47Z</time>
 </trkpt>
 <trkpt lat="47.436951" lon="13.211099">
 <ele>540.37</ele>
 <time>2010-08-23T07:20:51Z</time>
 </trkpt>
 <trkpt lat="47.437088" lon="13.211264">
 <ele>540.42</ele>
 <time>2010-08-23T07:20:57Z</time>
 </trkpt>
 <trkpt lat="47.437290" lon="13.211360">
 <ele>540.02</ele>
 <time>2010-08-23T07:21:02Z</time>
 </trkpt>
 <trkpt lat="47.437420" lon="13.211375">
 <ele>539.75</ele>
 <time>2010-08-23T07:21:05Z</time>
 </trkpt>
 <trkpt lat="47.437672" lon="13.211468">
 <ele>538.91</ele>
 <time>2010-08-23T07:21:10Z</time>
 </trkpt>
 <trkpt lat="47.438126" lon="13.211583">
 <ele>538.15</ele>
 <time>2010-08-23T07:21:19Z</time>
 </trkpt>
 <trkpt lat="47.438324" lon="13.211615">
 <ele>538.15</ele>
 <time>2010-08-23T07:21:23Z</time>
 </trkpt>
 <trkpt lat="47.438507" lon="13.211558">
 <ele>536.71</ele>
 <time>2010-08-23T07:21:26Z</time>
 </trkpt>
 <trkpt lat="47.438763" lon="13.211626">
 <ele>534.53</ele>
 <time>2010-08-23T07:21:30Z</time>
 </trkpt>
 <trkpt lat="47.438808" lon="13.211684">
 <ele>534.21</ele>
 <time>2010-08-23T07:21:31Z</time>
 </trkpt>
 <trkpt lat="47.438896" lon="13.211790">
 <ele>534.72</ele>
 <time>2010-08-23T07:21:33Z</time>
 </trkpt>
 <trkpt lat="47.439331" lon="13.212078">
 <ele>536.11</ele>
 <time>2010-08-23T07:21:42Z</time>
 </trkpt>
 <trkpt lat="47.439762" lon="13.212338">
 <ele>536.23</ele>
 <time>2010-08-23T07:21:51Z</time>
 </trkpt>
 <trkpt lat="47.439930" lon="13.212278">
 <ele>536.22</ele>
 <time>2010-08-23T07:21:55Z</time>
 </trkpt>
 <trkpt lat="47.439976" lon="13.212128">
 <ele>535.99</ele>
 <time>2010-08-23T07:21:57Z</time>
 </trkpt>
 <trkpt lat="47.440086" lon="13.211751">
 <ele>535.87</ele>
 <time>2010-08-23T07:22:02Z</time>
 </trkpt>
 <trkpt lat="47.440224" lon="13.211551">
 <ele>535.71</ele>
 <time>2010-08-23T07:22:06Z</time>
 </trkpt>
 <trkpt lat="47.440365" lon="13.211592">
 <ele>535.94</ele>
 <time>2010-08-23T07:22:09Z</time>
 </trkpt>
 <trkpt lat="47.440449" lon="13.211674">
 <ele>536.08</ele>
 <time>2010-08-23T07:22:11Z</time>
 </trkpt>
 <trkpt lat="47.440643" lon="13.211870">
 <ele>536.95</ele>
 <time>2010-08-23T07:22:16Z</time>
 </trkpt>
 <trkpt lat="47.440788" lon="13.211836">
 <ele>537.07</ele>
 <time>2010-08-23T07:22:20Z</time>
 </trkpt>
 <trkpt lat="47.440842" lon="13.211761">
 <ele>537.23</ele>
 <time>2010-08-23T07:22:22Z</time>
 </trkpt>
 <trkpt lat="47.440937" lon="13.211544">
 <ele>538.05</ele>
 <time>2010-08-23T07:22:27Z</time>
 </trkpt>
 <trkpt lat="47.440887" lon="13.211374">
 <ele>538.50</ele>
 <time>2010-08-23T07:22:31Z</time>
 </trkpt>
 <trkpt lat="47.440777" lon="13.211163">
 <ele>539.17</ele>
 <time>2010-08-23T07:22:36Z</time>
 </trkpt>
 <trkpt lat="47.440811" lon="13.211031">
 <ele>539.79</ele>
 <time>2010-08-23T07:22:39Z</time>
 </trkpt>
 <trkpt lat="47.440929" lon="13.210963">
 <ele>540.61</ele>
 <time>2010-08-23T07:22:43Z</time>
 </trkpt>
 <trkpt lat="47.441097" lon="13.210821">
 <ele>542.20</ele>
 <time>2010-08-23T07:22:49Z</time>
 </trkpt>
 <trkpt lat="47.441158" lon="13.210586">
 <ele>542.08</ele>
 <time>2010-08-23T07:22:54Z</time>
 </trkpt>
 <trkpt lat="47.441261" lon="13.210132">
 <ele>542.24</ele>
 <time>2010-08-23T07:23:03Z</time>
 </trkpt>
 <trkpt lat="47.441338" lon="13.209916">
 <ele>542.31</ele>
 <time>2010-08-23T07:23:08Z</time>
 </trkpt>
 <trkpt lat="47.441471" lon="13.209899">
 <ele>542.25</ele>
 <time>2010-08-23T07:23:12Z</time>
 </trkpt>
 <trkpt lat="47.441662" lon="13.209925">
 <ele>543.54</ele>
 <time>2010-08-23T07:23:18Z</time>
 </trkpt>
 <trkpt lat="47.441879" lon="13.209877">
 <ele>545.73</ele>
 <time>2010-08-23T07:23:27Z</time>
 </trkpt>
 <trkpt lat="47.442059" lon="13.209906">
 <ele>547.64</ele>
 <time>2010-08-23T07:23:35Z</time>
 </trkpt>
 <trkpt lat="47.442223" lon="13.209910">
 <ele>548.88</ele>
 <time>2010-08-23T07:23:41Z</time>
 </trkpt>
 <trkpt lat="47.442406" lon="13.209888">
 <ele>550.73</ele>
 <time>2010-08-23T07:23:49Z</time>
 </trkpt>
 <trkpt lat="47.442585" lon="13.209897">
 <ele>552.59</ele>
 <time>2010-08-23T07:23:57Z</time>
 </trkpt>
 <trkpt lat="47.442799" lon="13.209969">
 <ele>554.80</ele>
 <time>2010-08-23T07:24:07Z</time>
 </trkpt>
 <trkpt lat="47.442947" lon="13.209953">
 <ele>555.99</ele>
 <time>2010-08-23T07:24:14Z</time>
 </trkpt>
 <trkpt lat="47.443066" lon="13.209805">
 <ele>556.74</ele>
 <time>2010-08-23T07:24:21Z</time>
 </trkpt>
 <trkpt lat="47.443161" lon="13.209803">
 <ele>556.55</ele>
 <time>2010-08-23T07:24:24Z</time>
 </trkpt>
 <trkpt lat="47.443546" lon="13.209900">
 <ele>556.01</ele>
 <time>2010-08-23T07:24:33Z</time>
 </trkpt>
 <trkpt lat="47.443939" lon="13.210110">
 <ele>555.16</ele>
 <time>2010-08-23T07:24:41Z</time>
 </trkpt>
 <trkpt lat="47.444466" lon="13.210479">
 <ele>554.25</ele>
 <time>2010-08-23T07:24:51Z</time>
 </trkpt>
 <trkpt lat="47.444969" lon="13.210722">
 <ele>552.30</ele>
 <time>2010-08-23T07:24:59Z</time>
 </trkpt>
 <trkpt lat="47.445480" lon="13.210846">
 <ele>550.36</ele>
 <time>2010-08-23T07:25:06Z</time>
 </trkpt>
 <trkpt lat="47.445957" lon="13.210843">
 <ele>548.31</ele>
 <time>2010-08-23T07:25:12Z</time>
 </trkpt>
 <trkpt lat="47.446373" lon="13.210740">
 <ele>547.13</ele>
 <time>2010-08-23T07:25:17Z</time>
 </trkpt>
 <trkpt lat="47.446976" lon="13.210468">
 <ele>544.82</ele>
 <time>2010-08-23T07:25:24Z</time>
 </trkpt>
 <trkpt lat="47.447777" lon="13.210115">
 <ele>542.26</ele>
 <time>2010-08-23T07:25:33Z</time>
 </trkpt>
 <trkpt lat="47.448479" lon="13.209983">
 <ele>540.37</ele>
 <time>2010-08-23T07:25:41Z</time>
 </trkpt>
 <trkpt lat="47.449284" lon="13.209847">
 <ele>541.19</ele>
 <time>2010-08-23T07:25:51Z</time>
 </trkpt>
 <trkpt lat="47.449867" lon="13.209645">
 <ele>541.66</ele>
 <time>2010-08-23T07:25:59Z</time>
 </trkpt>
 <trkpt lat="47.450382" lon="13.209365">
 <ele>541.98</ele>
 <time>2010-08-23T07:26:07Z</time>
 </trkpt>
 <trkpt lat="47.450893" lon="13.208993">
 <ele>542.76</ele>
 <time>2010-08-23T07:26:16Z</time>
 </trkpt>
 <trkpt lat="47.451447" lon="13.208453">
 <ele>543.90</ele>
 <time>2010-08-23T07:26:27Z</time>
 </trkpt>
 <trkpt lat="47.451900" lon="13.207884">
 <ele>544.57</ele>
 <time>2010-08-23T07:26:37Z</time>
 </trkpt>
 <trkpt lat="47.452332" lon="13.207196">
 <ele>545.26</ele>
 <time>2010-08-23T07:26:48Z</time>
 </trkpt>
 <trkpt lat="47.452644" lon="13.206510">
 <ele>545.76</ele>
 <time>2010-08-23T07:26:58Z</time>
 </trkpt>
 <trkpt lat="47.452915" lon="13.205805">
 <ele>546.34</ele>
 <time>2010-08-23T07:27:08Z</time>
 </trkpt>
 <trkpt lat="47.453144" lon="13.205090">
 <ele>547.44</ele>
 <time>2010-08-23T07:27:18Z</time>
 </trkpt>
 <trkpt lat="47.453465" lon="13.204097">
 <ele>548.23</ele>
 <time>2010-08-23T07:27:32Z</time>
 </trkpt>
 <trkpt lat="47.453800" lon="13.203275">
 <ele>548.86</ele>
 <time>2010-08-23T07:27:44Z</time>
 </trkpt>
 <trkpt lat="47.454147" lon="13.202602">
 <ele>548.98</ele>
 <time>2010-08-23T07:27:55Z</time>
 </trkpt>
 <trkpt lat="47.454590" lon="13.201944">
 <ele>549.33</ele>
 <time>2010-08-23T07:28:07Z</time>
 </trkpt>
 <trkpt lat="47.454929" lon="13.201517">
 <ele>549.36</ele>
 <time>2010-08-23T07:28:15Z</time>
 </trkpt>
 <trkpt lat="47.455338" lon="13.201077">
 <ele>548.21</ele>
 <time>2010-08-23T07:28:23Z</time>
 </trkpt>
 <trkpt lat="47.455894" lon="13.200561">
 <ele>545.97</ele>
 <time>2010-08-23T07:28:32Z</time>
 </trkpt>
 <trkpt lat="47.456493" lon="13.200121">
 <ele>543.66</ele>
 <time>2010-08-23T07:28:40Z</time>
 </trkpt>
 <trkpt lat="47.457134" lon="13.199736">
 <ele>540.76</ele>
 <time>2010-08-23T07:28:48Z</time>
 </trkpt>
 <trkpt lat="47.457928" lon="13.199385">
 <ele>539.70</ele>
 <time>2010-08-23T07:28:58Z</time>
 </trkpt>
 <trkpt lat="47.458714" lon="13.199163">
 <ele>539.04</ele>
 <time>2010-08-23T07:29:08Z</time>
 </trkpt>
 <trkpt lat="47.459473" lon="13.199054">
 <ele>538.80</ele>
 <time>2010-08-23T07:29:18Z</time>
 </trkpt>
 <trkpt lat="47.460258" lon="13.198988">
 <ele>538.66</ele>
 <time>2010-08-23T07:29:29Z</time>
 </trkpt>
 <trkpt lat="47.460781" lon="13.198834">
 <ele>539.51</ele>
 <time>2010-08-23T07:29:37Z</time>
 </trkpt>
 <trkpt lat="47.461327" lon="13.198546">
 <ele>539.59</ele>
 <time>2010-08-23T07:29:46Z</time>
 </trkpt>
 <trkpt lat="47.461914" lon="13.198248">
 <ele>540.59</ele>
 <time>2010-08-23T07:29:56Z</time>
 </trkpt>
 <trkpt lat="47.462273" lon="13.198189">
 <ele>540.98</ele>
 <time>2010-08-23T07:30:02Z</time>
 </trkpt>
 <trkpt lat="47.462734" lon="13.198199">
 <ele>541.53</ele>
 <time>2010-08-23T07:30:10Z</time>
 </trkpt>
 <trkpt lat="47.463226" lon="13.198030">
 <ele>540.51</ele>
 <time>2010-08-23T07:30:18Z</time>
 </trkpt>
 <trkpt lat="47.463818" lon="13.197822">
 <ele>539.36</ele>
 <time>2010-08-23T07:30:27Z</time>
 </trkpt>
 <trkpt lat="47.464329" lon="13.197651">
 <ele>539.30</ele>
 <time>2010-08-23T07:30:36Z</time>
 </trkpt>
 <trkpt lat="47.464539" lon="13.197623">
 <ele>539.59</ele>
 <time>2010-08-23T07:30:42Z</time>
 </trkpt>
 <trkpt lat="47.464684" lon="13.197620">
 <ele>539.32</ele>
 <time>2010-08-23T07:30:45Z</time>
 </trkpt>
 <trkpt lat="47.465115" lon="13.197826">
 <ele>539.14</ele>
 <time>2010-08-23T07:30:53Z</time>
 </trkpt>
 <trkpt lat="47.465508" lon="13.198176">
 <ele>539.44</ele>
 <time>2010-08-23T07:31:01Z</time>
 </trkpt>
 <trkpt lat="47.465832" lon="13.198588">
 <ele>540.01</ele>
 <time>2010-08-23T07:31:09Z</time>
 </trkpt>
 <trkpt lat="47.466103" lon="13.198879">
 <ele>540.50</ele>
 <time>2010-08-23T07:31:15Z</time>
 </trkpt>
 <trkpt lat="47.466347" lon="13.198988">
 <ele>540.12</ele>
 <time>2010-08-23T07:31:20Z</time>
 </trkpt>
 <trkpt lat="47.466442" lon="13.198975">
 <ele>540.31</ele>
 <time>2010-08-23T07:31:22Z</time>
 </trkpt>
 <trkpt lat="47.466545" lon="13.198933">
 <ele>540.56</ele>
 <time>2010-08-23T07:31:24Z</time>
 </trkpt>
 <trkpt lat="47.466671" lon="13.198684">
 <ele>540.52</ele>
 <time>2010-08-23T07:31:28Z</time>
 </trkpt>
 <trkpt lat="47.466679" lon="13.198446">
 <ele>540.15</ele>
 <time>2010-08-23T07:31:31Z</time>
 </trkpt>
 <trkpt lat="47.466667" lon="13.198288">
 <ele>540.17</ele>
 <time>2010-08-23T07:31:33Z</time>
 </trkpt>
 <trkpt lat="47.466740" lon="13.197920">
 <ele>540.35</ele>
 <time>2010-08-23T07:31:38Z</time>
 </trkpt>
 <trkpt lat="47.466877" lon="13.197717">
 <ele>540.89</ele>
 <time>2010-08-23T07:31:42Z</time>
 </trkpt>
 <trkpt lat="47.466923" lon="13.197679">
 <ele>540.98</ele>
 <time>2010-08-23T07:31:43Z</time>
 </trkpt>
 <trkpt lat="47.467182" lon="13.197328">
 <ele>541.62</ele>
 <time>2010-08-23T07:31:50Z</time>
 </trkpt>
 <trkpt lat="47.467518" lon="13.196860">
 <ele>541.01</ele>
 <time>2010-08-23T07:31:58Z</time>
 </trkpt>
 <trkpt lat="47.467735" lon="13.196584">
 <ele>541.09</ele>
 <time>2010-08-23T07:32:03Z</time>
 </trkpt>
 <trkpt lat="47.468094" lon="13.196041">
 <ele>541.44</ele>
 <time>2010-08-23T07:32:12Z</time>
 </trkpt>
 <trkpt lat="47.468437" lon="13.195493">
 <ele>541.15</ele>
 <time>2010-08-23T07:32:21Z</time>
 </trkpt>
 <trkpt lat="47.468903" lon="13.194899">
 <ele>541.23</ele>
 <time>2010-08-23T07:32:32Z</time>
 </trkpt>
 <trkpt lat="47.469276" lon="13.194488">
 <ele>542.18</ele>
 <time>2010-08-23T07:32:41Z</time>
 </trkpt>
 <trkpt lat="47.469566" lon="13.194168">
 <ele>543.82</ele>
 <time>2010-08-23T07:32:49Z</time>
 </trkpt>
 <trkpt lat="47.469730" lon="13.193941">
 <ele>545.07</ele>
 <time>2010-08-23T07:32:55Z</time>
 </trkpt>
 <trkpt lat="47.469875" lon="13.193690">
 <ele>546.34</ele>
 <time>2010-08-23T07:33:01Z</time>
 </trkpt>
 <trkpt lat="47.470085" lon="13.193469">
 <ele>547.18</ele>
 <time>2010-08-23T07:33:07Z</time>
 </trkpt>
 <trkpt lat="47.470486" lon="13.193082">
 <ele>547.82</ele>
 <time>2010-08-23T07:33:18Z</time>
 </trkpt>
 <trkpt lat="47.470840" lon="13.192732">
 <ele>548.23</ele>
 <time>2010-08-23T07:33:28Z</time>
 </trkpt>
 <trkpt lat="47.471169" lon="13.192425">
 <ele>548.90</ele>
 <time>2010-08-23T07:33:37Z</time>
 </trkpt>
 <trkpt lat="47.471531" lon="13.192222">
 <ele>549.28</ele>
 <time>2010-08-23T07:33:46Z</time>
 </trkpt>
 <trkpt lat="47.471966" lon="13.192146">
 <ele>549.79</ele>
 <time>2010-08-23T07:33:56Z</time>
 </trkpt>
 <trkpt lat="47.472267" lon="13.192195">
 <ele>550.43</ele>
 <time>2010-08-23T07:34:03Z</time>
 </trkpt>
 <trkpt lat="47.472549" lon="13.192268">
 <ele>550.33</ele>
 <time>2010-08-23T07:34:09Z</time>
 </trkpt>
 <trkpt lat="47.472855" lon="13.192317">
 <ele>550.00</ele>
 <time>2010-08-23T07:34:15Z</time>
 </trkpt>
 <trkpt lat="47.473160" lon="13.192373">
 <ele>549.45</ele>
 <time>2010-08-23T07:34:20Z</time>
 </trkpt>
 <trkpt lat="47.473293" lon="13.192391">
 <ele>548.92</ele>
 <time>2010-08-23T07:34:22Z</time>
 </trkpt>
 <trkpt lat="47.473541" lon="13.192246">
 <ele>547.91</ele>
 <time>2010-08-23T07:34:26Z</time>
 </trkpt>
 <trkpt lat="47.473667" lon="13.192098">
 <ele>548.21</ele>
 <time>2010-08-23T07:34:29Z</time>
 </trkpt>
 <trkpt lat="47.473755" lon="13.192031">
 <ele>549.21</ele>
 <time>2010-08-23T07:34:31Z</time>
 </trkpt>
 <trkpt lat="47.473911" lon="13.191876">
 <ele>550.03</ele>
 <time>2010-08-23T07:34:35Z</time>
 </trkpt>
 <trkpt lat="47.474056" lon="13.191706">
 <ele>550.45</ele>
 <time>2010-08-23T07:34:39Z</time>
 </trkpt>
 <trkpt lat="47.474354" lon="13.191472">
 <ele>551.94</ele>
 <time>2010-08-23T07:34:47Z</time>
 </trkpt>
 <trkpt lat="47.474579" lon="13.191260">
 <ele>553.85</ele>
 <time>2010-08-23T07:34:55Z</time>
 </trkpt>
 <trkpt lat="47.474831" lon="13.190975">
 <ele>556.19</ele>
 <time>2010-08-23T07:35:06Z</time>
 </trkpt>
 <trkpt lat="47.474976" lon="13.190758">
 <ele>558.70</ele>
 <time>2010-08-23T07:35:14Z</time>
 </trkpt>
 <trkpt lat="47.475090" lon="13.190577">
 <ele>560.04</ele>
 <time>2010-08-23T07:35:21Z</time>
 </trkpt>
 <trkpt lat="47.475204" lon="13.190457">
 <ele>561.67</ele>
 <time>2010-08-23T07:35:27Z</time>
 </trkpt>
 <trkpt lat="47.475327" lon="13.190325">
 <ele>562.65</ele>
 <time>2010-08-23T07:35:33Z</time>
 </trkpt>
 <trkpt lat="47.475460" lon="13.190194">
 <ele>563.20</ele>
 <time>2010-08-23T07:35:39Z</time>
 </trkpt>
 <trkpt lat="47.475689" lon="13.190001">
 <ele>563.99</ele>
 <time>2010-08-23T07:35:48Z</time>
 </trkpt>
 <trkpt lat="47.475929" lon="13.189792">
 <ele>564.61</ele>
 <time>2010-08-23T07:35:57Z</time>
 </trkpt>
 <trkpt lat="47.476135" lon="13.189628">
 <ele>565.01</ele>
 <time>2010-08-23T07:36:04Z</time>
 </trkpt>
 <trkpt lat="47.476357" lon="13.189434">
 <ele>565.65</ele>
 <time>2010-08-23T07:36:12Z</time>
 </trkpt>
 <trkpt lat="47.476543" lon="13.189275">
 <ele>565.66</ele>
 <time>2010-08-23T07:36:18Z</time>
 </trkpt>
 <trkpt lat="47.476822" lon="13.189054">
 <ele>565.93</ele>
 <time>2010-08-23T07:36:26Z</time>
 </trkpt>
 <trkpt lat="47.476894" lon="13.188997">
 <ele>565.77</ele>
 <time>2010-08-23T07:36:28Z</time>
 </trkpt>
 <trkpt lat="47.477009" lon="13.188890">
 <ele>565.85</ele>
 <time>2010-08-23T07:36:31Z</time>
 </trkpt>
 <trkpt lat="47.477356" lon="13.188638">
 <ele>565.81</ele>
 <time>2010-08-23T07:36:39Z</time>
 </trkpt>
 <trkpt lat="47.477688" lon="13.188393">
 <ele>565.72</ele>
 <time>2010-08-23T07:36:47Z</time>
 </trkpt>
 <trkpt lat="47.477760" lon="13.188333">
 <ele>565.98</ele>
 <time>2010-08-23T07:36:49Z</time>
 </trkpt>
 <trkpt lat="47.477871" lon="13.188250">
 <ele>566.25</ele>
 <time>2010-08-23T07:36:52Z</time>
 </trkpt>
 <trkpt lat="47.478138" lon="13.188110">
 <ele>566.81</ele>
 <time>2010-08-23T07:36:59Z</time>
 </trkpt>
 <trkpt lat="47.478371" lon="13.187930">
 <ele>568.36</ele>
 <time>2010-08-23T07:37:06Z</time>
 </trkpt>
 <trkpt lat="47.478531" lon="13.187834">
 <ele>569.41</ele>
 <time>2010-08-23T07:37:11Z</time>
 </trkpt>
 <trkpt lat="47.478741" lon="13.187588">
 <ele>570.56</ele>
 <time>2010-08-23T07:37:19Z</time>
 </trkpt>
 <trkpt lat="47.478897" lon="13.187355">
 <ele>571.64</ele>
 <time>2010-08-23T07:37:26Z</time>
 </trkpt>
 <trkpt lat="47.479057" lon="13.187083">
 <ele>572.80</ele>
 <time>2010-08-23T07:37:34Z</time>
 </trkpt>
 <trkpt lat="47.479286" lon="13.186759">
 <ele>574.78</ele>
 <time>2010-08-23T07:37:45Z</time>
 </trkpt>
 <trkpt lat="47.479454" lon="13.186517">
 <ele>576.12</ele>
 <time>2010-08-23T07:37:53Z</time>
 </trkpt>
 <trkpt lat="47.479671" lon="13.186189">
 <ele>578.07</ele>
 <time>2010-08-23T07:38:04Z</time>
 </trkpt>
 <trkpt lat="47.479828" lon="13.186015">
 <ele>580.01</ele>
 <time>2010-08-23T07:38:12Z</time>
 </trkpt>
 <trkpt lat="47.479996" lon="13.185818">
 <ele>581.84</ele>
 <time>2010-08-23T07:38:21Z</time>
 </trkpt>
 <trkpt lat="47.480156" lon="13.185547">
 <ele>584.17</ele>
 <time>2010-08-23T07:38:31Z</time>
 </trkpt>
 <trkpt lat="47.480286" lon="13.185467">
 <ele>585.71</ele>
 <time>2010-08-23T07:38:37Z</time>
 </trkpt>
 <trkpt lat="47.480450" lon="13.185551">
 <ele>587.34</ele>
 <time>2010-08-23T07:38:44Z</time>
 </trkpt>
 <trkpt lat="47.480583" lon="13.185547">
 <ele>587.93</ele>
 <time>2010-08-23T07:38:49Z</time>
 </trkpt>
 <trkpt lat="47.480785" lon="13.185370">
 <ele>590.18</ele>
 <time>2010-08-23T07:38:59Z</time>
 </trkpt>
 <trkpt lat="47.480968" lon="13.185246">
 <ele>591.78</ele>
 <time>2010-08-23T07:39:08Z</time>
 </trkpt>
 <trkpt lat="47.481194" lon="13.185158">
 <ele>593.80</ele>
 <time>2010-08-23T07:39:18Z</time>
 </trkpt>
 <trkpt lat="47.481400" lon="13.185098">
 <ele>595.17</ele>
 <time>2010-08-23T07:39:27Z</time>
 </trkpt>
 <trkpt lat="47.481602" lon="13.185075">
 <ele>596.25</ele>
 <time>2010-08-23T07:39:35Z</time>
 </trkpt>
 <trkpt lat="47.481827" lon="13.185054">
 <ele>597.51</ele>
 <time>2010-08-23T07:39:44Z</time>
 </trkpt>
 <trkpt lat="47.482021" lon="13.185075">
 <ele>598.27</ele>
 <time>2010-08-23T07:39:52Z</time>
 </trkpt>
 <trkpt lat="47.482162" lon="13.185090">
 <ele>598.62</ele>
 <time>2010-08-23T07:39:57Z</time>
 </trkpt>
 <trkpt lat="47.482372" lon="13.185109">
 <ele>598.98</ele>
 <time>2010-08-23T07:40:03Z</time>
 </trkpt>
 <trkpt lat="47.482670" lon="13.185165">
 <ele>599.26</ele>
 <time>2010-08-23T07:40:10Z</time>
 </trkpt>
 <trkpt lat="47.483074" lon="13.185277">
 <ele>599.23</ele>
 <time>2010-08-23T07:40:19Z</time>
 </trkpt>
 <trkpt lat="47.483486" lon="13.185419">
 <ele>598.25</ele>
 <time>2010-08-23T07:40:27Z</time>
 </trkpt>
 <trkpt lat="47.483910" lon="13.185506">
 <ele>597.04</ele>
 <time>2010-08-23T07:40:34Z</time>
 </trkpt>
 <trkpt lat="47.484360" lon="13.185493">
 <ele>594.86</ele>
 <time>2010-08-23T07:40:40Z</time>
 </trkpt>
 <trkpt lat="47.484741" lon="13.185496">
 <ele>592.22</ele>
 <time>2010-08-23T07:40:44Z</time>
 </trkpt>
 <trkpt lat="47.485226" lon="13.185511">
 <ele>588.29</ele>
 <time>2010-08-23T07:40:49Z</time>
 </trkpt>
 <trkpt lat="47.485939" lon="13.185503">
 <ele>583.87</ele>
 <time>2010-08-23T07:40:56Z</time>
 </trkpt>
 <trkpt lat="47.486351" lon="13.185326">
 <ele>581.39</ele>
 <time>2010-08-23T07:41:00Z</time>
 </trkpt>
 <trkpt lat="47.486847" lon="13.184936">
 <ele>578.03</ele>
 <time>2010-08-23T07:41:05Z</time>
 </trkpt>
 <trkpt lat="47.487221" lon="13.184526">
 <ele>575.95</ele>
 <time>2010-08-23T07:41:09Z</time>
 </trkpt>
 <trkpt lat="47.487926" lon="13.183415">
 <ele>570.63</ele>
 <time>2010-08-23T07:41:18Z</time>
 </trkpt>
 <trkpt lat="47.488316" lon="13.182643">
 <ele>567.41</ele>
 <time>2010-08-23T07:41:24Z</time>
 </trkpt>
 <trkpt lat="47.488701" lon="13.181766">
 <ele>564.97</ele>
 <time>2010-08-23T07:41:31Z</time>
 </trkpt>
 <trkpt lat="47.489243" lon="13.180406">
 <ele>562.19</ele>
 <time>2010-08-23T07:41:42Z</time>
 </trkpt>
 <trkpt lat="47.489597" lon="13.179431">
 <ele>559.23</ele>
 <time>2010-08-23T07:41:50Z</time>
 </trkpt>
 <trkpt lat="47.489868" lon="13.178478">
 <ele>554.33</ele>
 <time>2010-08-23T07:41:57Z</time>
 </trkpt>
 <trkpt lat="47.490093" lon="13.177962">
 <ele>552.87</ele>
 <time>2010-08-23T07:42:01Z</time>
 </trkpt>
 <trkpt lat="47.490402" lon="13.177544">
 <ele>550.36</ele>
 <time>2010-08-23T07:42:05Z</time>
 </trkpt>
 <trkpt lat="47.490856" lon="13.177181">
 <ele>547.76</ele>
 <time>2010-08-23T07:42:10Z</time>
 </trkpt>
 <trkpt lat="47.491280" lon="13.176753">
 <ele>545.90</ele>
 <time>2010-08-23T07:42:15Z</time>
 </trkpt>
 <trkpt lat="47.491703" lon="13.176104">
 <ele>543.22</ele>
 <time>2010-08-23T07:42:21Z</time>
 </trkpt>
 <trkpt lat="47.492001" lon="13.175766">
 <ele>542.79</ele>
 <time>2010-08-23T07:42:25Z</time>
 </trkpt>
 <trkpt lat="47.492378" lon="13.175528">
 <ele>543.38</ele>
 <time>2010-08-23T07:42:30Z</time>
 </trkpt>
 <trkpt lat="47.492729" lon="13.175433">
 <ele>544.39</ele>
 <time>2010-08-23T07:42:35Z</time>
 </trkpt>
 <trkpt lat="47.493046" lon="13.175452">
 <ele>545.75</ele>
 <time>2010-08-23T07:42:40Z</time>
 </trkpt>
 <trkpt lat="47.493225" lon="13.175482">
 <ele>546.50</ele>
 <time>2010-08-23T07:42:43Z</time>
 </trkpt>
 <trkpt lat="47.493389" lon="13.175505">
 <ele>546.78</ele>
 <time>2010-08-23T07:42:46Z</time>
 </trkpt>
 <trkpt lat="47.493862" lon="13.175615">
 <ele>548.08</ele>
 <time>2010-08-23T07:42:55Z</time>
 </trkpt>
 <trkpt lat="47.494354" lon="13.175729">
 <ele>547.92</ele>
 <time>2010-08-23T07:43:04Z</time>
 </trkpt>
 <trkpt lat="47.494926" lon="13.175851">
 <ele>548.65</ele>
 <time>2010-08-23T07:43:14Z</time>
 </trkpt>
 <trkpt lat="47.495438" lon="13.175945">
 <ele>548.54</ele>
 <time>2010-08-23T07:43:23Z</time>
 </trkpt>
 <trkpt lat="47.495975" lon="13.175973">
 <ele>549.06</ele>
 <time>2010-08-23T07:43:33Z</time>
 </trkpt>
 <trkpt lat="47.496445" lon="13.175851">
 <ele>549.55</ele>
 <time>2010-08-23T07:43:42Z</time>
 </trkpt>
 <trkpt lat="47.496815" lon="13.175605">
 <ele>550.50</ele>
 <time>2010-08-23T07:43:50Z</time>
 </trkpt>
 <trkpt lat="47.497131" lon="13.175242">
 <ele>551.55</ele>
 <time>2010-08-23T07:43:58Z</time>
 </trkpt>
 <trkpt lat="47.497402" lon="13.174790">
 <ele>552.17</ele>
 <time>2010-08-23T07:44:06Z</time>
 </trkpt>
 <trkpt lat="47.497780" lon="13.173965">
 <ele>552.05</ele>
 <time>2010-08-23T07:44:18Z</time>
 </trkpt>
 <trkpt lat="47.498173" lon="13.173196">
 <ele>551.56</ele>
 <time>2010-08-23T07:44:29Z</time>
 </trkpt>
 <trkpt lat="47.498569" lon="13.172622">
 <ele>551.55</ele>
 <time>2010-08-23T07:44:38Z</time>
 </trkpt>
 <trkpt lat="47.499016" lon="13.172134">
 <ele>550.73</ele>
 <time>2010-08-23T07:44:47Z</time>
 </trkpt>
 <trkpt lat="47.499554" lon="13.171685">
 <ele>550.58</ele>
 <time>2010-08-23T07:44:57Z</time>
 </trkpt>
 <trkpt lat="47.500156" lon="13.171281">
 <ele>550.41</ele>
 <time>2010-08-23T07:45:08Z</time>
 </trkpt>
 <trkpt lat="47.500832" lon="13.170837">
 <ele>550.76</ele>
 <time>2010-08-23T07:45:20Z</time>
 </trkpt>
 <trkpt lat="47.501446" lon="13.170428">
 <ele>550.33</ele>
 <time>2010-08-23T07:45:31Z</time>
 </trkpt>
 <trkpt lat="47.502159" lon="13.169938">
 <ele>549.83</ele>
 <time>2010-08-23T07:45:44Z</time>
 </trkpt>
 <trkpt lat="47.502666" lon="13.169541">
 <ele>549.07</ele>
 <time>2010-08-23T07:45:53Z</time>
 </trkpt>
 <trkpt lat="47.503246" lon="13.169082">
 <ele>546.17</ele>
 <time>2010-08-23T07:46:02Z</time>
 </trkpt>
 <trkpt lat="47.503765" lon="13.168656">
 <ele>544.13</ele>
 <time>2010-08-23T07:46:09Z</time>
 </trkpt>
 <trkpt lat="47.504559" lon="13.168028">
 <ele>541.43</ele>
 <time>2010-08-23T07:46:19Z</time>
 </trkpt>
 <trkpt lat="47.505116" lon="13.167582">
 <ele>541.90</ele>
 <time>2010-08-23T07:46:27Z</time>
 </trkpt>
 <trkpt lat="47.505589" lon="13.167204">
 <ele>542.66</ele>
 <time>2010-08-23T07:46:35Z</time>
 </trkpt>
 <trkpt lat="47.506252" lon="13.166688">
 <ele>543.22</ele>
 <time>2010-08-23T07:46:47Z</time>
 </trkpt>
 <trkpt lat="47.506710" lon="13.166453">
 <ele>543.59</ele>
 <time>2010-08-23T07:46:55Z</time>
 </trkpt>
 <trkpt lat="47.507156" lon="13.166379">
 <ele>544.31</ele>
 <time>2010-08-23T07:47:03Z</time>
 </trkpt>
 <trkpt lat="47.507465" lon="13.166409">
 <ele>545.39</ele>
 <time>2010-08-23T07:47:09Z</time>
 </trkpt>
 <trkpt lat="47.507732" lon="13.166482">
 <ele>546.85</ele>
 <time>2010-08-23T07:47:15Z</time>
 </trkpt>
 <trkpt lat="47.508099" lon="13.166649">
 <ele>548.93</ele>
 <time>2010-08-23T07:47:24Z</time>
 </trkpt>
 <trkpt lat="47.508446" lon="13.166803">
 <ele>551.28</ele>
 <time>2010-08-23T07:47:34Z</time>
 </trkpt>
 <trkpt lat="47.508713" lon="13.166906">
 <ele>552.72</ele>
 <time>2010-08-23T07:47:42Z</time>
 </trkpt>
 <trkpt lat="47.509071" lon="13.167002">
 <ele>554.59</ele>
 <time>2010-08-23T07:47:53Z</time>
 </trkpt>
 <trkpt lat="47.509407" lon="13.167083">
 <ele>555.89</ele>
 <time>2010-08-23T07:48:03Z</time>
 </trkpt>
 <trkpt lat="47.509861" lon="13.167135">
 <ele>557.26</ele>
 <time>2010-08-23T07:48:16Z</time>
 </trkpt>
 <trkpt lat="47.510242" lon="13.167139">
 <ele>558.47</ele>
 <time>2010-08-23T07:48:27Z</time>
 </trkpt>
 <trkpt lat="47.510578" lon="13.167116">
 <ele>560.42</ele>
 <time>2010-08-23T07:48:37Z</time>
 </trkpt>
 <trkpt lat="47.510902" lon="13.167065">
 <ele>561.83</ele>
 <time>2010-08-23T07:48:47Z</time>
 </trkpt>
 <trkpt lat="47.511082" lon="13.167017">
 <ele>562.90</ele>
 <time>2010-08-23T07:48:53Z</time>
 </trkpt>
 <trkpt lat="47.511311" lon="13.166948">
 <ele>564.47</ele>
 <time>2010-08-23T07:49:01Z</time>
 </trkpt>
 <trkpt lat="47.511536" lon="13.166869">
 <ele>565.88</ele>
 <time>2010-08-23T07:49:09Z</time>
 </trkpt>
 <trkpt lat="47.511848" lon="13.166753">
 <ele>567.45</ele>
 <time>2010-08-23T07:49:20Z</time>
 </trkpt>
 <trkpt lat="47.512192" lon="13.166621">
 <ele>569.36</ele>
 <time>2010-08-23T07:49:32Z</time>
 </trkpt>
 <trkpt lat="47.512424" lon="13.166525">
 <ele>570.45</ele>
 <time>2010-08-23T07:49:40Z</time>
 </trkpt>
 <trkpt lat="47.512749" lon="13.166396">
 <ele>571.92</ele>
 <time>2010-08-23T07:49:51Z</time>
 </trkpt>
 <trkpt lat="47.513062" lon="13.166251">
 <ele>572.77</ele>
 <time>2010-08-23T07:50:01Z</time>
 </trkpt>
 <trkpt lat="47.513363" lon="13.166081">
 <ele>573.03</ele>
 <time>2010-08-23T07:50:10Z</time>
 </trkpt>
 <trkpt lat="47.513676" lon="13.165867">
 <ele>573.40</ele>
 <time>2010-08-23T07:50:19Z</time>
 </trkpt>
 <trkpt lat="47.514042" lon="13.165565">
 <ele>573.29</ele>
 <time>2010-08-23T07:50:29Z</time>
 </trkpt>
 <trkpt lat="47.514236" lon="13.165364">
 <ele>573.47</ele>
 <time>2010-08-23T07:50:34Z</time>
 </trkpt>
 <trkpt lat="47.514675" lon="13.164967">
 <ele>572.23</ele>
 <time>2010-08-23T07:50:43Z</time>
 </trkpt>
 <trkpt lat="47.515156" lon="13.164584">
 <ele>571.00</ele>
 <time>2010-08-23T07:50:51Z</time>
 </trkpt>
 <trkpt lat="47.515606" lon="13.164338">
 <ele>568.69</ele>
 <time>2010-08-23T07:50:57Z</time>
 </trkpt>
 <trkpt lat="47.516125" lon="13.164145">
 <ele>565.78</ele>
 <time>2010-08-23T07:51:03Z</time>
 </trkpt>
 <trkpt lat="47.516586" lon="13.164070">
 <ele>562.83</ele>
 <time>2010-08-23T07:51:08Z</time>
 </trkpt>
 <trkpt lat="47.516872" lon="13.164058">
 <ele>561.39</ele>
 <time>2010-08-23T07:51:11Z</time>
 </trkpt>
 <trkpt lat="47.517467" lon="13.164140">
 <ele>558.28</ele>
 <time>2010-08-23T07:51:17Z</time>
 </trkpt>
 <trkpt lat="47.518070" lon="13.164362">
 <ele>554.63</ele>
 <time>2010-08-23T07:51:23Z</time>
 </trkpt>
 <trkpt lat="47.518726" lon="13.164754">
 <ele>551.88</ele>
 <time>2010-08-23T07:51:30Z</time>
 </trkpt>
 <trkpt lat="47.519413" lon="13.165189">
 <ele>550.74</ele>
 <time>2010-08-23T07:51:38Z</time>
 </trkpt>
 <trkpt lat="47.520115" lon="13.165647">
 <ele>550.95</ele>
 <time>2010-08-23T07:51:47Z</time>
 </trkpt>
 <trkpt lat="47.520596" lon="13.165963">
 <ele>551.14</ele>
 <time>2010-08-23T07:51:54Z</time>
 </trkpt>
 <trkpt lat="47.521214" lon="13.166346">
 <ele>553.60</ele>
 <time>2010-08-23T07:52:04Z</time>
 </trkpt>
 <trkpt lat="47.521782" lon="13.166718">
 <ele>554.43</ele>
 <time>2010-08-23T07:52:14Z</time>
 </trkpt>
 <trkpt lat="47.522388" lon="13.167106">
 <ele>555.48</ele>
 <time>2010-08-23T07:52:25Z</time>
 </trkpt>
 <trkpt lat="47.522930" lon="13.167457">
 <ele>555.45</ele>
 <time>2010-08-23T07:52:35Z</time>
 </trkpt>
 <trkpt lat="47.523392" lon="13.167715">
 <ele>555.22</ele>
 <time>2010-08-23T07:52:44Z</time>
 </trkpt>
 <trkpt lat="47.523987" lon="13.167890">
 <ele>556.59</ele>
 <time>2010-08-23T07:52:55Z</time>
 </trkpt>
 <trkpt lat="47.524578" lon="13.167933">
 <ele>557.59</ele>
 <time>2010-08-23T07:53:06Z</time>
 </trkpt>
 <trkpt lat="47.525070" lon="13.167856">
 <ele>557.91</ele>
 <time>2010-08-23T07:53:15Z</time>
 </trkpt>
 <trkpt lat="47.525707" lon="13.167637">
 <ele>557.72</ele>
 <time>2010-08-23T07:53:26Z</time>
 </trkpt>
 <trkpt lat="47.526302" lon="13.167458">
 <ele>557.28</ele>
 <time>2010-08-23T07:53:35Z</time>
 </trkpt>
 <trkpt lat="47.526978" lon="13.167365">
 <ele>555.40</ele>
 <time>2010-08-23T07:53:44Z</time>
 </trkpt>
 <trkpt lat="47.527710" lon="13.167317">
 <ele>553.36</ele>
 <time>2010-08-23T07:53:53Z</time>
 </trkpt>
 <trkpt lat="47.528114" lon="13.167252">
 <ele>552.36</ele>
 <time>2010-08-23T07:53:58Z</time>
 </trkpt>
 <trkpt lat="47.528622" lon="13.167098">
 <ele>550.09</ele>
 <time>2010-08-23T07:54:04Z</time>
 </trkpt>
 <trkpt lat="47.529274" lon="13.166787">
 <ele>548.38</ele>
 <time>2010-08-23T07:54:12Z</time>
 </trkpt>
 <trkpt lat="47.529968" lon="13.166439">
 <ele>547.54</ele>
 <time>2010-08-23T07:54:21Z</time>
 </trkpt>
 <trkpt lat="47.530575" lon="13.166248">
 <ele>547.25</ele>
 <time>2010-08-23T07:54:29Z</time>
 </trkpt>
 <trkpt lat="47.531078" lon="13.166198">
 <ele>547.39</ele>
 <time>2010-08-23T07:54:36Z</time>
 </trkpt>
 <trkpt lat="47.531490" lon="13.166245">
 <ele>547.86</ele>
 <time>2010-08-23T07:54:42Z</time>
 </trkpt>
 <trkpt lat="47.532001" lon="13.166411">
 <ele>548.56</ele>
 <time>2010-08-23T07:54:50Z</time>
 </trkpt>
 <trkpt lat="47.532520" lon="13.166708">
 <ele>549.48</ele>
 <time>2010-08-23T07:54:59Z</time>
 </trkpt>
 <trkpt lat="47.532837" lon="13.166904">
 <ele>549.93</ele>
 <time>2010-08-23T07:55:05Z</time>
 </trkpt>
 <trkpt lat="47.533451" lon="13.167278">
 <ele>551.04</ele>
 <time>2010-08-23T07:55:17Z</time>
 </trkpt>
 <trkpt lat="47.533562" lon="13.167320">
 <ele>550.99</ele>
 <time>2010-08-23T07:55:19Z</time>
 </trkpt>
 <trkpt lat="47.534004" lon="13.167513">
 <ele>551.22</ele>
 <time>2010-08-23T07:55:27Z</time>
 </trkpt>
 <trkpt lat="47.534489" lon="13.167670">
 <ele>551.41</ele>
 <time>2010-08-23T07:55:36Z</time>
 </trkpt>
 <trkpt lat="47.535023" lon="13.167837">
 <ele>553.00</ele>
 <time>2010-08-23T07:55:46Z</time>
 </trkpt>
 <trkpt lat="47.535576" lon="13.168023">
 <ele>553.23</ele>
 <time>2010-08-23T07:55:56Z</time>
 </trkpt>
 <trkpt lat="47.536102" lon="13.168250">
 <ele>553.15</ele>
 <time>2010-08-23T07:56:06Z</time>
 </trkpt>
 <trkpt lat="47.536674" lon="13.168597">
 <ele>553.40</ele>
 <time>2010-08-23T07:56:17Z</time>
 </trkpt>
 <trkpt lat="47.537251" lon="13.169062">
 <ele>553.27</ele>
 <time>2010-08-23T07:56:28Z</time>
 </trkpt>
 <trkpt lat="47.537949" lon="13.169622">
 <ele>552.11</ele>
 <time>2010-08-23T07:56:41Z</time>
 </trkpt>
 <trkpt lat="47.538334" lon="13.169912">
 <ele>551.29</ele>
 <time>2010-08-23T07:56:48Z</time>
 </trkpt>
 <trkpt lat="47.539131" lon="13.170477">
 <ele>550.24</ele>
 <time>2010-08-23T07:57:02Z</time>
 </trkpt>
 <trkpt lat="47.539291" lon="13.170613">
 <ele>550.04</ele>
 <time>2010-08-23T07:57:05Z</time>
 </trkpt>
 <trkpt lat="47.539528" lon="13.170993">
 <ele>550.07</ele>
 <time>2010-08-23T07:57:11Z</time>
 </trkpt>
 <trkpt lat="47.539680" lon="13.171036">
 <ele>550.23</ele>
 <time>2010-08-23T07:57:14Z</time>
 </trkpt>
 <trkpt lat="47.539997" lon="13.171028">
 <ele>549.05</ele>
 <time>2010-08-23T07:57:19Z</time>
 </trkpt>
 <trkpt lat="47.540600" lon="13.171323">
 <ele>545.31</ele>
 <time>2010-08-23T07:57:27Z</time>
 </trkpt>
 <trkpt lat="47.541195" lon="13.171491">
 <ele>542.66</ele>
 <time>2010-08-23T07:57:34Z</time>
 </trkpt>
 <trkpt lat="47.541763" lon="13.171538">
 <ele>542.47</ele>
 <time>2010-08-23T07:57:41Z</time>
 </trkpt>
 <trkpt lat="47.542267" lon="13.171481">
 <ele>542.85</ele>
 <time>2010-08-23T07:57:48Z</time>
 </trkpt>
 <trkpt lat="47.542786" lon="13.171307">
 <ele>543.99</ele>
 <time>2010-08-23T07:57:56Z</time>
 </trkpt>
 <trkpt lat="47.543324" lon="13.171099">
 <ele>544.86</ele>
 <time>2010-08-23T07:58:05Z</time>
 </trkpt>
 <trkpt lat="47.543835" lon="13.170942">
 <ele>545.27</ele>
 <time>2010-08-23T07:58:14Z</time>
 </trkpt>
 <trkpt lat="47.544449" lon="13.170835">
 <ele>546.30</ele>
 <time>2010-08-23T07:58:25Z</time>
 </trkpt>
 <trkpt lat="47.544987" lon="13.170668">
 <ele>547.03</ele>
 <time>2010-08-23T07:58:35Z</time>
 </trkpt>
 <trkpt lat="47.545452" lon="13.170465">
 <ele>547.61</ele>
 <time>2010-08-23T07:58:44Z</time>
 </trkpt>
 <trkpt lat="47.545940" lon="13.170370">
 <ele>548.10</ele>
 <time>2010-08-23T07:58:53Z</time>
 </trkpt>
 <trkpt lat="47.546516" lon="13.170342">
 <ele>547.74</ele>
 <time>2010-08-23T07:59:03Z</time>
 </trkpt>
 <trkpt lat="47.546967" lon="13.170272">
 <ele>547.53</ele>
 <time>2010-08-23T07:59:10Z</time>
 </trkpt>
 <trkpt lat="47.547504" lon="13.170109">
 <ele>545.37</ele>
 <time>2010-08-23T07:59:17Z</time>
 </trkpt>
 <trkpt lat="47.548115" lon="13.170017">
 <ele>542.05</ele>
 <time>2010-08-23T07:59:24Z</time>
 </trkpt>
 <trkpt lat="47.548817" lon="13.170041">
 <ele>541.47</ele>
 <time>2010-08-23T07:59:32Z</time>
 </trkpt>
 <trkpt lat="47.549850" lon="13.170172">
 <ele>540.56</ele>
 <time>2010-08-23T07:59:44Z</time>
 </trkpt>
 <trkpt lat="47.550373" lon="13.170235">
 <ele>538.59</ele>
 <time>2010-08-23T07:59:50Z</time>
 </trkpt>
 <trkpt lat="47.550945" lon="13.170304">
 <ele>539.26</ele>
 <time>2010-08-23T07:59:57Z</time>
 </trkpt>
 <trkpt lat="47.551449" lon="13.170277">
 <ele>539.65</ele>
 <time>2010-08-23T08:00:04Z</time>
 </trkpt>
 <trkpt lat="47.551945" lon="13.170161">
 <ele>542.68</ele>
 <time>2010-08-23T08:00:12Z</time>
 </trkpt>
 <trkpt lat="47.552402" lon="13.169919">
 <ele>544.49</ele>
 <time>2010-08-23T08:00:20Z</time>
 </trkpt>
 <trkpt lat="47.553047" lon="13.169459">
 <ele>544.06</ele>
 <time>2010-08-23T08:00:31Z</time>
 </trkpt>
 <trkpt lat="47.553493" lon="13.169067">
 <ele>543.07</ele>
 <time>2010-08-23T08:00:38Z</time>
 </trkpt>
 <trkpt lat="47.554066" lon="13.168480">
 <ele>541.98</ele>
 <time>2010-08-23T08:00:47Z</time>
 </trkpt>
 <trkpt lat="47.554546" lon="13.167784">
 <ele>541.64</ele>
 <time>2010-08-23T08:00:56Z</time>
 </trkpt>
 <trkpt lat="47.554951" lon="13.167457">
 <ele>542.93</ele>
 <time>2010-08-23T08:01:03Z</time>
 </trkpt>
 <trkpt lat="47.555317" lon="13.167309">
 <ele>543.40</ele>
 <time>2010-08-23T08:01:09Z</time>
 </trkpt>
 <trkpt lat="47.555618" lon="13.167161">
 <ele>544.61</ele>
 <time>2010-08-23T08:01:15Z</time>
 </trkpt>
 <trkpt lat="47.555889" lon="13.167030">
 <ele>545.72</ele>
 <time>2010-08-23T08:01:21Z</time>
 </trkpt>
 <trkpt lat="47.556190" lon="13.166944">
 <ele>546.71</ele>
 <time>2010-08-23T08:01:27Z</time>
 </trkpt>
 <trkpt lat="47.556423" lon="13.166852">
 <ele>546.59</ele>
 <time>2010-08-23T08:01:32Z</time>
 </trkpt>
 <trkpt lat="47.556442" lon="13.166801">
 <ele>546.59</ele>
 <time>2010-08-23T08:01:33Z</time>
 </trkpt>
 <trkpt lat="47.556644" lon="13.166597">
 <ele>547.03</ele>
 <time>2010-08-23T08:01:39Z</time>
 </trkpt>
 <trkpt lat="47.557073" lon="13.166759">
 <ele>546.73</ele>
 <time>2010-08-23T08:01:46Z</time>
 </trkpt>
 <trkpt lat="47.558175" lon="13.166737">
 <ele>541.41</ele>
 <time>2010-08-23T08:02:02Z</time>
 </trkpt>
 <trkpt lat="47.558848" lon="13.166614">
 <ele>540.94</ele>
 <time>2010-08-23T08:02:09Z</time>
 </trkpt>
 <trkpt lat="47.559443" lon="13.166560">
 <ele>541.09</ele>
 <time>2010-08-23T08:02:18Z</time>
 </trkpt>
 <trkpt lat="47.559971" lon="13.166541">
 <ele>541.26</ele>
 <time>2010-08-23T08:02:24Z</time>
 </trkpt>
 <trkpt lat="47.560545" lon="13.166538">
 <ele>541.30</ele>
 <time>2010-08-23T08:02:32Z</time>
 </trkpt>
 <trkpt lat="47.560727" lon="13.166698">
 <ele>541.52</ele>
 <time>2010-08-23T08:02:33Z</time>
 </trkpt>
 <trkpt lat="47.561066" lon="13.166769">
 <ele>541.46</ele>
 <time>2010-08-23T08:02:38Z</time>
 </trkpt>
 <trkpt lat="47.561574" lon="13.166800">
 <ele>541.15</ele>
 <time>2010-08-23T08:02:43Z</time>
 </trkpt>
 <trkpt lat="47.562186" lon="13.167095">
 <ele>540.87</ele>
 <time>2010-08-23T08:02:51Z</time>
 </trkpt>
 <trkpt lat="47.562595" lon="13.167379">
 <ele>541.77</ele>
 <time>2010-08-23T08:02:57Z</time>
 </trkpt>
 <trkpt lat="47.562902" lon="13.167585">
 <ele>543.20</ele>
 <time>2010-08-23T08:03:03Z</time>
 </trkpt>
 <trkpt lat="47.563276" lon="13.167771">
 <ele>542.42</ele>
 <time>2010-08-23T08:03:08Z</time>
 </trkpt>
 <trkpt lat="47.563548" lon="13.167878">
 <ele>544.42</ele>
 <time>2010-08-23T08:03:15Z</time>
 </trkpt>
 <trkpt lat="47.563743" lon="13.168120">
 <ele>544.42</ele>
 <time>2010-08-23T08:03:20Z</time>
 </trkpt>
 <trkpt lat="47.563951" lon="13.168445">
 <ele>546.17</ele>
 <time>2010-08-23T08:03:27Z</time>
 </trkpt>
 <trkpt lat="47.564219" lon="13.169051">
 <ele>547.68</ele>
 <time>2010-08-23T08:03:34Z</time>
 </trkpt>
 <trkpt lat="47.564337" lon="13.169412">
 <ele>546.45</ele>
 <time>2010-08-23T08:03:39Z</time>
 </trkpt>
 <trkpt lat="47.564503" lon="13.169939">
 <ele>543.77</ele>
 <time>2010-08-23T08:03:44Z</time>
 </trkpt>
 <trkpt lat="47.564685" lon="13.170780">
 <ele>543.03</ele>
 <time>2010-08-23T08:03:54Z</time>
 </trkpt>
 <trkpt lat="47.564843" lon="13.171489">
 <ele>542.47</ele>
 <time>2010-08-23T08:04:01Z</time>
 </trkpt>
 <trkpt lat="47.564920" lon="13.172101">
 <ele>542.46</ele>
 <time>2010-08-23T08:04:07Z</time>
 </trkpt>
 <trkpt lat="47.564974" lon="13.172664">
 <ele>541.96</ele>
 <time>2010-08-23T08:04:13Z</time>
 </trkpt>
 <trkpt lat="47.565074" lon="13.173276">
 <ele>542.68</ele>
 <time>2010-08-23T08:04:19Z</time>
 </trkpt>
 <trkpt lat="47.565236" lon="13.174300">
 <ele>543.04</ele>
 <time>2010-08-23T08:04:28Z</time>
 </trkpt>
 <trkpt lat="47.565363" lon="13.175160">
 <ele>543.75</ele>
 <time>2010-08-23T08:04:37Z</time>
 </trkpt>
 <trkpt lat="47.565401" lon="13.176139">
 <ele>543.35</ele>
 <time>2010-08-23T08:04:47Z</time>
 </trkpt>
 <trkpt lat="47.565657" lon="13.177427">
 <ele>544.68</ele>
 <time>2010-08-23T08:04:57Z</time>
 </trkpt>
 <trkpt lat="47.565805" lon="13.178236">
 <ele>546.55</ele>
 <time>2010-08-23T08:05:07Z</time>
 </trkpt>
 <trkpt lat="47.565969" lon="13.179344">
 <ele>546.49</ele>
 <time>2010-08-23T08:05:17Z</time>
 </trkpt>
 <trkpt lat="47.566249" lon="13.179999">
 <ele>546.70</ele>
 <time>2010-08-23T08:05:26Z</time>
 </trkpt>
 <trkpt lat="47.566598" lon="13.180685">
 <ele>546.37</ele>
 <time>2010-08-23T08:05:34Z</time>
 </trkpt>
 <trkpt lat="47.567322" lon="13.181739">
 <ele>547.95</ele>
 <time>2010-08-23T08:05:47Z</time>
 </trkpt>
 <trkpt lat="47.567482" lon="13.182275">
 <ele>547.61</ele>
 <time>2010-08-23T08:05:52Z</time>
 </trkpt>
 <trkpt lat="47.567704" lon="13.183488">
 <ele>548.44</ele>
 <time>2010-08-23T08:06:03Z</time>
 </trkpt>
 <trkpt lat="47.567848" lon="13.184082">
 <ele>547.76</ele>
 <time>2010-08-23T08:06:09Z</time>
 </trkpt>
 <trkpt lat="47.568169" lon="13.184646">
 <ele>548.71</ele>
 <time>2010-08-23T08:06:17Z</time>
 </trkpt>
 <trkpt lat="47.568481" lon="13.185405">
 <ele>549.35</ele>
 <time>2010-08-23T08:06:26Z</time>
 </trkpt>
 <trkpt lat="47.568951" lon="13.186356">
 <ele>549.74</ele>
 <time>2010-08-23T08:06:37Z</time>
 </trkpt>
 <trkpt lat="47.569347" lon="13.187080">
 <ele>549.01</ele>
 <time>2010-08-23T08:06:46Z</time>
 </trkpt>
 <trkpt lat="47.569832" lon="13.187876">
 <ele>549.18</ele>
 <time>2010-08-23T08:06:57Z</time>
 </trkpt>
 <trkpt lat="47.570309" lon="13.188561">
 <ele>550.96</ele>
 <time>2010-08-23T08:07:08Z</time>
 </trkpt>
 <trkpt lat="47.570618" lon="13.188961">
 <ele>552.51</ele>
 <time>2010-08-23T08:07:16Z</time>
 </trkpt>
 <trkpt lat="47.570927" lon="13.189307">
 <ele>554.28</ele>
 <time>2010-08-23T08:07:24Z</time>
 </trkpt>
 <trkpt lat="47.571095" lon="13.189460">
 <ele>555.60</ele>
 <time>2010-08-23T08:07:28Z</time>
 </trkpt>
 <trkpt lat="47.571400" lon="13.189711">
 <ele>558.02</ele>
 <time>2010-08-23T08:07:37Z</time>
 </trkpt>
 <trkpt lat="47.571484" lon="13.189744">
 <ele>558.97</ele>
 <time>2010-08-23T08:07:42Z</time>
 </trkpt>
 <trkpt lat="47.571507" lon="13.189754">
 <ele>561.04</ele>
 <time>2010-08-23T08:07:46Z</time>
 </trkpt>
 <trkpt lat="47.571774" lon="13.189823">
 <ele>561.74</ele>
 <time>2010-08-23T08:07:51Z</time>
 </trkpt>
 <trkpt lat="47.572029" lon="13.190073">
 <ele>563.14</ele>
 <time>2010-08-23T08:07:59Z</time>
 </trkpt>
 <trkpt lat="47.572166" lon="13.190371">
 <ele>565.24</ele>
 <time>2010-08-23T08:08:08Z</time>
 </trkpt>
 <trkpt lat="47.572266" lon="13.190626">
 <ele>567.11</ele>
 <time>2010-08-23T08:08:17Z</time>
 </trkpt>
 <trkpt lat="47.572353" lon="13.190840">
 <ele>568.50</ele>
 <time>2010-08-23T08:08:25Z</time>
 </trkpt>
 <trkpt lat="47.572441" lon="13.191040">
 <ele>569.54</ele>
 <time>2010-08-23T08:08:33Z</time>
 </trkpt>
 <trkpt lat="47.572456" lon="13.191311">
 <ele>571.55</ele>
 <time>2010-08-23T08:08:43Z</time>
 </trkpt>
 <trkpt lat="47.572483" lon="13.191506">
 <ele>573.08</ele>
 <time>2010-08-23T08:08:50Z</time>
 </trkpt>
 <trkpt lat="47.572575" lon="13.191835">
 <ele>575.24</ele>
 <time>2010-08-23T08:09:01Z</time>
 </trkpt>
 <trkpt lat="47.572605" lon="13.192102">
 <ele>576.93</ele>
 <time>2010-08-23T08:09:10Z</time>
 </trkpt>
 <trkpt lat="47.572613" lon="13.192355">
 <ele>578.22</ele>
 <time>2010-08-23T08:09:19Z</time>
 </trkpt>
 <trkpt lat="47.572639" lon="13.192603">
 <ele>579.73</ele>
 <time>2010-08-23T08:09:28Z</time>
 </trkpt>
 <trkpt lat="47.572678" lon="13.192824">
 <ele>581.50</ele>
 <time>2010-08-23T08:09:36Z</time>
 </trkpt>
 <trkpt lat="47.572735" lon="13.193078">
 <ele>582.66</ele>
 <time>2010-08-23T08:09:45Z</time>
 </trkpt>
 <trkpt lat="47.572803" lon="13.193354">
 <ele>584.38</ele>
 <time>2010-08-23T08:09:55Z</time>
 </trkpt>
 <trkpt lat="47.572887" lon="13.193604">
 <ele>585.68</ele>
 <time>2010-08-23T08:10:04Z</time>
 </trkpt>
 <trkpt lat="47.572964" lon="13.193796">
 <ele>587.06</ele>
 <time>2010-08-23T08:10:11Z</time>
 </trkpt>
 <trkpt lat="47.573082" lon="13.194063">
 <ele>588.65</ele>
 <time>2010-08-23T08:10:21Z</time>
 </trkpt>
 <trkpt lat="47.573189" lon="13.194254">
 <ele>589.67</ele>
 <time>2010-08-23T08:10:29Z</time>
 </trkpt>
 <trkpt lat="47.573318" lon="13.194445">
 <ele>591.87</ele>
 <time>2010-08-23T08:10:38Z</time>
 </trkpt>
 <trkpt lat="47.573460" lon="13.194612">
 <ele>593.69</ele>
 <time>2010-08-23T08:10:47Z</time>
 </trkpt>
 <trkpt lat="47.573589" lon="13.194730">
 <ele>594.46</ele>
 <time>2010-08-23T08:10:55Z</time>
 </trkpt>
 <trkpt lat="47.573723" lon="13.194812">
 <ele>595.47</ele>
 <time>2010-08-23T08:11:02Z</time>
 </trkpt>
 <trkpt lat="47.573868" lon="13.194891">
 <ele>596.46</ele>
 <time>2010-08-23T08:11:09Z</time>
 </trkpt>
 <trkpt lat="47.574047" lon="13.194963">
 <ele>597.06</ele>
 <time>2010-08-23T08:11:18Z</time>
 </trkpt>
 <trkpt lat="47.574261" lon="13.195002">
 <ele>599.05</ele>
 <time>2010-08-23T08:11:28Z</time>
 </trkpt>
 <trkpt lat="47.574375" lon="13.195002">
 <ele>600.90</ele>
 <time>2010-08-23T08:11:34Z</time>
 </trkpt>
 <trkpt lat="47.574459" lon="13.194982">
 <ele>602.24</ele>
 <time>2010-08-23T08:11:39Z</time>
 </trkpt>
 <trkpt lat="47.574627" lon="13.194966">
 <ele>603.09</ele>
 <time>2010-08-23T08:11:46Z</time>
 </trkpt>
 <trkpt lat="47.574825" lon="13.194932">
 <ele>604.04</ele>
 <time>2010-08-23T08:11:54Z</time>
 </trkpt>
 <trkpt lat="47.575008" lon="13.194867">
 <ele>604.68</ele>
 <time>2010-08-23T08:12:01Z</time>
 </trkpt>
 <trkpt lat="47.575233" lon="13.194802">
 <ele>604.86</ele>
 <time>2010-08-23T08:12:09Z</time>
 </trkpt>
 <trkpt lat="47.575424" lon="13.194749">
 <ele>605.84</ele>
 <time>2010-08-23T08:12:16Z</time>
 </trkpt>
 <trkpt lat="47.575645" lon="13.194709">
 <ele>607.37</ele>
 <time>2010-08-23T08:12:23Z</time>
 </trkpt>
 <trkpt lat="47.577194" lon="13.194147">
 <ele>610.23</ele>
 <time>2010-08-23T08:12:54Z</time>
 </trkpt>
 <trkpt lat="47.577324" lon="13.193966">
 <ele>609.67</ele>
 <time>2010-08-23T08:12:58Z</time>
 </trkpt>
 <trkpt lat="47.577717" lon="13.193352">
 <ele>607.10</ele>
 <time>2010-08-23T08:13:06Z</time>
 </trkpt>
 <trkpt lat="47.577950" lon="13.192824">
 <ele>604.17</ele>
 <time>2010-08-23T08:13:11Z</time>
 </trkpt>
 <trkpt lat="47.578144" lon="13.192148">
 <ele>599.62</ele>
 <time>2010-08-23T08:13:16Z</time>
 </trkpt>
 <trkpt lat="47.578259" lon="13.191726">
 <ele>597.35</ele>
 <time>2010-08-23T08:13:19Z</time>
 </trkpt>
 <trkpt lat="47.578457" lon="13.191057">
 <ele>595.58</ele>
 <time>2010-08-23T08:13:24Z</time>
 </trkpt>
 <trkpt lat="47.578724" lon="13.190300">
 <ele>591.96</ele>
 <time>2010-08-23T08:13:29Z</time>
 </trkpt>
 <trkpt lat="47.579262" lon="13.189042">
 <ele>581.49</ele>
 <time>2010-08-23T08:13:37Z</time>
 </trkpt>
 <trkpt lat="47.579571" lon="13.188414">
 <ele>577.38</ele>
 <time>2010-08-23T08:13:41Z</time>
 </trkpt>
 <trkpt lat="47.580044" lon="13.187486">
 <ele>570.69</ele>
 <time>2010-08-23T08:13:47Z</time>
 </trkpt>
 <trkpt lat="47.580128" lon="13.187341">
 <ele>570.68</ele>
 <time>2010-08-23T08:13:48Z</time>
 </trkpt>
 <trkpt lat="47.580559" lon="13.186428">
 <ele>564.44</ele>
 <time>2010-08-23T08:13:54Z</time>
 </trkpt>
 <trkpt lat="47.580772" lon="13.185762">
 <ele>561.93</ele>
 <time>2010-08-23T08:13:58Z</time>
 </trkpt>
 <trkpt lat="47.580894" lon="13.185017">
 <ele>559.04</ele>
 <time>2010-08-23T08:14:02Z</time>
 </trkpt>
 <trkpt lat="47.581150" lon="13.183944">
 <ele>550.10</ele>
 <time>2010-08-23T08:14:08Z</time>
 </trkpt>
 <trkpt lat="47.581444" lon="13.183336">
 <ele>546.44</ele>
 <time>2010-08-23T08:14:12Z</time>
 </trkpt>
 <trkpt lat="47.581627" lon="13.183090">
 <ele>545.42</ele>
 <time>2010-08-23T08:14:14Z</time>
 </trkpt>
 <trkpt lat="47.582047" lon="13.182725">
 <ele>543.19</ele>
 <time>2010-08-23T08:14:18Z</time>
 </trkpt>
 <trkpt lat="47.582504" lon="13.182549">
 <ele>540.99</ele>
 <time>2010-08-23T08:14:22Z</time>
 </trkpt>
 <trkpt lat="47.582619" lon="13.182530">
 <ele>540.86</ele>
 <time>2010-08-23T08:14:23Z</time>
 </trkpt>
 <trkpt lat="47.583305" lon="13.182488">
 <ele>540.45</ele>
 <time>2010-08-23T08:14:29Z</time>
 </trkpt>
 <trkpt lat="47.583942" lon="13.182348">
 <ele>539.70</ele>
 <time>2010-08-23T08:14:35Z</time>
 </trkpt>
 <trkpt lat="47.584503" lon="13.182052">
 <ele>537.99</ele>
 <time>2010-08-23T08:14:41Z</time>
 </trkpt>
 <trkpt lat="47.584972" lon="13.181666">
 <ele>538.24</ele>
 <time>2010-08-23T08:14:47Z</time>
 </trkpt>
 <trkpt lat="47.585388" lon="13.181143">
 <ele>538.63</ele>
 <time>2010-08-23T08:14:53Z</time>
 </trkpt>
 <trkpt lat="47.585854" lon="13.180426">
 <ele>538.97</ele>
 <time>2010-08-23T08:15:00Z</time>
 </trkpt>
 <trkpt lat="47.586216" lon="13.179985">
 <ele>538.53</ele>
 <time>2010-08-23T08:15:05Z</time>
 </trkpt>
 <trkpt lat="47.586864" lon="13.179392">
 <ele>538.90</ele>
 <time>2010-08-23T08:15:13Z</time>
 </trkpt>
 <trkpt lat="47.587257" lon="13.179012">
 <ele>539.17</ele>
 <time>2010-08-23T08:15:18Z</time>
 </trkpt>
 <trkpt lat="47.587933" lon="13.178355">
 <ele>538.77</ele>
 <time>2010-08-23T08:15:27Z</time>
 </trkpt>
 <trkpt lat="47.588417" lon="13.177787">
 <ele>538.93</ele>
 <time>2010-08-23T08:15:34Z</time>
 </trkpt>
 <trkpt lat="47.588802" lon="13.177274">
 <ele>539.59</ele>
 <time>2010-08-23T08:15:40Z</time>
 </trkpt>
 <trkpt lat="47.589275" lon="13.176765">
 <ele>540.06</ele>
 <time>2010-08-23T08:15:47Z</time>
 </trkpt>
 <trkpt lat="47.589664" lon="13.176579">
 <ele>540.13</ele>
 <time>2010-08-23T08:15:52Z</time>
 </trkpt>
 <trkpt lat="47.590054" lon="13.176539">
 <ele>541.05</ele>
 <time>2010-08-23T08:15:57Z</time>
 </trkpt>
 <trkpt lat="47.590572" lon="13.176562">
 <ele>540.44</ele>
 <time>2010-08-23T08:16:04Z</time>
 </trkpt>
 <trkpt lat="47.590698" lon="13.176568">
 <ele>539.95</ele>
 <time>2010-08-23T08:16:06Z</time>
 </trkpt>
 <trkpt lat="47.590919" lon="13.176676">
 <ele>540.37</ele>
 <time>2010-08-23T08:16:11Z</time>
 </trkpt>
 <trkpt lat="47.590973" lon="13.176713">
 <ele>541.56</ele>
 <time>2010-08-23T08:16:15Z</time>
 </trkpt>
 <trkpt lat="47.590973" lon="13.176714">
 <ele>541.59</ele>
 <time>2010-08-23T08:16:16Z</time>
 </trkpt>
 <trkpt lat="47.591038" lon="13.176737">
 <ele>540.80</ele>
 <time>2010-08-23T08:16:31Z</time>
 </trkpt>
 <trkpt lat="47.591068" lon="13.176731">
 <ele>540.95</ele>
 <time>2010-08-23T08:16:32Z</time>
 </trkpt>
 <trkpt lat="47.591248" lon="13.176421">
 <ele>540.84</ele>
 <time>2010-08-23T08:16:40Z</time>
 </trkpt>
 <trkpt lat="47.591415" lon="13.176071">
 <ele>539.93</ele>
 <time>2010-08-23T08:16:46Z</time>
 </trkpt>
 <trkpt lat="47.591694" lon="13.175570">
 <ele>538.64</ele>
 <time>2010-08-23T08:16:53Z</time>
 </trkpt>
 <trkpt lat="47.592064" lon="13.174891">
 <ele>538.48</ele>
 <time>2010-08-23T08:17:03Z</time>
 </trkpt>
 <trkpt lat="47.592300" lon="13.174454">
 <ele>539.25</ele>
 <time>2010-08-23T08:17:10Z</time>
 </trkpt>
 <trkpt lat="47.592640" lon="13.173802">
 <ele>539.23</ele>
 <time>2010-08-23T08:17:20Z</time>
 </trkpt>
 <trkpt lat="47.592850" lon="13.173410">
 <ele>540.63</ele>
 <time>2010-08-23T08:17:27Z</time>
 </trkpt>
 <trkpt lat="47.593082" lon="13.172942">
 <ele>540.12</ele>
 <time>2010-08-23T08:17:35Z</time>
 </trkpt>
 <trkpt lat="47.593380" lon="13.172385">
 <ele>541.00</ele>
 <time>2010-08-23T08:17:46Z</time>
 </trkpt>
 <trkpt lat="47.593624" lon="13.171959">
 <ele>539.04</ele>
 <time>2010-08-23T08:17:53Z</time>
 </trkpt>
 <trkpt lat="47.594097" lon="13.171218">
 <ele>537.68</ele>
 <time>2010-08-23T08:18:04Z</time>
 </trkpt>
 <trkpt lat="47.594543" lon="13.170513">
 <ele>537.37</ele>
 <time>2010-08-23T08:18:14Z</time>
 </trkpt>
 <trkpt lat="47.594761" lon="13.170238">
 <ele>535.81</ele>
 <time>2010-08-23T08:18:18Z</time>
 </trkpt>
 <trkpt lat="47.595055" lon="13.170107">
 <ele>533.64</ele>
 <time>2010-08-23T08:18:22Z</time>
 </trkpt>
 <trkpt lat="47.595139" lon="13.170106">
 <ele>533.00</ele>
 <time>2010-08-23T08:18:23Z</time>
 </trkpt>
 <trkpt lat="47.595539" lon="13.170093">
 <ele>531.34</ele>
 <time>2010-08-23T08:18:28Z</time>
 </trkpt>
 <trkpt lat="47.595688" lon="13.170042">
 <ele>531.27</ele>
 <time>2010-08-23T08:18:30Z</time>
 </trkpt>
 <trkpt lat="47.595890" lon="13.169906">
 <ele>531.36</ele>
 <time>2010-08-23T08:18:33Z</time>
 </trkpt>
 <trkpt lat="47.596035" lon="13.169587">
 <ele>532.03</ele>
 <time>2010-08-23T08:18:37Z</time>
 </trkpt>
 <trkpt lat="47.596050" lon="13.169204">
 <ele>532.17</ele>
 <time>2010-08-23T08:18:41Z</time>
 </trkpt>
 <trkpt lat="47.596024" lon="13.169019">
 <ele>532.51</ele>
 <time>2010-08-23T08:18:43Z</time>
 </trkpt>
 <trkpt lat="47.595974" lon="13.168622">
 <ele>533.04</ele>
 <time>2010-08-23T08:18:47Z</time>
 </trkpt>
 <trkpt lat="47.596024" lon="13.168149">
 <ele>532.48</ele>
 <time>2010-08-23T08:18:52Z</time>
 </trkpt>
 <trkpt lat="47.596054" lon="13.167988">
 <ele>532.95</ele>
 <time>2010-08-23T08:18:54Z</time>
 </trkpt>
 <trkpt lat="47.596172" lon="13.167621">
 <ele>538.00</ele>
 <time>2010-08-23T08:19:01Z</time>
 </trkpt>
 <trkpt lat="47.596310" lon="13.167535">
 <ele>540.24</ele>
 <time>2010-08-23T08:19:06Z</time>
 </trkpt>
 <trkpt lat="47.596447" lon="13.167479">
 <ele>544.45</ele>
 <time>2010-08-23T08:19:12Z</time>
 </trkpt>
 <trkpt lat="47.596474" lon="13.167476">
 <ele>544.69</ele>
 <time>2010-08-23T08:19:13Z</time>
 </trkpt>
 <trkpt lat="47.596619" lon="13.167541">
 <ele>545.16</ele>
 <time>2010-08-23T08:19:18Z</time>
 </trkpt>
 <trkpt lat="47.596775" lon="13.167624">
 <ele>545.73</ele>
 <time>2010-08-23T08:19:24Z</time>
 </trkpt>
 <trkpt lat="47.596977" lon="13.167653">
 <ele>545.77</ele>
 <time>2010-08-23T08:19:30Z</time>
 </trkpt>
 <trkpt lat="47.597183" lon="13.167640">
 <ele>545.81</ele>
 <time>2010-08-23T08:19:35Z</time>
 </trkpt>
 <trkpt lat="47.597225" lon="13.167613">
 <ele>545.74</ele>
 <time>2010-08-23T08:19:36Z</time>
 </trkpt>
 <trkpt lat="47.597443" lon="13.167534">
 <ele>544.99</ele>
 <time>2010-08-23T08:19:41Z</time>
 </trkpt>
 <trkpt lat="47.597889" lon="13.167701">
 <ele>543.07</ele>
 <time>2010-08-23T08:19:47Z</time>
 </trkpt>
 <trkpt lat="47.598385" lon="13.167908">
 <ele>541.59</ele>
 <time>2010-08-23T08:19:54Z</time>
 </trkpt>
 <trkpt lat="47.598755" lon="13.168093">
 <ele>539.93</ele>
 <time>2010-08-23T08:19:59Z</time>
 </trkpt>
 <trkpt lat="47.599045" lon="13.168240">
 <ele>539.61</ele>
 <time>2010-08-23T08:20:04Z</time>
 </trkpt>
 <trkpt lat="47.599380" lon="13.168367">
 <ele>538.43</ele>
 <time>2010-08-23T08:20:09Z</time>
 </trkpt>
 <trkpt lat="47.599819" lon="13.168487">
 <ele>539.15</ele>
 <time>2010-08-23T08:20:16Z</time>
 </trkpt>
 <trkpt lat="47.600204" lon="13.168406">
 <ele>539.44</ele>
 <time>2010-08-23T08:20:22Z</time>
 </trkpt>
 <trkpt lat="47.600563" lon="13.168358">
 <ele>539.42</ele>
 <time>2010-08-23T08:20:28Z</time>
 </trkpt>
 <trkpt lat="47.601158" lon="13.168330">
 <ele>539.41</ele>
 <time>2010-08-23T08:20:38Z</time>
 </trkpt>
 <trkpt lat="47.601189" lon="13.168341">
 <ele>539.45</ele>
 <time>2010-08-23T08:20:39Z</time>
 </trkpt>
 <trkpt lat="47.601234" lon="13.168465">
 <ele>539.83</ele>
 <time>2010-08-23T08:20:43Z</time>
 </trkpt>
 <trkpt lat="47.601219" lon="13.168706">
 <ele>541.31</ele>
 <time>2010-08-23T08:20:49Z</time>
 </trkpt>
 <trkpt lat="47.601196" lon="13.169085">
 <ele>540.60</ele>
 <time>2010-08-23T08:20:55Z</time>
 </trkpt>
 <trkpt lat="47.601189" lon="13.169261">
 <ele>540.43</ele>
 <time>2010-08-23T08:20:58Z</time>
 </trkpt>
 <trkpt lat="47.601131" lon="13.169854">
 <ele>540.08</ele>
 <time>2010-08-23T08:21:07Z</time>
 </trkpt>
 <trkpt lat="47.601086" lon="13.170356">
 <ele>542.11</ele>
 <time>2010-08-23T08:21:15Z</time>
 </trkpt>
 <trkpt lat="47.601025" lon="13.170893">
 <ele>542.28</ele>
 <time>2010-08-23T08:21:23Z</time>
 </trkpt>
 <trkpt lat="47.600998" lon="13.171400">
 <ele>541.83</ele>
 <time>2010-08-23T08:21:30Z</time>
 </trkpt>
 <trkpt lat="47.601067" lon="13.171823">
 <ele>541.42</ele>
 <time>2010-08-23T08:21:36Z</time>
 </trkpt>
 <trkpt lat="47.601185" lon="13.172014">
 <ele>541.95</ele>
 <time>2010-08-23T08:21:40Z</time>
 </trkpt>
 <trkpt lat="47.601269" lon="13.172034">
 <ele>542.22</ele>
 <time>2010-08-23T08:21:42Z</time>
 </trkpt>
 <trkpt lat="47.601460" lon="13.172021">
 <ele>542.09</ele>
 <time>2010-08-23T08:21:46Z</time>
 </trkpt>
 <trkpt lat="47.601723" lon="13.171993">
 <ele>542.17</ele>
 <time>2010-08-23T08:21:51Z</time>
 </trkpt>
 <trkpt lat="47.601887" lon="13.172002">
 <ele>542.55</ele>
 <time>2010-08-23T08:21:54Z</time>
 </trkpt>
 <trkpt lat="47.602085" lon="13.172151">
 <ele>542.64</ele>
 <time>2010-08-23T08:21:59Z</time>
 </trkpt>
 <trkpt lat="47.602116" lon="13.172203">
 <ele>542.60</ele>
 <time>2010-08-23T08:22:00Z</time>
 </trkpt>
 <trkpt lat="47.602337" lon="13.172662">
 <ele>542.75</ele>
 <time>2010-08-23T08:22:08Z</time>
 </trkpt>
 <trkpt lat="47.602478" lon="13.173049">
 <ele>542.58</ele>
 <time>2010-08-23T08:22:14Z</time>
 </trkpt>
 <trkpt lat="47.602596" lon="13.173512">
 <ele>543.32</ele>
 <time>2010-08-23T08:22:21Z</time>
 </trkpt>
 <trkpt lat="47.602695" lon="13.174013">
 <ele>543.81</ele>
 <time>2010-08-23T08:22:28Z</time>
 </trkpt>
 <trkpt lat="47.602821" lon="13.174656">
 <ele>544.05</ele>
 <time>2010-08-23T08:22:37Z</time>
 </trkpt>
 <trkpt lat="47.602947" lon="13.175393">
 <ele>543.32</ele>
 <time>2010-08-23T08:22:47Z</time>
 </trkpt>
 <trkpt lat="47.603062" lon="13.175953">
 <ele>544.49</ele>
 <time>2010-08-23T08:22:55Z</time>
 </trkpt>
 <trkpt lat="47.603264" lon="13.176547">
 <ele>545.41</ele>
 <time>2010-08-23T08:23:05Z</time>
 </trkpt>
 <trkpt lat="47.603291" lon="13.176593">
 <ele>545.51</ele>
 <time>2010-08-23T08:23:06Z</time>
 </trkpt>
 <trkpt lat="47.603523" lon="13.176929">
 <ele>545.46</ele>
 <time>2010-08-23T08:23:13Z</time>
 </trkpt>
 <trkpt lat="47.603603" lon="13.177157">
 <ele>545.73</ele>
 <time>2010-08-23T08:23:17Z</time>
 </trkpt>
 <trkpt lat="47.603596" lon="13.177590">
 <ele>546.34</ele>
 <time>2010-08-23T08:23:24Z</time>
 </trkpt>
 <trkpt lat="47.603592" lon="13.177823">
 <ele>547.21</ele>
 <time>2010-08-23T08:23:29Z</time>
 </trkpt>
 <trkpt lat="47.603569" lon="13.177928">
 <ele>547.79</ele>
 <time>2010-08-23T08:23:34Z</time>
 </trkpt>
 <trkpt lat="47.603561" lon="13.177931">
 <ele>547.78</ele>
 <time>2010-08-23T08:23:37Z</time>
 </trkpt>
 <trkpt lat="47.603607" lon="13.177859">
 <ele>547.59</ele>
 <time>2010-08-23T08:23:42Z</time>
 </trkpt>
 <trkpt lat="47.603672" lon="13.177608">
 <ele>547.00</ele>
 <time>2010-08-23T08:23:48Z</time>
 </trkpt>
 <trkpt lat="47.603710" lon="13.177500">
 <ele>546.86</ele>
 <time>2010-08-23T08:23:50Z</time>
 </trkpt>
 <trkpt lat="47.603832" lon="13.177050">
 <ele>546.02</ele>
 <time>2010-08-23T08:23:57Z</time>
 </trkpt>
 <trkpt lat="47.603889" lon="13.176584">
 <ele>544.79</ele>
 <time>2010-08-23T08:24:03Z</time>
 </trkpt>
 <trkpt lat="47.603977" lon="13.175899">
 <ele>544.20</ele>
 <time>2010-08-23T08:24:11Z</time>
 </trkpt>
 <trkpt lat="47.604111" lon="13.175098">
 <ele>542.60</ele>
 <time>2010-08-23T08:24:20Z</time>
 </trkpt>
 <trkpt lat="47.604309" lon="13.174182">
 <ele>541.60</ele>
 <time>2010-08-23T08:24:30Z</time>
 </trkpt>
 <trkpt lat="47.604385" lon="13.173820">
 <ele>540.88</ele>
 <time>2010-08-23T08:24:34Z</time>
 </trkpt>
 <trkpt lat="47.604446" lon="13.173553">
 <ele>540.67</ele>
 <time>2010-08-23T08:24:37Z</time>
 </trkpt>
 <trkpt lat="47.604549" lon="13.173096">
 <ele>540.67</ele>
 <time>2010-08-23T08:24:43Z</time>
 </trkpt>
 <trkpt lat="47.604591" lon="13.172894">
 <ele>540.83</ele>
 <time>2010-08-23T08:24:48Z</time>
 </trkpt>
 <trkpt lat="47.604607" lon="13.172867">
 <ele>541.12</ele>
 <time>2010-08-23T08:24:50Z</time>
 </trkpt>
 <trkpt lat="47.604626" lon="13.172870">
 <ele>541.23</ele>
 <time>2010-08-23T08:24:54Z</time>
 </trkpt>
 <trkpt lat="47.604736" lon="13.172920">
 <ele>540.85</ele>
 <time>2010-08-23T08:25:00Z</time>
 </trkpt>
 <trkpt lat="47.604874" lon="13.173002">
 <ele>540.33</ele>
 <time>2010-08-23T08:25:04Z</time>
 </trkpt>
 <trkpt lat="47.605076" lon="13.173069">
 <ele>541.14</ele>
 <time>2010-08-23T08:25:10Z</time>
 </trkpt>
 <trkpt lat="47.605385" lon="13.173177">
 <ele>540.70</ele>
 <time>2010-08-23T08:25:17Z</time>
 </trkpt>
 <trkpt lat="47.605518" lon="13.173244">
 <ele>540.19</ele>
 <time>2010-08-23T08:25:20Z</time>
 </trkpt>
 <trkpt lat="47.605911" lon="13.173549">
 <ele>540.48</ele>
 <time>2010-08-23T08:25:29Z</time>
 </trkpt>
 <trkpt lat="47.606274" lon="13.173810">
 <ele>540.47</ele>
 <time>2010-08-23T08:25:37Z</time>
 </trkpt>
 <trkpt lat="47.606644" lon="13.174048">
 <ele>539.86</ele>
 <time>2010-08-23T08:25:45Z</time>
 </trkpt>
 <trkpt lat="47.606926" lon="13.174257">
 <ele>541.00</ele>
 <time>2010-08-23T08:25:51Z</time>
 </trkpt>
 <trkpt lat="47.607063" lon="13.174336">
 <ele>541.31</ele>
 <time>2010-08-23T08:25:54Z</time>
 </trkpt>
 <trkpt lat="47.607239" lon="13.174599">
 <ele>541.30</ele>
 <time>2010-08-23T08:25:59Z</time>
 </trkpt>
 <trkpt lat="47.607502" lon="13.175105">
 <ele>541.47</ele>
 <time>2010-08-23T08:26:08Z</time>
 </trkpt>
 <trkpt lat="47.607727" lon="13.175505">
 <ele>542.57</ele>
 <time>2010-08-23T08:26:16Z</time>
 </trkpt>
 <trkpt lat="47.607960" lon="13.175925">
 <ele>544.22</ele>
 <time>2010-08-23T08:26:25Z</time>
 </trkpt>
 <trkpt lat="47.608265" lon="13.176366">
 <ele>543.92</ele>
 <time>2010-08-23T08:26:35Z</time>
 </trkpt>
 <trkpt lat="47.608479" lon="13.176501">
 <ele>543.89</ele>
 <time>2010-08-23T08:26:40Z</time>
 </trkpt>
 <trkpt lat="47.608807" lon="13.176500">
 <ele>544.17</ele>
 <time>2010-08-23T08:26:47Z</time>
 </trkpt>
 <trkpt lat="47.608902" lon="13.176496">
 <ele>544.14</ele>
 <time>2010-08-23T08:26:49Z</time>
 </trkpt>
 <trkpt lat="47.609180" lon="13.176543">
 <ele>544.44</ele>
 <time>2010-08-23T08:26:55Z</time>
 </trkpt>
 <trkpt lat="47.609550" lon="13.176502">
 <ele>545.12</ele>
 <time>2010-08-23T08:27:03Z</time>
 </trkpt>
 <trkpt lat="47.609703" lon="13.176601">
 <ele>545.07</ele>
 <time>2010-08-23T08:27:07Z</time>
 </trkpt>
 <trkpt lat="47.609730" lon="13.176649">
 <ele>545.15</ele>
 <time>2010-08-23T08:27:08Z</time>
 </trkpt>
 <trkpt lat="47.610032" lon="13.176873">
 <ele>547.21</ele>
 <time>2010-08-23T08:27:19Z</time>
 </trkpt>
 <trkpt lat="47.610193" lon="13.177083">
 <ele>547.25</ele>
 <time>2010-08-23T08:27:22Z</time>
 </trkpt>
 <trkpt lat="47.610348" lon="13.177118">
 <ele>545.92</ele>
 <time>2010-08-23T08:27:28Z</time>
 </trkpt>
 <trkpt lat="47.610577" lon="13.176904">
 <ele>545.57</ele>
 <time>2010-08-23T08:27:34Z</time>
 </trkpt>
 <trkpt lat="47.610752" lon="13.176795">
 <ele>545.82</ele>
 <time>2010-08-23T08:27:40Z</time>
 </trkpt>
 <trkpt lat="47.610912" lon="13.176719">
 <ele>546.84</ele>
 <time>2010-08-23T08:27:46Z</time>
 </trkpt>
 <trkpt lat="47.611172" lon="13.176592">
 <ele>546.83</ele>
 <time>2010-08-23T08:27:53Z</time>
 </trkpt>
 <trkpt lat="47.611351" lon="13.176558">
 <ele>547.21</ele>
 <time>2010-08-23T08:27:59Z</time>
 </trkpt>
 <trkpt lat="47.611561" lon="13.176532">
 <ele>548.40</ele>
 <time>2010-08-23T08:28:06Z</time>
 </trkpt>
 <trkpt lat="47.611698" lon="13.176459">
 <ele>549.29</ele>
 <time>2010-08-23T08:28:11Z</time>
 </trkpt>
 <trkpt lat="47.611862" lon="13.176424">
 <ele>549.43</ele>
 <time>2010-08-23T08:28:16Z</time>
 </trkpt>
 <trkpt lat="47.612034" lon="13.176456">
 <ele>550.14</ele>
 <time>2010-08-23T08:28:21Z</time>
 </trkpt>
 <trkpt lat="47.612240" lon="13.176501">
 <ele>550.67</ele>
 <time>2010-08-23T08:28:27Z</time>
 </trkpt>
 <trkpt lat="47.612492" lon="13.176434">
 <ele>551.40</ele>
 <time>2010-08-23T08:28:34Z</time>
 </trkpt>
 <trkpt lat="47.612747" lon="13.176383">
 <ele>552.03</ele>
 <time>2010-08-23T08:28:41Z</time>
 </trkpt>
 <trkpt lat="47.612995" lon="13.176333">
 <ele>552.75</ele>
 <time>2010-08-23T08:28:48Z</time>
 </trkpt>
 <trkpt lat="47.613384" lon="13.176254">
 <ele>554.10</ele>
 <time>2010-08-23T08:28:59Z</time>
 </trkpt>
 <trkpt lat="47.613739" lon="13.176149">
 <ele>555.23</ele>
 <time>2010-08-23T08:29:09Z</time>
 </trkpt>
 <trkpt lat="47.613899" lon="13.176079">
 <ele>555.95</ele>
 <time>2010-08-23T08:29:15Z</time>
 </trkpt>
 <trkpt lat="47.614037" lon="13.175971">
 <ele>556.14</ele>
 <time>2010-08-23T08:29:20Z</time>
 </trkpt>
 <trkpt lat="47.614235" lon="13.175882">
 <ele>556.62</ele>
 <time>2010-08-23T08:29:26Z</time>
 </trkpt>
 <trkpt lat="47.614353" lon="13.176004">
 <ele>557.34</ele>
 <time>2010-08-23T08:29:30Z</time>
 </trkpt>
 <trkpt lat="47.614532" lon="13.176191">
 <ele>558.14</ele>
 <time>2010-08-23T08:29:36Z</time>
 </trkpt>
 <trkpt lat="47.614792" lon="13.176286">
 <ele>558.90</ele>
 <time>2010-08-23T08:29:44Z</time>
 </trkpt>
 <trkpt lat="47.614906" lon="13.176117">
 <ele>559.46</ele>
 <time>2010-08-23T08:29:49Z</time>
 </trkpt>
 <trkpt lat="47.614922" lon="13.176059">
 <ele>559.30</ele>
 <time>2010-08-23T08:29:50Z</time>
 </trkpt>
 <trkpt lat="47.615089" lon="13.175608">
 <ele>558.48</ele>
 <time>2010-08-23T08:29:57Z</time>
 </trkpt>
 <trkpt lat="47.615326" lon="13.175298">
 <ele>558.21</ele>
 <time>2010-08-23T08:30:03Z</time>
 </trkpt>
 <trkpt lat="47.615662" lon="13.174961">
 <ele>557.20</ele>
 <time>2010-08-23T08:30:10Z</time>
 </trkpt>
 <trkpt lat="47.615833" lon="13.174795">
 <ele>557.75</ele>
 <time>2010-08-23T08:30:14Z</time>
 </trkpt>
 <trkpt lat="47.616123" lon="13.174637">
 <ele>557.61</ele>
 <time>2010-08-23T08:30:21Z</time>
 </trkpt>
 <trkpt lat="47.616184" lon="13.174604">
 <ele>557.77</ele>
 <time>2010-08-23T08:30:23Z</time>
 </trkpt>
 <trkpt lat="47.616291" lon="13.174388">
 <ele>557.27</ele>
 <time>2010-08-23T08:30:27Z</time>
 </trkpt>
 <trkpt lat="47.616463" lon="13.173887">
 <ele>555.84</ele>
 <time>2010-08-23T08:30:33Z</time>
 </trkpt>
 <trkpt lat="47.616852" lon="13.172959">
 <ele>552.79</ele>
 <time>2010-08-23T08:30:43Z</time>
 </trkpt>
 <trkpt lat="47.617081" lon="13.172376">
 <ele>551.85</ele>
 <time>2010-08-23T08:30:49Z</time>
 </trkpt>
 <trkpt lat="47.617218" lon="13.171981">
 <ele>551.48</ele>
 <time>2010-08-23T08:30:54Z</time>
 </trkpt>
 <trkpt lat="47.617290" lon="13.171774">
 <ele>551.52</ele>
 <time>2010-08-23T08:30:59Z</time>
 </trkpt>
 <trkpt lat="47.617313" lon="13.171614">
 <ele>551.47</ele>
 <time>2010-08-23T08:31:04Z</time>
 </trkpt>
 <trkpt lat="47.617352" lon="13.171499">
 <ele>550.96</ele>
 <time>2010-08-23T08:31:08Z</time>
 </trkpt>
 <trkpt lat="47.617405" lon="13.171164">
 <ele>549.94</ele>
 <time>2010-08-23T08:31:13Z</time>
 </trkpt>
 <trkpt lat="47.617474" lon="13.170687">
 <ele>548.97</ele>
 <time>2010-08-23T08:31:19Z</time>
 </trkpt>
 <trkpt lat="47.617577" lon="13.170490">
 <ele>548.94</ele>
 <time>2010-08-23T08:31:23Z</time>
 </trkpt>
 <trkpt lat="47.617950" lon="13.170298">
 <ele>547.43</ele>
 <time>2010-08-23T08:31:30Z</time>
 </trkpt>
 <trkpt lat="47.618370" lon="13.170038">
 <ele>546.25</ele>
 <time>2010-08-23T08:31:37Z</time>
 </trkpt>
 <trkpt lat="47.618736" lon="13.169724">
 <ele>544.49</ele>
 <time>2010-08-23T08:31:43Z</time>
 </trkpt>
 <trkpt lat="47.619152" lon="13.169569">
 <ele>544.09</ele>
 <time>2010-08-23T08:31:49Z</time>
 </trkpt>
 <trkpt lat="47.619568" lon="13.169496">
 <ele>542.71</ele>
 <time>2010-08-23T08:31:54Z</time>
 </trkpt>
 <trkpt lat="47.620090" lon="13.169323">
 <ele>538.99</ele>
 <time>2010-08-23T08:32:00Z</time>
 </trkpt>
 <trkpt lat="47.620487" lon="13.169083">
 <ele>537.68</ele>
 <time>2010-08-23T08:32:05Z</time>
 </trkpt>
 <trkpt lat="47.621185" lon="13.168555">
 <ele>536.39</ele>
 <time>2010-08-23T08:32:14Z</time>
 </trkpt>
 <trkpt lat="47.622036" lon="13.167909">
 <ele>534.57</ele>
 <time>2010-08-23T08:32:25Z</time>
 </trkpt>
 <trkpt lat="47.622452" lon="13.167466">
 <ele>533.40</ele>
 <time>2010-08-23T08:32:31Z</time>
 </trkpt>
 <trkpt lat="47.622906" lon="13.167102">
 <ele>532.50</ele>
 <time>2010-08-23T08:32:37Z</time>
 </trkpt>
 <trkpt lat="47.623508" lon="13.166652">
 <ele>531.69</ele>
 <time>2010-08-23T08:32:45Z</time>
 </trkpt>
 <trkpt lat="47.623970" lon="13.166322">
 <ele>531.33</ele>
 <time>2010-08-23T08:32:51Z</time>
 </trkpt>
 <trkpt lat="47.624115" lon="13.166205">
 <ele>531.06</ele>
 <time>2010-08-23T08:32:53Z</time>
 </trkpt>
 <trkpt lat="47.624393" lon="13.165771">
 <ele>530.38</ele>
 <time>2010-08-23T08:32:58Z</time>
 </trkpt>
 <trkpt lat="47.624714" lon="13.165422">
 <ele>530.70</ele>
 <time>2010-08-23T08:33:03Z</time>
 </trkpt>
 <trkpt lat="47.624989" lon="13.165188">
 <ele>530.37</ele>
 <time>2010-08-23T08:33:07Z</time>
 </trkpt>
 <trkpt lat="47.625362" lon="13.164818">
 <ele>529.44</ele>
 <time>2010-08-23T08:33:13Z</time>
 </trkpt>
 <trkpt lat="47.625538" lon="13.164485">
 <ele>529.26</ele>
 <time>2010-08-23T08:33:17Z</time>
 </trkpt>
 <trkpt lat="47.625660" lon="13.164170">
 <ele>529.92</ele>
 <time>2010-08-23T08:33:21Z</time>
 </trkpt>
 <trkpt lat="47.625820" lon="13.164003">
 <ele>530.34</ele>
 <time>2010-08-23T08:33:25Z</time>
 </trkpt>
 <trkpt lat="47.626163" lon="13.163737">
 <ele>529.80</ele>
 <time>2010-08-23T08:33:32Z</time>
 </trkpt>
 <trkpt lat="47.626610" lon="13.163439">
 <ele>529.19</ele>
 <time>2010-08-23T08:33:40Z</time>
 </trkpt>
 <trkpt lat="47.627045" lon="13.163090">
 <ele>529.40</ele>
 <time>2010-08-23T08:33:48Z</time>
 </trkpt>
 <trkpt lat="47.627579" lon="13.162564">
 <ele>529.18</ele>
 <time>2010-08-23T08:33:58Z</time>
 </trkpt>
 <trkpt lat="47.627850" lon="13.162274">
 <ele>529.45</ele>
 <time>2010-08-23T08:34:04Z</time>
 </trkpt>
 <trkpt lat="47.628155" lon="13.162038">
 <ele>529.28</ele>
 <time>2010-08-23T08:34:11Z</time>
 </trkpt>
 <trkpt lat="47.628445" lon="13.161780">
 <ele>529.08</ele>
 <time>2010-08-23T08:34:17Z</time>
 </trkpt>
 <trkpt lat="47.628925" lon="13.161337">
 <ele>528.69</ele>
 <time>2010-08-23T08:34:27Z</time>
 </trkpt>
 <trkpt lat="47.629032" lon="13.161265">
 <ele>529.04</ele>
 <time>2010-08-23T08:34:31Z</time>
 </trkpt>
 <trkpt lat="47.629120" lon="13.161417">
 <ele>529.02</ele>
 <time>2010-08-23T08:34:35Z</time>
 </trkpt>
 <trkpt lat="47.629150" lon="13.161530">
 <ele>528.79</ele>
 <time>2010-08-23T08:34:37Z</time>
 </trkpt>
 <trkpt lat="47.629261" lon="13.162060">
 <ele>528.46</ele>
 <time>2010-08-23T08:34:45Z</time>
 </trkpt>
 <trkpt lat="47.629356" lon="13.162822">
 <ele>528.42</ele>
 <time>2010-08-23T08:34:56Z</time>
 </trkpt>
 <trkpt lat="47.629456" lon="13.163373">
 <ele>528.90</ele>
 <time>2010-08-23T08:35:04Z</time>
 </trkpt>
 <trkpt lat="47.629658" lon="13.164054">
 <ele>527.92</ele>
 <time>2010-08-23T08:35:14Z</time>
 </trkpt>
 <trkpt lat="47.629848" lon="13.164788">
 <ele>527.13</ele>
 <time>2010-08-23T08:35:25Z</time>
 </trkpt>
 <trkpt lat="47.630013" lon="13.165238">
 <ele>526.26</ele>
 <time>2010-08-23T08:35:32Z</time>
 </trkpt>
 <trkpt lat="47.630257" lon="13.165710">
 <ele>528.49</ele>
 <time>2010-08-23T08:35:41Z</time>
 </trkpt>
 <trkpt lat="47.630344" lon="13.165803">
 <ele>528.56</ele>
 <time>2010-08-23T08:35:44Z</time>
 </trkpt>
 <trkpt lat="47.630733" lon="13.165949">
 <ele>528.93</ele>
 <time>2010-08-23T08:35:53Z</time>
 </trkpt>
 <trkpt lat="47.630829" lon="13.165959">
 <ele>529.28</ele>
 <time>2010-08-23T08:35:55Z</time>
 </trkpt>
 <trkpt lat="47.631271" lon="13.165907">
 <ele>530.61</ele>
 <time>2010-08-23T08:36:04Z</time>
 </trkpt>
 <trkpt lat="47.631641" lon="13.165718">
 <ele>530.84</ele>
 <time>2010-08-23T08:36:12Z</time>
 </trkpt>
 <trkpt lat="47.631981" lon="13.165421">
 <ele>530.84</ele>
 <time>2010-08-23T08:36:20Z</time>
 </trkpt>
 <trkpt lat="47.632046" lon="13.165320">
 <ele>531.38</ele>
 <time>2010-08-23T08:36:24Z</time>
 </trkpt>
 <trkpt lat="47.632160" lon="13.165083">
 <ele>531.03</ele>
 <time>2010-08-23T08:36:30Z</time>
 </trkpt>
 <trkpt lat="47.632397" lon="13.164642">
 <ele>530.21</ele>
 <time>2010-08-23T08:36:38Z</time>
 </trkpt>
 <trkpt lat="47.632668" lon="13.164156">
 <ele>530.36</ele>
 <time>2010-08-23T08:36:47Z</time>
 </trkpt>
 <trkpt lat="47.632820" lon="13.163941">
 <ele>531.71</ele>
 <time>2010-08-23T08:36:53Z</time>
 </trkpt>
 <trkpt lat="47.633003" lon="13.163828">
 <ele>531.47</ele>
 <time>2010-08-23T08:36:58Z</time>
 </trkpt>
 <trkpt lat="47.633331" lon="13.163592">
 <ele>530.66</ele>
 <time>2010-08-23T08:37:05Z</time>
 </trkpt>
 <trkpt lat="47.633484" lon="13.163507">
 <ele>530.90</ele>
 <time>2010-08-23T08:37:08Z</time>
 </trkpt>
 <trkpt lat="47.633724" lon="13.163251">
 <ele>529.66</ele>
 <time>2010-08-23T08:37:13Z</time>
 </trkpt>
 <trkpt lat="47.633900" lon="13.162856">
 <ele>530.32</ele>
 <time>2010-08-23T08:37:19Z</time>
 </trkpt>
 <trkpt lat="47.633942" lon="13.162665">
 <ele>531.02</ele>
 <time>2010-08-23T08:37:22Z</time>
 </trkpt>
 <trkpt lat="47.634060" lon="13.162443">
 <ele>530.64</ele>
 <time>2010-08-23T08:37:26Z</time>
 </trkpt>
 <trkpt lat="47.634426" lon="13.162107">
 <ele>530.19</ele>
 <time>2010-08-23T08:37:34Z</time>
 </trkpt>
 <trkpt lat="47.634670" lon="13.161902">
 <ele>528.83</ele>
 <time>2010-08-23T08:37:38Z</time>
 </trkpt>
 <trkpt lat="47.634922" lon="13.161523">
 <ele>528.48</ele>
 <time>2010-08-23T08:37:43Z</time>
 </trkpt>
 <trkpt lat="47.635181" lon="13.161058">
 <ele>527.95</ele>
 <time>2010-08-23T08:37:49Z</time>
 </trkpt>
 <trkpt lat="47.635479" lon="13.160672">
 <ele>526.83</ele>
 <time>2010-08-23T08:37:55Z</time>
 </trkpt>
 <trkpt lat="47.635956" lon="13.160140">
 <ele>526.18</ele>
 <time>2010-08-23T08:38:04Z</time>
 </trkpt>
 <trkpt lat="47.636215" lon="13.159609">
 <ele>526.37</ele>
 <time>2010-08-23T08:38:11Z</time>
 </trkpt>
 <trkpt lat="47.636524" lon="13.158821">
 <ele>524.85</ele>
 <time>2010-08-23T08:38:21Z</time>
 </trkpt>
 <trkpt lat="47.636574" lon="13.158380">
 <ele>525.25</ele>
 <time>2010-08-23T08:38:26Z</time>
 </trkpt>
 <trkpt lat="47.636562" lon="13.158041">
 <ele>524.63</ele>
 <time>2010-08-23T08:38:30Z</time>
 </trkpt>
 <trkpt lat="47.636650" lon="13.157706">
 <ele>524.88</ele>
 <time>2010-08-23T08:38:35Z</time>
 </trkpt>
 <trkpt lat="47.636726" lon="13.157517">
 <ele>524.44</ele>
 <time>2010-08-23T08:38:38Z</time>
 </trkpt>
 <trkpt lat="47.636982" lon="13.156920">
 <ele>524.21</ele>
 <time>2010-08-23T08:38:47Z</time>
 </trkpt>
 <trkpt lat="47.637173" lon="13.156647">
 <ele>524.71</ele>
 <time>2010-08-23T08:38:52Z</time>
 </trkpt>
 <trkpt lat="47.637524" lon="13.156124">
 <ele>524.53</ele>
 <time>2010-08-23T08:39:01Z</time>
 </trkpt>
 <trkpt lat="47.637733" lon="13.155838">
 <ele>525.14</ele>
 <time>2010-08-23T08:39:07Z</time>
 </trkpt>
 <trkpt lat="47.637970" lon="13.155581">
 <ele>525.47</ele>
 <time>2010-08-23T08:39:14Z</time>
 </trkpt>
 <trkpt lat="47.638039" lon="13.155361">
 <ele>525.49</ele>
 <time>2010-08-23T08:39:18Z</time>
 </trkpt>
 <trkpt lat="47.638031" lon="13.155303">
 <ele>525.48</ele>
 <time>2010-08-23T08:39:19Z</time>
 </trkpt>
 <trkpt lat="47.638042" lon="13.155104">
 <ele>525.03</ele>
 <time>2010-08-23T08:39:23Z</time>
 </trkpt>
 <trkpt lat="47.638180" lon="13.154968">
 <ele>526.05</ele>
 <time>2010-08-23T08:39:27Z</time>
 </trkpt>
 <trkpt lat="47.638454" lon="13.154730">
 <ele>526.75</ele>
 <time>2010-08-23T08:39:34Z</time>
 </trkpt>
 <trkpt lat="47.638805" lon="13.154420">
 <ele>527.25</ele>
 <time>2010-08-23T08:39:43Z</time>
 </trkpt>
 <trkpt lat="47.639168" lon="13.154093">
 <ele>527.89</ele>
 <time>2010-08-23T08:39:52Z</time>
 </trkpt>
 <trkpt lat="47.639729" lon="13.153588">
 <ele>529.59</ele>
 <time>2010-08-23T08:40:06Z</time>
 </trkpt>
 <trkpt lat="47.640179" lon="13.153195">
 <ele>529.99</ele>
 <time>2010-08-23T08:40:17Z</time>
 </trkpt>
 <trkpt lat="47.640556" lon="13.152850">
 <ele>531.13</ele>
 <time>2010-08-23T08:40:26Z</time>
 </trkpt>
 <trkpt lat="47.640953" lon="13.152501">
 <ele>531.20</ele>
 <time>2010-08-23T08:40:35Z</time>
 </trkpt>
 <trkpt lat="47.641335" lon="13.152175">
 <ele>531.55</ele>
 <time>2010-08-23T08:40:44Z</time>
 </trkpt>
 <trkpt lat="47.641777" lon="13.151816">
 <ele>532.26</ele>
 <time>2010-08-23T08:40:54Z</time>
 </trkpt>
 <trkpt lat="47.642296" lon="13.151375">
 <ele>532.75</ele>
 <time>2010-08-23T08:41:06Z</time>
 </trkpt>
 <trkpt lat="47.642735" lon="13.151000">
 <ele>533.32</ele>
 <time>2010-08-23T08:41:16Z</time>
 </trkpt>
 <trkpt lat="47.643074" lon="13.150705">
 <ele>533.67</ele>
 <time>2010-08-23T08:41:24Z</time>
 </trkpt>
 <trkpt lat="47.643497" lon="13.150342">
 <ele>534.79</ele>
 <time>2010-08-23T08:41:34Z</time>
 </trkpt>
 <trkpt lat="47.643978" lon="13.149945">
 <ele>535.64</ele>
 <time>2010-08-23T08:41:45Z</time>
 </trkpt>
 <trkpt lat="47.644550" lon="13.149459">
 <ele>535.51</ele>
 <time>2010-08-23T08:41:58Z</time>
 </trkpt>
 <trkpt lat="47.645023" lon="13.149014">
 <ele>535.94</ele>
 <time>2010-08-23T08:42:09Z</time>
 </trkpt>
 <trkpt lat="47.645367" lon="13.148704">
 <ele>536.85</ele>
 <time>2010-08-23T08:42:17Z</time>
 </trkpt>
 <trkpt lat="47.645893" lon="13.148258">
 <ele>537.32</ele>
 <time>2010-08-23T08:42:29Z</time>
 </trkpt>
 <trkpt lat="47.646374" lon="13.147822">
 <ele>538.38</ele>
 <time>2010-08-23T08:42:40Z</time>
 </trkpt>
 <trkpt lat="47.646851" lon="13.147414">
 <ele>539.23</ele>
 <time>2010-08-23T08:42:51Z</time>
 </trkpt>
 <trkpt lat="47.647232" lon="13.147090">
 <ele>540.35</ele>
 <time>2010-08-23T08:43:00Z</time>
 </trkpt>
 <trkpt lat="47.647736" lon="13.146682">
 <ele>541.77</ele>
 <time>2010-08-23T08:43:12Z</time>
 </trkpt>
 <trkpt lat="47.648121" lon="13.146415">
 <ele>543.32</ele>
 <time>2010-08-23T08:43:21Z</time>
 </trkpt>
 <trkpt lat="47.648392" lon="13.146231">
 <ele>543.84</ele>
 <time>2010-08-23T08:43:28Z</time>
 </trkpt>
 <trkpt lat="47.648537" lon="13.146369">
 <ele>544.04</ele>
 <time>2010-08-23T08:43:33Z</time>
 </trkpt>
 <trkpt lat="47.648884" lon="13.146629">
 <ele>543.72</ele>
 <time>2010-08-23T08:43:42Z</time>
 </trkpt>
 <trkpt lat="47.649246" lon="13.146942">
 <ele>544.43</ele>
 <time>2010-08-23T08:43:52Z</time>
 </trkpt>
 <trkpt lat="47.649647" lon="13.147355">
 <ele>544.50</ele>
 <time>2010-08-23T08:44:03Z</time>
 </trkpt>
 <trkpt lat="47.649986" lon="13.147546">
 <ele>544.97</ele>
 <time>2010-08-23T08:44:11Z</time>
 </trkpt>
 <trkpt lat="47.650066" lon="13.147588">
 <ele>545.06</ele>
 <time>2010-08-23T08:44:13Z</time>
 </trkpt>
 <trkpt lat="47.650448" lon="13.147922">
 <ele>545.40</ele>
 <time>2010-08-23T08:44:23Z</time>
 </trkpt>
 <trkpt lat="47.650688" lon="13.148071">
 <ele>545.92</ele>
 <time>2010-08-23T08:44:29Z</time>
 </trkpt>
 <trkpt lat="47.651043" lon="13.148154">
 <ele>546.20</ele>
 <time>2010-08-23T08:44:37Z</time>
 </trkpt>
 <trkpt lat="47.651409" lon="13.148133">
 <ele>547.53</ele>
 <time>2010-08-23T08:44:45Z</time>
 </trkpt>
 <trkpt lat="47.651649" lon="13.148080">
 <ele>547.62</ele>
 <time>2010-08-23T08:44:50Z</time>
 </trkpt>
 <trkpt lat="47.651993" lon="13.148158">
 <ele>547.99</ele>
 <time>2010-08-23T08:44:57Z</time>
 </trkpt>
 <trkpt lat="47.652443" lon="13.148305">
 <ele>548.37</ele>
 <time>2010-08-23T08:45:06Z</time>
 </trkpt>
 <trkpt lat="47.652950" lon="13.148340">
 <ele>548.39</ele>
 <time>2010-08-23T08:45:16Z</time>
 </trkpt>
 <trkpt lat="47.653351" lon="13.148443">
 <ele>548.84</ele>
 <time>2010-08-23T08:45:24Z</time>
 </trkpt>
 <trkpt lat="47.653614" lon="13.148623">
 <ele>549.27</ele>
 <time>2010-08-23T08:45:30Z</time>
 </trkpt>
 <trkpt lat="47.653694" lon="13.148693">
 <ele>549.52</ele>
 <time>2010-08-23T08:45:32Z</time>
 </trkpt>
 <trkpt lat="47.653950" lon="13.148844">
 <ele>550.27</ele>
 <time>2010-08-23T08:45:39Z</time>
 </trkpt>
 <trkpt lat="47.654076" lon="13.148872">
 <ele>550.48</ele>
 <time>2010-08-23T08:45:44Z</time>
 </trkpt>
 <trkpt lat="47.654079" lon="13.148876">
 <ele>550.73</ele>
 <time>2010-08-23T08:45:46Z</time>
 </trkpt>
 <trkpt lat="47.654202" lon="13.148812">
 <ele>549.48</ele>
 <time>2010-08-23T08:47:29Z</time>
 </trkpt>
 <trkpt lat="47.654274" lon="13.148816">
 <ele>549.27</ele>
 <time>2010-08-23T08:47:31Z</time>
 </trkpt>
 <trkpt lat="47.654354" lon="13.148863">
 <ele>548.82</ele>
 <time>2010-08-23T08:47:33Z</time>
 </trkpt>
 <trkpt lat="47.654430" lon="13.148968">
 <ele>548.14</ele>
 <time>2010-08-23T08:47:35Z</time>
 </trkpt>
 <trkpt lat="47.654629" lon="13.149384">
 <ele>545.56</ele>
 <time>2010-08-23T08:47:40Z</time>
 </trkpt>
 <trkpt lat="47.654881" lon="13.149896">
 <ele>541.41</ele>
 <time>2010-08-23T08:47:45Z</time>
 </trkpt>
 <trkpt lat="47.655155" lon="13.150433">
 <ele>538.20</ele>
 <time>2010-08-23T08:47:50Z</time>
 </trkpt>
 <trkpt lat="47.655357" lon="13.150956">
 <ele>538.13</ele>
 <time>2010-08-23T08:47:55Z</time>
 </trkpt>
 <trkpt lat="47.655521" lon="13.151381">
 <ele>539.42</ele>
 <time>2010-08-23T08:48:00Z</time>
 </trkpt>
 <trkpt lat="47.655724" lon="13.151676">
 <ele>540.24</ele>
 <time>2010-08-23T08:48:05Z</time>
 </trkpt>
 <trkpt lat="47.655918" lon="13.151825">
 <ele>540.52</ele>
 <time>2010-08-23T08:48:09Z</time>
 </trkpt>
 <trkpt lat="47.656219" lon="13.151916">
 <ele>540.77</ele>
 <time>2010-08-23T08:48:15Z</time>
 </trkpt>
 <trkpt lat="47.656326" lon="13.151959">
 <ele>540.50</ele>
 <time>2010-08-23T08:48:17Z</time>
 </trkpt>
 <trkpt lat="47.656597" lon="13.152207">
 <ele>540.45</ele>
 <time>2010-08-23T08:48:23Z</time>
 </trkpt>
 <trkpt lat="47.656788" lon="13.152313">
 <ele>541.22</ele>
 <time>2010-08-23T08:48:27Z</time>
 </trkpt>
 <trkpt lat="47.657017" lon="13.152374">
 <ele>541.55</ele>
 <time>2010-08-23T08:48:32Z</time>
 </trkpt>
 <trkpt lat="47.657314" lon="13.152427">
 <ele>541.85</ele>
 <time>2010-08-23T08:48:38Z</time>
 </trkpt>
 <trkpt lat="47.657608" lon="13.152591">
 <ele>540.84</ele>
 <time>2010-08-23T08:48:44Z</time>
 </trkpt>
 <trkpt lat="47.657944" lon="13.152839">
 <ele>540.97</ele>
 <time>2010-08-23T08:48:51Z</time>
 </trkpt>
 <trkpt lat="47.658257" lon="13.153122">
 <ele>541.41</ele>
 <time>2010-08-23T08:48:58Z</time>
 </trkpt>
 <trkpt lat="47.658348" lon="13.153197">
 <ele>541.50</ele>
 <time>2010-08-23T08:49:00Z</time>
 </trkpt>
 <trkpt lat="47.658634" lon="13.153331">
 <ele>541.78</ele>
 <time>2010-08-23T08:49:06Z</time>
 </trkpt>
 <trkpt lat="47.658756" lon="13.153417">
 <ele>541.87</ele>
 <time>2010-08-23T08:49:09Z</time>
 </trkpt>
 <trkpt lat="47.659004" lon="13.153746">
 <ele>542.81</ele>
 <time>2010-08-23T08:49:17Z</time>
 </trkpt>
 <trkpt lat="47.659164" lon="13.153988">
 <ele>544.38</ele>
 <time>2010-08-23T08:49:24Z</time>
 </trkpt>
 <trkpt lat="47.659313" lon="13.154256">
 <ele>545.95</ele>
 <time>2010-08-23T08:49:32Z</time>
 </trkpt>
 <trkpt lat="47.659382" lon="13.154471">
 <ele>547.46</ele>
 <time>2010-08-23T08:49:39Z</time>
 </trkpt>
 <trkpt lat="47.659458" lon="13.154627">
 <ele>548.32</ele>
 <time>2010-08-23T08:49:45Z</time>
 </trkpt>
 <trkpt lat="47.659580" lon="13.154773">
 <ele>549.27</ele>
 <time>2010-08-23T08:49:51Z</time>
 </trkpt>
 <trkpt lat="47.659824" lon="13.154977">
 <ele>550.43</ele>
 <time>2010-08-23T08:50:01Z</time>
 </trkpt>
 <trkpt lat="47.660053" lon="13.155177">
 <ele>551.02</ele>
 <time>2010-08-23T08:50:11Z</time>
 </trkpt>
 <trkpt lat="47.660236" lon="13.155334">
 <ele>552.02</ele>
 <time>2010-08-23T08:50:19Z</time>
 </trkpt>
 <trkpt lat="47.660461" lon="13.155505">
 <ele>552.88</ele>
 <time>2010-08-23T08:50:28Z</time>
 </trkpt>
 <trkpt lat="47.660698" lon="13.155667">
 <ele>552.91</ele>
 <time>2010-08-23T08:50:36Z</time>
 </trkpt>
 <trkpt lat="47.660912" lon="13.155919">
 <ele>552.70</ele>
 <time>2010-08-23T08:50:43Z</time>
 </trkpt>
 <trkpt lat="47.661179" lon="13.156175">
 <ele>552.66</ele>
 <time>2010-08-23T08:50:51Z</time>
 </trkpt>
 <trkpt lat="47.661442" lon="13.156285">
 <ele>553.33</ele>
 <time>2010-08-23T08:50:58Z</time>
 </trkpt>
 <trkpt lat="47.661823" lon="13.156346">
 <ele>553.43</ele>
 <time>2010-08-23T08:51:08Z</time>
 </trkpt>
 <trkpt lat="47.662003" lon="13.156386">
 <ele>553.73</ele>
 <time>2010-08-23T08:51:14Z</time>
 </trkpt>
 <trkpt lat="47.662052" lon="13.156395">
 <ele>554.04</ele>
 <time>2010-08-23T08:51:18Z</time>
 </trkpt>
 <trkpt lat="47.662052" lon="13.156395">
 <ele>553.93</ele>
 <time>2010-08-23T08:51:19Z</time>
 </trkpt>
 <trkpt lat="47.662144" lon="13.156212">
 <ele>553.54</ele>
 <time>2010-08-23T08:51:35Z</time>
 </trkpt>
 <trkpt lat="47.662205" lon="13.156163">
 <ele>553.51</ele>
 <time>2010-08-23T08:51:39Z</time>
 </trkpt>
 <trkpt lat="47.662220" lon="13.155983">
 <ele>553.27</ele>
 <time>2010-08-23T08:51:45Z</time>
 </trkpt>
 <trkpt lat="47.662267" lon="13.155863">
 <ele>553.55</ele>
 <time>2010-08-23T08:51:50Z</time>
 </trkpt>
 <trkpt lat="47.662288" lon="13.155746">
 <ele>554.62</ele>
 <time>2010-08-23T08:51:58Z</time>
 </trkpt>
 <trkpt lat="47.662307" lon="13.155562">
 <ele>555.60</ele>
 <time>2010-08-23T08:52:04Z</time>
 </trkpt>
 <trkpt lat="47.662281" lon="13.155330">
 <ele>556.32</ele>
 <time>2010-08-23T08:52:10Z</time>
 </trkpt>
 <trkpt lat="47.662266" lon="13.155064">
 <ele>557.55</ele>
 <time>2010-08-23T08:52:17Z</time>
 </trkpt>
 <trkpt lat="47.662239" lon="13.154832">
 <ele>559.04</ele>
 <time>2010-08-23T08:52:26Z</time>
 </trkpt>
 <trkpt lat="47.662142" lon="13.154386">
 <ele>559.91</ele>
 <time>2010-08-23T08:52:36Z</time>
 </trkpt>
 <trkpt lat="47.662041" lon="13.153937">
 <ele>559.89</ele>
 <time>2010-08-23T08:52:44Z</time>
 </trkpt>
 <trkpt lat="47.661987" lon="13.153798">
 <ele>559.89</ele>
 <time>2010-08-23T08:52:47Z</time>
 </trkpt>
 <trkpt lat="47.661823" lon="13.153667">
 <ele>559.50</ele>
 <time>2010-08-23T08:52:52Z</time>
 </trkpt>
 <trkpt lat="47.661800" lon="13.153618">
 <ele>559.33</ele>
 <time>2010-08-23T08:52:56Z</time>
 </trkpt>
 <trkpt lat="47.661743" lon="13.153501">
 <ele>559.19</ele>
 <time>2010-08-23T08:53:06Z</time>
 </trkpt>
 <trkpt lat="47.661705" lon="13.153431">
 <ele>559.20</ele>
 <time>2010-08-23T08:53:08Z</time>
 </trkpt>
 <trkpt lat="47.661728" lon="13.153195">
 <ele>559.03</ele>
 <time>2010-08-23T08:53:14Z</time>
 </trkpt>
 <trkpt lat="47.661816" lon="13.152768">
 <ele>557.79</ele>
 <time>2010-08-23T08:53:22Z</time>
 </trkpt>
 <trkpt lat="47.661930" lon="13.152315">
 <ele>557.84</ele>
 <time>2010-08-23T08:53:30Z</time>
 </trkpt>
 <trkpt lat="47.662083" lon="13.151685">
 <ele>559.30</ele>
 <time>2010-08-23T08:53:40Z</time>
 </trkpt>
 <trkpt lat="47.662148" lon="13.151432">
 <ele>559.19</ele>
 <time>2010-08-23T08:53:44Z</time>
 </trkpt>
 <trkpt lat="47.662251" lon="13.151219">
 <ele>558.67</ele>
 <time>2010-08-23T08:53:48Z</time>
 </trkpt>
 <trkpt lat="47.662430" lon="13.150560">
 <ele>557.21</ele>
 <time>2010-08-23T08:53:57Z</time>
 </trkpt>
 <trkpt lat="47.662506" lon="13.150033">
 <ele>555.88</ele>
 <time>2010-08-23T08:54:04Z</time>
 </trkpt>
 <trkpt lat="47.662491" lon="13.149559">
 <ele>555.02</ele>
 <time>2010-08-23T08:54:10Z</time>
 </trkpt>
 <trkpt lat="47.662392" lon="13.149058">
 <ele>552.29</ele>
 <time>2010-08-23T08:54:16Z</time>
 </trkpt>
 <trkpt lat="47.662170" lon="13.148405">
 <ele>552.41</ele>
 <time>2010-08-23T08:54:24Z</time>
 </trkpt>
 <trkpt lat="47.662065" lon="13.148212">
 <ele>551.23</ele>
 <time>2010-08-23T08:54:30Z</time>
 </trkpt>
 <trkpt lat="47.662199" lon="13.148141">
 <ele>551.63</ele>
 <time>2010-08-23T08:54:34Z</time>
 </trkpt>
 <trkpt lat="47.662221" lon="13.148106">
 <ele>551.98</ele>
 <time>2010-08-23T08:54:39Z</time>
 </trkpt>
 <trkpt lat="47.662344" lon="13.148085">
 <ele>552.21</ele>
 <time>2010-08-23T08:54:40Z</time>
 </trkpt>
 <trkpt lat="47.662501" lon="13.148013">
 <ele>551.81</ele>
 <time>2010-08-23T08:54:46Z</time>
 </trkpt>
 <trkpt lat="47.662838" lon="13.147985">
 <ele>550.70</ele>
 <time>2010-08-23T08:54:53Z</time>
 </trkpt>
 <trkpt lat="47.663189" lon="13.147773">
 <ele>548.68</ele>
 <time>2010-08-23T08:54:59Z</time>
 </trkpt>
 <trkpt lat="47.663452" lon="13.147672">
 <ele>549.30</ele>
 <time>2010-08-23T08:55:04Z</time>
 </trkpt>
 <trkpt lat="47.663723" lon="13.147505">
 <ele>551.34</ele>
 <time>2010-08-23T08:55:12Z</time>
 </trkpt>
 <trkpt lat="47.663933" lon="13.147505">
 <ele>553.22</ele>
 <time>2010-08-23T08:55:19Z</time>
 </trkpt>
 <trkpt lat="47.664158" lon="13.147521">
 <ele>555.05</ele>
 <time>2010-08-23T08:55:27Z</time>
 </trkpt>
 <trkpt lat="47.664288" lon="13.147448">
 <ele>555.85</ele>
 <time>2010-08-23T08:55:32Z</time>
 </trkpt>
 <trkpt lat="47.664528" lon="13.147305">
 <ele>556.94</ele>
 <time>2010-08-23T08:55:41Z</time>
 </trkpt>
 <trkpt lat="47.664688" lon="13.147234">
 <ele>557.77</ele>
 <time>2010-08-23T08:55:47Z</time>
 </trkpt>
 <trkpt lat="47.664845" lon="13.147158">
 <ele>558.53</ele>
 <time>2010-08-23T08:55:53Z</time>
 </trkpt>
 <trkpt lat="47.665051" lon="13.147040">
 <ele>559.55</ele>
 <time>2010-08-23T08:56:01Z</time>
 </trkpt>
 <trkpt lat="47.665215" lon="13.146913">
 <ele>561.10</ele>
 <time>2010-08-23T08:56:08Z</time>
 </trkpt>
 <trkpt lat="47.665398" lon="13.146818">
 <ele>563.32</ele>
 <time>2010-08-23T08:56:16Z</time>
 </trkpt>
 <trkpt lat="47.665611" lon="13.146708">
 <ele>565.26</ele>
 <time>2010-08-23T08:56:25Z</time>
 </trkpt>
 <trkpt lat="47.665833" lon="13.146587">
 <ele>565.68</ele>
 <time>2010-08-23T08:56:32Z</time>
 </trkpt>
 <trkpt lat="47.666138" lon="13.146457">
 <ele>562.60</ele>
 <time>2010-08-23T08:56:37Z</time>
 </trkpt>
 <trkpt lat="47.666527" lon="13.146329">
 <ele>559.81</ele>
 <time>2010-08-23T08:56:42Z</time>
 </trkpt>
 <trkpt lat="47.667004" lon="13.146246">
 <ele>558.59</ele>
 <time>2010-08-23T08:56:48Z</time>
 </trkpt>
 <trkpt lat="47.667301" lon="13.146106">
 <ele>557.94</ele>
 <time>2010-08-23T08:56:52Z</time>
 </trkpt>
 <trkpt lat="47.667534" lon="13.145817">
 <ele>557.16</ele>
 <time>2010-08-23T08:56:56Z</time>
 </trkpt>
 <trkpt lat="47.667580" lon="13.145520">
 <ele>556.55</ele>
 <time>2010-08-23T08:56:59Z</time>
 </trkpt>
 <trkpt lat="47.667603" lon="13.145219">
 <ele>558.13</ele>
 <time>2010-08-23T08:57:03Z</time>
 </trkpt>
 <trkpt lat="47.667671" lon="13.144987">
 <ele>560.30</ele>
 <time>2010-08-23T08:57:08Z</time>
 </trkpt>
 <trkpt lat="47.667824" lon="13.144806">
 <ele>562.39</ele>
 <time>2010-08-23T08:57:15Z</time>
 </trkpt>
 <trkpt lat="47.668068" lon="13.144665">
 <ele>564.56</ele>
 <time>2010-08-23T08:57:25Z</time>
 </trkpt>
 <trkpt lat="47.668232" lon="13.144574">
 <ele>566.15</ele>
 <time>2010-08-23T08:57:32Z</time>
 </trkpt>
 <trkpt lat="47.668404" lon="13.144482">
 <ele>567.74</ele>
 <time>2010-08-23T08:57:40Z</time>
 </trkpt>
 <trkpt lat="47.668568" lon="13.144421">
 <ele>568.68</ele>
 <time>2010-08-23T08:57:47Z</time>
 </trkpt>
 <trkpt lat="47.668777" lon="13.144382">
 <ele>570.05</ele>
 <time>2010-08-23T08:57:56Z</time>
 </trkpt>
 <trkpt lat="47.668915" lon="13.144265">
 <ele>571.56</ele>
 <time>2010-08-23T08:58:03Z</time>
 </trkpt>
 <trkpt lat="47.669014" lon="13.143997">
 <ele>572.60</ele>
 <time>2010-08-23T08:58:12Z</time>
 </trkpt>
 <trkpt lat="47.669022" lon="13.143974">
 <ele>572.73</ele>
 <time>2010-08-23T08:58:13Z</time>
 </trkpt>
 <trkpt lat="47.669083" lon="13.143964">
 <ele>572.91</ele>
 <time>2010-08-23T08:58:19Z</time>
 </trkpt>
 <trkpt lat="47.669086" lon="13.143957">
 <ele>572.96</ele>
 <time>2010-08-23T08:58:20Z</time>
 </trkpt>
 <trkpt lat="47.669067" lon="13.143874">
 <ele>572.82</ele>
 <time>2010-08-23T08:58:25Z</time>
 </trkpt>
 <trkpt lat="47.669128" lon="13.143696">
 <ele>573.06</ele>
 <time>2010-08-23T08:58:31Z</time>
 </trkpt>
 <trkpt lat="47.669312" lon="13.143405">
 <ele>573.76</ele>
 <time>2010-08-23T08:58:40Z</time>
 </trkpt>
 <trkpt lat="47.669559" lon="13.143106">
 <ele>573.85</ele>
 <time>2010-08-23T08:58:49Z</time>
 </trkpt>
 <trkpt lat="47.669815" lon="13.142778">
 <ele>574.48</ele>
 <time>2010-08-23T08:58:58Z</time>
 </trkpt>
 <trkpt lat="47.670033" lon="13.142489">
 <ele>576.75</ele>
 <time>2010-08-23T08:59:07Z</time>
 </trkpt>
 <trkpt lat="47.670341" lon="13.142226">
 <ele>576.71</ele>
 <time>2010-08-23T08:59:16Z</time>
 </trkpt>
 <trkpt lat="47.670586" lon="13.142011">
 <ele>578.28</ele>
 <time>2010-08-23T08:59:24Z</time>
 </trkpt>
 <trkpt lat="47.670830" lon="13.141786">
 <ele>579.42</ele>
 <time>2010-08-23T08:59:32Z</time>
 </trkpt>
 <trkpt lat="47.671082" lon="13.141531">
 <ele>580.42</ele>
 <time>2010-08-23T08:59:41Z</time>
 </trkpt>
 <trkpt lat="47.671314" lon="13.141326">
 <ele>581.56</ele>
 <time>2010-08-23T08:59:49Z</time>
 </trkpt>
 <trkpt lat="47.671539" lon="13.141062">
 <ele>581.30</ele>
 <time>2010-08-23T08:59:56Z</time>
 </trkpt>
 <trkpt lat="47.671616" lon="13.140975">
 <ele>581.26</ele>
 <time>2010-08-23T08:59:58Z</time>
 </trkpt>
 <trkpt lat="47.671860" lon="13.140871">
 <ele>579.88</ele>
 <time>2010-08-23T09:00:03Z</time>
 </trkpt>
 <trkpt lat="47.671909" lon="13.140861">
 <ele>579.66</ele>
 <time>2010-08-23T09:00:04Z</time>
 </trkpt>
 <trkpt lat="47.672050" lon="13.140807">
 <ele>579.98</ele>
 <time>2010-08-23T09:00:07Z</time>
 </trkpt>
 <trkpt lat="47.672318" lon="13.140720">
 <ele>580.55</ele>
 <time>2010-08-23T09:00:13Z</time>
 </trkpt>
 <trkpt lat="47.672356" lon="13.140679">
 <ele>580.55</ele>
 <time>2010-08-23T09:00:14Z</time>
 </trkpt>
 <trkpt lat="47.672680" lon="13.140256">
 <ele>578.98</ele>
 <time>2010-08-23T09:00:22Z</time>
 </trkpt>
 <trkpt lat="47.672966" lon="13.139811">
 <ele>576.08</ele>
 <time>2010-08-23T09:00:28Z</time>
 </trkpt>
 <trkpt lat="47.673218" lon="13.139477">
 <ele>572.70</ele>
 <time>2010-08-23T09:00:32Z</time>
 </trkpt>
 <trkpt lat="47.673286" lon="13.139389">
 <ele>572.11</ele>
 <time>2010-08-23T09:00:33Z</time>
 </trkpt>
 <trkpt lat="47.673630" lon="13.138900">
 <ele>568.57</ele>
 <time>2010-08-23T09:00:39Z</time>
 </trkpt>
 <trkpt lat="47.673794" lon="13.138654">
 <ele>567.26</ele>
 <time>2010-08-23T09:00:43Z</time>
 </trkpt>
 <trkpt lat="47.673935" lon="13.138467">
 <ele>566.19</ele>
 <time>2010-08-23T09:00:48Z</time>
 </trkpt>
 <trkpt lat="47.674072" lon="13.138412">
 <ele>567.22</ele>
 <time>2010-08-23T09:00:53Z</time>
 </trkpt>
 <trkpt lat="47.674133" lon="13.138411">
 <ele>568.01</ele>
 <time>2010-08-23T09:00:56Z</time>
 </trkpt>
 <trkpt lat="47.674267" lon="13.138448">
 <ele>569.93</ele>
 <time>2010-08-23T09:01:02Z</time>
 </trkpt>
 <trkpt lat="47.674347" lon="13.138491">
 <ele>571.25</ele>
 <time>2010-08-23T09:01:06Z</time>
 </trkpt>
 <trkpt lat="47.674438" lon="13.138544">
 <ele>572.89</ele>
 <time>2010-08-23T09:01:11Z</time>
 </trkpt>
 <trkpt lat="47.674522" lon="13.138554">
 <ele>574.20</ele>
 <time>2010-08-23T09:01:17Z</time>
 </trkpt>
 <trkpt lat="47.674686" lon="13.138590">
 <ele>575.34</ele>
 <time>2010-08-23T09:01:24Z</time>
 </trkpt>
 <trkpt lat="47.674736" lon="13.138607">
 <ele>576.06</ele>
 <time>2010-08-23T09:01:28Z</time>
 </trkpt>
 <trkpt lat="47.674824" lon="13.138593">
 <ele>576.23</ele>
 <time>2010-08-23T09:01:34Z</time>
 </trkpt>
 <trkpt lat="47.675045" lon="13.138634">
 <ele>576.36</ele>
 <time>2010-08-23T09:01:42Z</time>
 </trkpt>
 <trkpt lat="47.675312" lon="13.138660">
 <ele>577.72</ele>
 <time>2010-08-23T09:01:52Z</time>
 </trkpt>
 <trkpt lat="47.675575" lon="13.138605">
 <ele>578.86</ele>
 <time>2010-08-23T09:02:02Z</time>
 </trkpt>
 <trkpt lat="47.675858" lon="13.138630">
 <ele>581.14</ele>
 <time>2010-08-23T09:02:13Z</time>
 </trkpt>
 <trkpt lat="47.676094" lon="13.138633">
 <ele>581.55</ele>
 <time>2010-08-23T09:02:21Z</time>
 </trkpt>
 <trkpt lat="47.676262" lon="13.138495">
 <ele>581.64</ele>
 <time>2010-08-23T09:02:26Z</time>
 </trkpt>
 <trkpt lat="47.676414" lon="13.138305">
 <ele>581.39</ele>
 <time>2010-08-23T09:02:31Z</time>
 </trkpt>
 <trkpt lat="47.676525" lon="13.138190">
 <ele>581.03</ele>
 <time>2010-08-23T09:02:34Z</time>
 </trkpt>
 <trkpt lat="47.676746" lon="13.138031">
 <ele>580.46</ele>
 <time>2010-08-23T09:02:39Z</time>
 </trkpt>
 <trkpt lat="47.677151" lon="13.137750">
 <ele>579.98</ele>
 <time>2010-08-23T09:02:47Z</time>
 </trkpt>
 <trkpt lat="47.677616" lon="13.137405">
 <ele>577.41</ele>
 <time>2010-08-23T09:02:54Z</time>
 </trkpt>
 <trkpt lat="47.677765" lon="13.137308">
 <ele>576.94</ele>
 <time>2010-08-23T09:02:56Z</time>
 </trkpt>
 <trkpt lat="47.678139" lon="13.137245">
 <ele>576.77</ele>
 <time>2010-08-23T09:03:01Z</time>
 </trkpt>
 <trkpt lat="47.678566" lon="13.137328">
 <ele>576.33</ele>
 <time>2010-08-23T09:03:07Z</time>
 </trkpt>
 <trkpt lat="47.678879" lon="13.137308">
 <ele>575.32</ele>
 <time>2010-08-23T09:03:11Z</time>
 </trkpt>
 <trkpt lat="47.679165" lon="13.137441">
 <ele>574.54</ele>
 <time>2010-08-23T09:03:15Z</time>
 </trkpt>
 <trkpt lat="47.679371" lon="13.137543">
 <ele>574.16</ele>
 <time>2010-08-23T09:03:18Z</time>
 </trkpt>
 <trkpt lat="47.679588" lon="13.137452">
 <ele>573.49</ele>
 <time>2010-08-23T09:03:21Z</time>
 </trkpt>
 <trkpt lat="47.679653" lon="13.137391">
 <ele>573.08</ele>
 <time>2010-08-23T09:03:22Z</time>
 </trkpt>
 <trkpt lat="47.679996" lon="13.137028">
 <ele>571.53</ele>
 <time>2010-08-23T09:03:28Z</time>
 </trkpt>
 <trkpt lat="47.680103" lon="13.136940">
 <ele>570.98</ele>
 <time>2010-08-23T09:03:30Z</time>
 </trkpt>
 <trkpt lat="47.680336" lon="13.136843">
 <ele>570.27</ele>
 <time>2010-08-23T09:03:35Z</time>
 </trkpt>
 <trkpt lat="47.680363" lon="13.136827">
 <ele>570.24</ele>
 <time>2010-08-23T09:03:36Z</time>
 </trkpt>
 <trkpt lat="47.680386" lon="13.136810">
 <ele>570.37</ele>
 <time>2010-08-23T09:03:39Z</time>
 </trkpt>
 <trkpt lat="47.680462" lon="13.136909">
 <ele>570.10</ele>
 <time>2010-08-23T09:03:51Z</time>
 </trkpt>
 <trkpt lat="47.680656" lon="13.137042">
 <ele>569.23</ele>
 <time>2010-08-23T09:03:57Z</time>
 </trkpt>
 <trkpt lat="47.680885" lon="13.137181">
 <ele>568.03</ele>
 <time>2010-08-23T09:04:01Z</time>
 </trkpt>
 <trkpt lat="47.681267" lon="13.137462">
 <ele>564.13</ele>
 <time>2010-08-23T09:04:06Z</time>
 </trkpt>
 <trkpt lat="47.681751" lon="13.137294">
 <ele>557.84</ele>
 <time>2010-08-23T09:04:12Z</time>
 </trkpt>
 <trkpt lat="47.682254" lon="13.137093">
 <ele>553.55</ele>
 <time>2010-08-23T09:04:16Z</time>
 </trkpt>
 <trkpt lat="47.682801" lon="13.136824">
 <ele>543.65</ele>
 <time>2010-08-23T09:04:22Z</time>
 </trkpt>
 <trkpt lat="47.683130" lon="13.136979">
 <ele>542.39</ele>
 <time>2010-08-23T09:04:24Z</time>
 </trkpt>
 <trkpt lat="47.683517" lon="13.137075">
 <ele>537.78</ele>
 <time>2010-08-23T09:04:28Z</time>
 </trkpt>
 <trkpt lat="47.684174" lon="13.137041">
 <ele>531.50</ele>
 <time>2010-08-23T09:04:33Z</time>
 </trkpt>
 <trkpt lat="47.684303" lon="13.137027">
 <ele>530.38</ele>
 <time>2010-08-23T09:04:34Z</time>
 </trkpt>
 <trkpt lat="47.684776" lon="13.136787">
 <ele>527.55</ele>
 <time>2010-08-23T09:04:38Z</time>
 </trkpt>
 <trkpt lat="47.684990" lon="13.136623">
 <ele>526.80</ele>
 <time>2010-08-23T09:04:40Z</time>
 </trkpt>
 <trkpt lat="47.685196" lon="13.136463">
 <ele>526.58</ele>
 <time>2010-08-23T09:04:42Z</time>
 </trkpt>
 <trkpt lat="47.685585" lon="13.136358">
 <ele>526.70</ele>
 <time>2010-08-23T09:04:46Z</time>
 </trkpt>
 <trkpt lat="47.685734" lon="13.136483">
 <ele>526.83</ele>
 <time>2010-08-23T09:04:48Z</time>
 </trkpt>
 <trkpt lat="47.686031" lon="13.136910">
 <ele>528.14</ele>
 <time>2010-08-23T09:04:54Z</time>
 </trkpt>
 <trkpt lat="47.686153" lon="13.137082">
 <ele>529.43</ele>
 <time>2010-08-23T09:04:57Z</time>
 </trkpt>
 <trkpt lat="47.686325" lon="13.137451">
 <ele>530.38</ele>
 <time>2010-08-23T09:05:03Z</time>
 </trkpt>
 <trkpt lat="47.686424" lon="13.137842">
 <ele>530.74</ele>
 <time>2010-08-23T09:05:09Z</time>
 </trkpt>
 <trkpt lat="47.686497" lon="13.138161">
 <ele>531.43</ele>
 <time>2010-08-23T09:05:14Z</time>
 </trkpt>
 <trkpt lat="47.686634" lon="13.138788">
 <ele>531.85</ele>
 <time>2010-08-23T09:05:24Z</time>
 </trkpt>
 <trkpt lat="47.686726" lon="13.139188">
 <ele>532.76</ele>
 <time>2010-08-23T09:05:31Z</time>
 </trkpt>
 <trkpt lat="47.686848" lon="13.139661">
 <ele>533.12</ele>
 <time>2010-08-23T09:05:40Z</time>
 </trkpt>
 <trkpt lat="47.686901" lon="13.139936">
 <ele>533.82</ele>
 <time>2010-08-23T09:05:47Z</time>
 </trkpt>
 <trkpt lat="47.687019" lon="13.139942">
 <ele>534.48</ele>
 <time>2010-08-23T09:05:52Z</time>
 </trkpt>
 <trkpt lat="47.687279" lon="13.139672">
 <ele>534.11</ele>
 <time>2010-08-23T09:06:00Z</time>
 </trkpt>
 <trkpt lat="47.687519" lon="13.139275">
 <ele>534.55</ele>
 <time>2010-08-23T09:06:08Z</time>
 </trkpt>
 <trkpt lat="47.687778" lon="13.138936">
 <ele>534.00</ele>
 <time>2010-08-23T09:06:15Z</time>
 </trkpt>
 <trkpt lat="47.688076" lon="13.138646">
 <ele>533.96</ele>
 <time>2010-08-23T09:06:23Z</time>
 </trkpt>
 <trkpt lat="47.688251" lon="13.138606">
 <ele>534.12</ele>
 <time>2010-08-23T09:06:28Z</time>
 </trkpt>
 <trkpt lat="47.688290" lon="13.138607">
 <ele>534.00</ele>
 <time>2010-08-23T09:06:29Z</time>
 </trkpt>
 <trkpt lat="47.688492" lon="13.138661">
 <ele>533.10</ele>
 <time>2010-08-23T09:06:35Z</time>
 </trkpt>
 <trkpt lat="47.688530" lon="13.138688">
 <ele>532.78</ele>
 <time>2010-08-23T09:06:37Z</time>
 </trkpt>
 <trkpt lat="47.688541" lon="13.138709">
 <ele>532.51</ele>
 <time>2010-08-23T09:06:40Z</time>
 </trkpt>
 <trkpt lat="47.688656" lon="13.138628">
 <ele>532.27</ele>
 <time>2010-08-23T09:06:49Z</time>
 </trkpt>
 <trkpt lat="47.688675" lon="13.138589">
 <ele>532.16</ele>
 <time>2010-08-23T09:06:50Z</time>
 </trkpt>
 <trkpt lat="47.688835" lon="13.138333">
 <ele>531.29</ele>
 <time>2010-08-23T09:06:56Z</time>
 </trkpt>
 <trkpt lat="47.688942" lon="13.138182">
 <ele>530.84</ele>
 <time>2010-08-23T09:06:59Z</time>
 </trkpt>
 <trkpt lat="47.689251" lon="13.137911">
 <ele>529.86</ele>
 <time>2010-08-23T09:07:06Z</time>
 </trkpt>
 <trkpt lat="47.689644" lon="13.137761">
 <ele>529.36</ele>
 <time>2010-08-23T09:07:14Z</time>
 </trkpt>
 <trkpt lat="47.690018" lon="13.137686">
 <ele>528.88</ele>
 <time>2010-08-23T09:07:21Z</time>
 </trkpt>
 <trkpt lat="47.690380" lon="13.137639">
 <ele>527.95</ele>
 <time>2010-08-23T09:07:27Z</time>
 </trkpt>
 <trkpt lat="47.690979" lon="13.137606">
 <ele>526.90</ele>
 <time>2010-08-23T09:07:36Z</time>
 </trkpt>
 <trkpt lat="47.691669" lon="13.137636">
 <ele>526.12</ele>
 <time>2010-08-23T09:07:46Z</time>
 </trkpt>
 <trkpt lat="47.692112" lon="13.137729">
 <ele>525.87</ele>
 <time>2010-08-23T09:07:53Z</time>
 </trkpt>
 <trkpt lat="47.692547" lon="13.137824">
 <ele>526.16</ele>
 <time>2010-08-23T09:08:00Z</time>
 </trkpt>
 <trkpt lat="47.693100" lon="13.137860">
 <ele>525.94</ele>
 <time>2010-08-23T09:08:09Z</time>
 </trkpt>
 <trkpt lat="47.693462" lon="13.137790">
 <ele>525.72</ele>
 <time>2010-08-23T09:08:15Z</time>
 </trkpt>
 <trkpt lat="47.693577" lon="13.137747">
 <ele>525.88</ele>
 <time>2010-08-23T09:08:17Z</time>
 </trkpt>
 <trkpt lat="47.693939" lon="13.137468">
 <ele>525.89</ele>
 <time>2010-08-23T09:08:24Z</time>
 </trkpt>
 <trkpt lat="47.694344" lon="13.136998">
 <ele>526.38</ele>
 <time>2010-08-23T09:08:33Z</time>
 </trkpt>
 <trkpt lat="47.694786" lon="13.136491">
 <ele>526.41</ele>
 <time>2010-08-23T09:08:42Z</time>
 </trkpt>
 <trkpt lat="47.695206" lon="13.135890">
 <ele>525.37</ele>
 <time>2010-08-23T09:08:51Z</time>
 </trkpt>
 <trkpt lat="47.695412" lon="13.135507">
 <ele>525.11</ele>
 <time>2010-08-23T09:08:56Z</time>
 </trkpt>
 <trkpt lat="47.695503" lon="13.135136">
 <ele>524.76</ele>
 <time>2010-08-23T09:09:00Z</time>
 </trkpt>
 <trkpt lat="47.695568" lon="13.134271">
 <ele>524.18</ele>
 <time>2010-08-23T09:09:09Z</time>
 </trkpt>
 <trkpt lat="47.695656" lon="13.133495">
 <ele>524.60</ele>
 <time>2010-08-23T09:09:18Z</time>
 </trkpt>
 <trkpt lat="47.695747" lon="13.133092">
 <ele>526.40</ele>
 <time>2010-08-23T09:09:24Z</time>
 </trkpt>
 <trkpt lat="47.695854" lon="13.132572">
 <ele>528.31</ele>
 <time>2010-08-23T09:09:34Z</time>
 </trkpt>
 <trkpt lat="47.696003" lon="13.132263">
 <ele>529.99</ele>
 <time>2010-08-23T09:09:42Z</time>
 </trkpt>
 <trkpt lat="47.696224" lon="13.132012">
 <ele>532.05</ele>
 <time>2010-08-23T09:09:51Z</time>
 </trkpt>
 <trkpt lat="47.696392" lon="13.131883">
 <ele>533.23</ele>
 <time>2010-08-23T09:09:58Z</time>
 </trkpt>
 <trkpt lat="47.696491" lon="13.131774">
 <ele>533.75</ele>
 <time>2010-08-23T09:10:04Z</time>
 </trkpt>
 <trkpt lat="47.696495" lon="13.131572">
 <ele>533.38</ele>
 <time>2010-08-23T09:10:09Z</time>
 </trkpt>
 <trkpt lat="47.696526" lon="13.131126">
 <ele>533.36</ele>
 <time>2010-08-23T09:10:17Z</time>
 </trkpt>
 <trkpt lat="47.696602" lon="13.130759">
 <ele>533.05</ele>
 <time>2010-08-23T09:10:24Z</time>
 </trkpt>
 <trkpt lat="47.696651" lon="13.130514">
 <ele>534.02</ele>
 <time>2010-08-23T09:10:30Z</time>
 </trkpt>
 <trkpt lat="47.696648" lon="13.130461">
 <ele>534.15</ele>
 <time>2010-08-23T09:10:35Z</time>
 </trkpt>
 <trkpt lat="47.696632" lon="13.130446">
 <ele>533.83</ele>
 <time>2010-08-23T09:10:43Z</time>
 </trkpt>
 <trkpt lat="47.696701" lon="13.130466">
 <ele>533.60</ele>
 <time>2010-08-23T09:11:43Z</time>
 </trkpt>
 <trkpt lat="47.696749" lon="13.130206">
 <ele>533.65</ele>
 <time>2010-08-23T09:11:49Z</time>
 </trkpt>
 <trkpt lat="47.696919" lon="13.130283">
 <ele>533.40</ele>
 <time>2010-08-23T09:11:59Z</time>
 </trkpt>
 <trkpt lat="47.697123" lon="13.130359">
 <ele>533.37</ele>
 <time>2010-08-23T09:12:06Z</time>
 </trkpt>
 <trkpt lat="47.697302" lon="13.130336">
 <ele>533.98</ele>
 <time>2010-08-23T09:12:13Z</time>
 </trkpt>
 <trkpt lat="47.697674" lon="13.130275">
 <ele>534.59</ele>
 <time>2010-08-23T09:12:22Z</time>
 </trkpt>
 <trkpt lat="47.697876" lon="13.130219">
 <ele>534.54</ele>
 <time>2010-08-23T09:12:27Z</time>
 </trkpt>
 <trkpt lat="47.698147" lon="13.130118">
 <ele>534.62</ele>
 <time>2010-08-23T09:12:34Z</time>
 </trkpt>
 <trkpt lat="47.698524" lon="13.130169">
 <ele>534.93</ele>
 <time>2010-08-23T09:12:43Z</time>
 </trkpt>
 <trkpt lat="47.698853" lon="13.130279">
 <ele>535.60</ele>
 <time>2010-08-23T09:12:51Z</time>
 </trkpt>
 <trkpt lat="47.699188" lon="13.130449">
 <ele>535.79</ele>
 <time>2010-08-23T09:12:59Z</time>
 </trkpt>
 <trkpt lat="47.699493" lon="13.130688">
 <ele>535.64</ele>
 <time>2010-08-23T09:13:07Z</time>
 </trkpt>
 <trkpt lat="47.699734" lon="13.130846">
 <ele>536.36</ele>
 <time>2010-08-23T09:13:14Z</time>
 </trkpt>
 <trkpt lat="47.699989" lon="13.131044">
 <ele>536.34</ele>
 <time>2010-08-23T09:13:21Z</time>
 </trkpt>
 <trkpt lat="47.700390" lon="13.131339">
 <ele>536.94</ele>
 <time>2010-08-23T09:13:31Z</time>
 </trkpt>
 <trkpt lat="47.700737" lon="13.131552">
 <ele>537.27</ele>
 <time>2010-08-23T09:13:39Z</time>
 </trkpt>
 <trkpt lat="47.701176" lon="13.131784">
 <ele>536.90</ele>
 <time>2010-08-23T09:13:49Z</time>
 </trkpt>
 <trkpt lat="47.701641" lon="13.131974">
 <ele>536.97</ele>
 <time>2010-08-23T09:13:59Z</time>
 </trkpt>
 <trkpt lat="47.702244" lon="13.132195">
 <ele>537.97</ele>
 <time>2010-08-23T09:14:12Z</time>
 </trkpt>
 <trkpt lat="47.702576" lon="13.132479">
 <ele>537.98</ele>
 <time>2010-08-23T09:14:20Z</time>
 </trkpt>
 <trkpt lat="47.702957" lon="13.132890">
 <ele>538.08</ele>
 <time>2010-08-23T09:14:30Z</time>
 </trkpt>
 <trkpt lat="47.703331" lon="13.133182">
 <ele>539.32</ele>
 <time>2010-08-23T09:14:39Z</time>
 </trkpt>
 <trkpt lat="47.703888" lon="13.133573">
 <ele>539.20</ele>
 <time>2010-08-23T09:14:52Z</time>
 </trkpt>
 <trkpt lat="47.704338" lon="13.133796">
 <ele>539.53</ele>
 <time>2010-08-23T09:15:02Z</time>
 </trkpt>
 <trkpt lat="47.704922" lon="13.134087">
 <ele>539.74</ele>
 <time>2010-08-23T09:15:15Z</time>
 </trkpt>
 <trkpt lat="47.705276" lon="13.134411">
 <ele>540.25</ele>
 <time>2010-08-23T09:15:24Z</time>
 </trkpt>
 <trkpt lat="47.705616" lon="13.134797">
 <ele>540.87</ele>
 <time>2010-08-23T09:15:33Z</time>
 </trkpt>
 <trkpt lat="47.705917" lon="13.135254">
 <ele>541.24</ele>
 <time>2010-08-23T09:15:42Z</time>
 </trkpt>
 <trkpt lat="47.706223" lon="13.135791">
 <ele>542.19</ele>
 <time>2010-08-23T09:15:52Z</time>
 </trkpt>
 <trkpt lat="47.706486" lon="13.136044">
 <ele>542.85</ele>
 <time>2010-08-23T09:15:59Z</time>
 </trkpt>
 <trkpt lat="47.706738" lon="13.136162">
 <ele>544.35</ele>
 <time>2010-08-23T09:16:06Z</time>
 </trkpt>
 <trkpt lat="47.707150" lon="13.136265">
 <ele>545.36</ele>
 <time>2010-08-23T09:16:18Z</time>
 </trkpt>
 <trkpt lat="47.707432" lon="13.136375">
 <ele>545.59</ele>
 <time>2010-08-23T09:16:27Z</time>
 </trkpt>
 <trkpt lat="47.707436" lon="13.136530">
 <ele>545.93</ele>
 <time>2010-08-23T09:16:31Z</time>
 </trkpt>
 <trkpt lat="47.707340" lon="13.136738">
 <ele>548.17</ele>
 <time>2010-08-23T09:16:39Z</time>
 </trkpt>
 <trkpt lat="47.707230" lon="13.136979">
 <ele>550.20</ele>
 <time>2010-08-23T09:16:50Z</time>
 </trkpt>
 <trkpt lat="47.707115" lon="13.137237">
 <ele>552.60</ele>
 <time>2010-08-23T09:17:02Z</time>
 </trkpt>
 <trkpt lat="47.707012" lon="13.137469">
 <ele>554.60</ele>
 <time>2010-08-23T09:17:13Z</time>
 </trkpt>
 <trkpt lat="47.706902" lon="13.137743">
 <ele>556.51</ele>
 <time>2010-08-23T09:17:26Z</time>
 </trkpt>
 <trkpt lat="47.706799" lon="13.137973">
 <ele>558.48</ele>
 <time>2010-08-23T09:17:37Z</time>
 </trkpt>
 <trkpt lat="47.706680" lon="13.138228">
 <ele>560.11</ele>
 <time>2010-08-23T09:17:49Z</time>
 </trkpt>
 <trkpt lat="47.706608" lon="13.138390">
 <ele>561.27</ele>
 <time>2010-08-23T09:17:57Z</time>
 </trkpt>
 <trkpt lat="47.706524" lon="13.138572">
 <ele>562.60</ele>
 <time>2010-08-23T09:18:06Z</time>
 </trkpt>
 <trkpt lat="47.706413" lon="13.138809">
 <ele>564.12</ele>
 <time>2010-08-23T09:18:17Z</time>
 </trkpt>
 <trkpt lat="47.706310" lon="13.139041">
 <ele>565.40</ele>
 <time>2010-08-23T09:18:27Z</time>
 </trkpt>
 <trkpt lat="47.706203" lon="13.139298">
 <ele>566.41</ele>
 <time>2010-08-23T09:18:38Z</time>
 </trkpt>
 <trkpt lat="47.706104" lon="13.139530">
 <ele>567.13</ele>
 <time>2010-08-23T09:18:48Z</time>
 </trkpt>
 <trkpt lat="47.705978" lon="13.139840">
 <ele>568.59</ele>
 <time>2010-08-23T09:19:00Z</time>
 </trkpt>
 <trkpt lat="47.705837" lon="13.140154">
 <ele>569.50</ele>
 <time>2010-08-23T09:19:11Z</time>
 </trkpt>
 <trkpt lat="47.705742" lon="13.140397">
 <ele>569.53</ele>
 <time>2010-08-23T09:19:18Z</time>
 </trkpt>
 <trkpt lat="47.705593" lon="13.140749">
 <ele>570.42</ele>
 <time>2010-08-23T09:19:27Z</time>
 </trkpt>
 <trkpt lat="47.705391" lon="13.141291">
 <ele>571.45</ele>
 <time>2010-08-23T09:19:40Z</time>
 </trkpt>
 <trkpt lat="47.705273" lon="13.141749">
 <ele>571.99</ele>
 <time>2010-08-23T09:19:50Z</time>
 </trkpt>
 <trkpt lat="47.705196" lon="13.142269">
 <ele>573.33</ele>
 <time>2010-08-23T09:20:01Z</time>
 </trkpt>
 <trkpt lat="47.705185" lon="13.142779">
 <ele>574.00</ele>
 <time>2010-08-23T09:20:12Z</time>
 </trkpt>
 <trkpt lat="47.705219" lon="13.143228">
 <ele>575.45</ele>
 <time>2010-08-23T09:20:22Z</time>
 </trkpt>
 <trkpt lat="47.705292" lon="13.143619">
 <ele>576.81</ele>
 <time>2010-08-23T09:20:32Z</time>
 </trkpt>
 <trkpt lat="47.705383" lon="13.143952">
 <ele>578.80</ele>
 <time>2010-08-23T09:20:42Z</time>
 </trkpt>
 <trkpt lat="47.705475" lon="13.144195">
 <ele>580.19</ele>
 <time>2010-08-23T09:20:52Z</time>
 </trkpt>
 <trkpt lat="47.705566" lon="13.144415">
 <ele>581.83</ele>
 <time>2010-08-23T09:21:02Z</time>
 </trkpt>
 <trkpt lat="47.705688" lon="13.144636">
 <ele>583.21</ele>
 <time>2010-08-23T09:21:13Z</time>
 </trkpt>
 <trkpt lat="47.705849" lon="13.144875">
 <ele>585.02</ele>
 <time>2010-08-23T09:21:26Z</time>
 </trkpt>
 <trkpt lat="47.705997" lon="13.145062">
 <ele>586.39</ele>
 <time>2010-08-23T09:21:37Z</time>
 </trkpt>
 <trkpt lat="47.706135" lon="13.145197">
 <ele>587.66</ele>
 <time>2010-08-23T09:21:46Z</time>
 </trkpt>
 <trkpt lat="47.706322" lon="13.145358">
 <ele>589.41</ele>
 <time>2010-08-23T09:21:58Z</time>
 </trkpt>
 <trkpt lat="47.706505" lon="13.145477">
 <ele>591.17</ele>
 <time>2010-08-23T09:22:09Z</time>
 </trkpt>
 <trkpt lat="47.706711" lon="13.145578">
 <ele>593.18</ele>
 <time>2010-08-23T09:22:21Z</time>
 </trkpt>
 <trkpt lat="47.706909" lon="13.145658">
 <ele>594.54</ele>
 <time>2010-08-23T09:22:33Z</time>
 </trkpt>
 <trkpt lat="47.707111" lon="13.145719">
 <ele>596.21</ele>
 <time>2010-08-23T09:22:45Z</time>
 </trkpt>
 <trkpt lat="47.707367" lon="13.145779">
 <ele>598.49</ele>
 <time>2010-08-23T09:23:00Z</time>
 </trkpt>
 <trkpt lat="47.707558" lon="13.145811">
 <ele>600.30</ele>
 <time>2010-08-23T09:23:11Z</time>
 </trkpt>
 <trkpt lat="47.707748" lon="13.145851">
 <ele>601.62</ele>
 <time>2010-08-23T09:23:22Z</time>
 </trkpt>
 <trkpt lat="47.707924" lon="13.145884">
 <ele>603.51</ele>
 <time>2010-08-23T09:23:32Z</time>
 </trkpt>
 <trkpt lat="47.708096" lon="13.145912">
 <ele>604.83</ele>
 <time>2010-08-23T09:23:42Z</time>
 </trkpt>
 <trkpt lat="47.708241" lon="13.145924">
 <ele>606.37</ele>
 <time>2010-08-23T09:23:51Z</time>
 </trkpt>
 <trkpt lat="47.708462" lon="13.145958">
 <ele>608.35</ele>
 <time>2010-08-23T09:24:04Z</time>
 </trkpt>
 <trkpt lat="47.708668" lon="13.146003">
 <ele>610.23</ele>
 <time>2010-08-23T09:24:16Z</time>
 </trkpt>
 <trkpt lat="47.708916" lon="13.146056">
 <ele>612.36</ele>
 <time>2010-08-23T09:24:30Z</time>
 </trkpt>
 <trkpt lat="47.709126" lon="13.146091">
 <ele>614.62</ele>
 <time>2010-08-23T09:24:42Z</time>
 </trkpt>
 <trkpt lat="47.709312" lon="13.146141">
 <ele>616.47</ele>
 <time>2010-08-23T09:24:53Z</time>
 </trkpt>
 <trkpt lat="47.709515" lon="13.146186">
 <ele>618.43</ele>
 <time>2010-08-23T09:25:05Z</time>
 </trkpt>
 <trkpt lat="47.709682" lon="13.146232">
 <ele>620.51</ele>
 <time>2010-08-23T09:25:15Z</time>
 </trkpt>
 <trkpt lat="47.709866" lon="13.146283">
 <ele>622.34</ele>
 <time>2010-08-23T09:25:26Z</time>
 </trkpt>
 <trkpt lat="47.710014" lon="13.146336">
 <ele>624.14</ele>
 <time>2010-08-23T09:25:35Z</time>
 </trkpt>
 <trkpt lat="47.710178" lon="13.146400">
 <ele>625.92</ele>
 <time>2010-08-23T09:25:45Z</time>
 </trkpt>
 <trkpt lat="47.710342" lon="13.146479">
 <ele>627.51</ele>
 <time>2010-08-23T09:25:55Z</time>
 </trkpt>
 <trkpt lat="47.710518" lon="13.146565">
 <ele>629.69</ele>
 <time>2010-08-23T09:26:06Z</time>
 </trkpt>
 <trkpt lat="47.710678" lon="13.146657">
 <ele>631.09</ele>
 <time>2010-08-23T09:26:16Z</time>
 </trkpt>
 <trkpt lat="47.710815" lon="13.146746">
 <ele>633.48</ele>
 <time>2010-08-23T09:26:25Z</time>
 </trkpt>
 <trkpt lat="47.710972" lon="13.146860">
 <ele>635.00</ele>
 <time>2010-08-23T09:26:35Z</time>
 </trkpt>
 <trkpt lat="47.711124" lon="13.146977">
 <ele>636.33</ele>
 <time>2010-08-23T09:26:45Z</time>
 </trkpt>
 <trkpt lat="47.711304" lon="13.147127">
 <ele>639.10</ele>
 <time>2010-08-23T09:26:57Z</time>
 </trkpt>
 <trkpt lat="47.711460" lon="13.147272">
 <ele>640.72</ele>
 <time>2010-08-23T09:27:07Z</time>
 </trkpt>
 <trkpt lat="47.711639" lon="13.147456">
 <ele>642.63</ele>
 <time>2010-08-23T09:27:19Z</time>
 </trkpt>
 <trkpt lat="47.711754" lon="13.147595">
 <ele>642.77</ele>
 <time>2010-08-23T09:27:26Z</time>
 </trkpt>
 <trkpt lat="47.711842" lon="13.147712">
 <ele>643.13</ele>
 <time>2010-08-23T09:27:32Z</time>
 </trkpt>
 <trkpt lat="47.711952" lon="13.147849">
 <ele>642.97</ele>
 <time>2010-08-23T09:27:38Z</time>
 </trkpt>
 <trkpt lat="47.712116" lon="13.148066">
 <ele>643.05</ele>
 <time>2010-08-23T09:27:46Z</time>
 </trkpt>
 <trkpt lat="47.712315" lon="13.148336">
 <ele>643.37</ele>
 <time>2010-08-23T09:27:56Z</time>
 </trkpt>
 <trkpt lat="47.712429" lon="13.148497">
 <ele>643.63</ele>
 <time>2010-08-23T09:28:02Z</time>
 </trkpt>
 <trkpt lat="47.712627" lon="13.148783">
 <ele>643.93</ele>
 <time>2010-08-23T09:28:13Z</time>
 </trkpt>
 <trkpt lat="47.712807" lon="13.149024">
 <ele>644.86</ele>
 <time>2010-08-23T09:28:23Z</time>
 </trkpt>
 <trkpt lat="47.712971" lon="13.149239">
 <ele>646.15</ele>
 <time>2010-08-23T09:28:32Z</time>
 </trkpt>
 <trkpt lat="47.713173" lon="13.149467">
 <ele>647.72</ele>
 <time>2010-08-23T09:28:44Z</time>
 </trkpt>
 <trkpt lat="47.713322" lon="13.149629">
 <ele>648.90</ele>
 <time>2010-08-23T09:28:53Z</time>
 </trkpt>
 <trkpt lat="47.713543" lon="13.149846">
 <ele>650.83</ele>
 <time>2010-08-23T09:29:06Z</time>
 </trkpt>
 <trkpt lat="47.713745" lon="13.150021">
 <ele>653.17</ele>
 <time>2010-08-23T09:29:19Z</time>
 </trkpt>
 <trkpt lat="47.713913" lon="13.150149">
 <ele>655.30</ele>
 <time>2010-08-23T09:29:30Z</time>
 </trkpt>
 <trkpt lat="47.714092" lon="13.150276">
 <ele>657.52</ele>
 <time>2010-08-23T09:29:42Z</time>
 </trkpt>
 <trkpt lat="47.714310" lon="13.150419">
 <ele>659.59</ele>
 <time>2010-08-23T09:29:56Z</time>
 </trkpt>
 <trkpt lat="47.714512" lon="13.150518">
 <ele>661.94</ele>
 <time>2010-08-23T09:30:08Z</time>
 </trkpt>
 <trkpt lat="47.714706" lon="13.150611">
 <ele>664.04</ele>
 <time>2010-08-23T09:30:20Z</time>
 </trkpt>
 <trkpt lat="47.714916" lon="13.150696">
 <ele>666.48</ele>
 <time>2010-08-23T09:30:33Z</time>
 </trkpt>
 <trkpt lat="47.715118" lon="13.150768">
 <ele>668.78</ele>
 <time>2010-08-23T09:30:45Z</time>
 </trkpt>
 <trkpt lat="47.715321" lon="13.150827">
 <ele>671.01</ele>
 <time>2010-08-23T09:30:57Z</time>
 </trkpt>
 <trkpt lat="47.715527" lon="13.150884">
 <ele>672.79</ele>
 <time>2010-08-23T09:31:09Z</time>
 </trkpt>
 <trkpt lat="47.715679" lon="13.150921">
 <ele>674.63</ele>
 <time>2010-08-23T09:31:18Z</time>
 </trkpt>
 <trkpt lat="47.715801" lon="13.150954">
 <ele>675.76</ele>
 <time>2010-08-23T09:31:25Z</time>
 </trkpt>
 <trkpt lat="47.715950" lon="13.150994">
 <ele>677.51</ele>
 <time>2010-08-23T09:31:34Z</time>
 </trkpt>
 <trkpt lat="47.716103" lon="13.151036">
 <ele>679.40</ele>
 <time>2010-08-23T09:31:43Z</time>
 </trkpt>
 <trkpt lat="47.716270" lon="13.151093">
 <ele>680.95</ele>
 <time>2010-08-23T09:31:53Z</time>
 </trkpt>
 <trkpt lat="47.716450" lon="13.151153">
 <ele>683.12</ele>
 <time>2010-08-23T09:32:04Z</time>
 </trkpt>
 <trkpt lat="47.716648" lon="13.151233">
 <ele>685.03</ele>
 <time>2010-08-23T09:32:16Z</time>
 </trkpt>
 <trkpt lat="47.716831" lon="13.151314">
 <ele>687.21</ele>
 <time>2010-08-23T09:32:27Z</time>
 </trkpt>
 <trkpt lat="47.716999" lon="13.151390">
 <ele>688.95</ele>
 <time>2010-08-23T09:32:37Z</time>
 </trkpt>
 <trkpt lat="47.717178" lon="13.151477">
 <ele>691.07</ele>
 <time>2010-08-23T09:32:48Z</time>
 </trkpt>
 <trkpt lat="47.717358" lon="13.151564">
 <ele>693.17</ele>
 <time>2010-08-23T09:32:59Z</time>
 </trkpt>
 <trkpt lat="47.717564" lon="13.151658">
 <ele>695.22</ele>
 <time>2010-08-23T09:33:12Z</time>
 </trkpt>
 <trkpt lat="47.717731" lon="13.151724">
 <ele>697.33</ele>
 <time>2010-08-23T09:33:22Z</time>
 </trkpt>
 <trkpt lat="47.717873" lon="13.151792">
 <ele>698.28</ele>
 <time>2010-08-23T09:33:30Z</time>
 </trkpt>
 <trkpt lat="47.718014" lon="13.151851">
 <ele>699.24</ele>
 <time>2010-08-23T09:33:38Z</time>
 </trkpt>
 <trkpt lat="47.718155" lon="13.151874">
 <ele>700.02</ele>
 <time>2010-08-23T09:33:46Z</time>
 </trkpt>
 <trkpt lat="47.718334" lon="13.151910">
 <ele>700.41</ele>
 <time>2010-08-23T09:33:55Z</time>
 </trkpt>
 <trkpt lat="47.718498" lon="13.151927">
 <ele>700.87</ele>
 <time>2010-08-23T09:34:02Z</time>
 </trkpt>
 <trkpt lat="47.718773" lon="13.151937">
 <ele>701.48</ele>
 <time>2010-08-23T09:34:12Z</time>
 </trkpt>
 <trkpt lat="47.719021" lon="13.151944">
 <ele>701.98</ele>
 <time>2010-08-23T09:34:20Z</time>
 </trkpt>
 <trkpt lat="47.719337" lon="13.151948">
 <ele>702.49</ele>
 <time>2010-08-23T09:34:30Z</time>
 </trkpt>
 <trkpt lat="47.719444" lon="13.151949">
 <ele>703.31</ele>
 <time>2010-08-23T09:34:36Z</time>
 </trkpt>
 <trkpt lat="47.719444" lon="13.151948">
 <ele>703.58</ele>
 <time>2010-08-23T09:34:37Z</time>
 </trkpt>
 <trkpt lat="47.719486" lon="13.151928">
 <ele>703.53</ele>
 <time>2010-08-23T09:36:14Z</time>
 </trkpt>
 <trkpt lat="47.719505" lon="13.151925">
 <ele>703.41</ele>
 <time>2010-08-23T09:36:15Z</time>
 </trkpt>
 <trkpt lat="47.719650" lon="13.151933">
 <ele>703.43</ele>
 <time>2010-08-23T09:36:23Z</time>
 </trkpt>
 <trkpt lat="47.719898" lon="13.151929">
 <ele>704.54</ele>
 <time>2010-08-23T09:36:33Z</time>
 </trkpt>
 <trkpt lat="47.720177" lon="13.151923">
 <ele>704.80</ele>
 <time>2010-08-23T09:36:44Z</time>
 </trkpt>
 <trkpt lat="47.720436" lon="13.151936">
 <ele>706.73</ele>
 <time>2010-08-23T09:36:54Z</time>
 </trkpt>
 <trkpt lat="47.720711" lon="13.151970">
 <ele>708.16</ele>
 <time>2010-08-23T09:37:05Z</time>
 </trkpt>
 <trkpt lat="47.720924" lon="13.152028">
 <ele>709.31</ele>
 <time>2010-08-23T09:37:14Z</time>
 </trkpt>
 <trkpt lat="47.721161" lon="13.152134">
 <ele>711.30</ele>
 <time>2010-08-23T09:37:25Z</time>
 </trkpt>
 <trkpt lat="47.721375" lon="13.152265">
 <ele>713.18</ele>
 <time>2010-08-23T09:37:36Z</time>
 </trkpt>
 <trkpt lat="47.721634" lon="13.152483">
 <ele>715.33</ele>
 <time>2010-08-23T09:37:50Z</time>
 </trkpt>
 <trkpt lat="47.721813" lon="13.152649">
 <ele>717.09</ele>
 <time>2010-08-23T09:38:01Z</time>
 </trkpt>
 <trkpt lat="47.722004" lon="13.152824">
 <ele>719.59</ele>
 <time>2010-08-23T09:38:13Z</time>
 </trkpt>
 <trkpt lat="47.722157" lon="13.152973">
 <ele>720.85</ele>
 <time>2010-08-23T09:38:23Z</time>
 </trkpt>
 <trkpt lat="47.722359" lon="13.153161">
 <ele>723.23</ele>
 <time>2010-08-23T09:38:37Z</time>
 </trkpt>
 <trkpt lat="47.722553" lon="13.153331">
 <ele>725.25</ele>
 <time>2010-08-23T09:38:51Z</time>
 </trkpt>
 <trkpt lat="47.722706" lon="13.153472">
 <ele>727.54</ele>
 <time>2010-08-23T09:39:02Z</time>
 </trkpt>
 <trkpt lat="47.722855" lon="13.153600">
 <ele>729.47</ele>
 <time>2010-08-23T09:39:13Z</time>
 </trkpt>
 <trkpt lat="47.723026" lon="13.153739">
 <ele>731.74</ele>
 <time>2010-08-23T09:39:25Z</time>
 </trkpt>
 <trkpt lat="47.723194" lon="13.153866">
 <ele>733.95</ele>
 <time>2010-08-23T09:39:37Z</time>
 </trkpt>
 <trkpt lat="47.723373" lon="13.153981">
 <ele>736.03</ele>
 <time>2010-08-23T09:39:49Z</time>
 </trkpt>
 <trkpt lat="47.723587" lon="13.154087">
 <ele>738.60</ele>
 <time>2010-08-23T09:40:03Z</time>
 </trkpt>
 <trkpt lat="47.723755" lon="13.154162">
 <ele>740.60</ele>
 <time>2010-08-23T09:40:14Z</time>
 </trkpt>
 <trkpt lat="47.723949" lon="13.154236">
 <ele>742.98</ele>
 <time>2010-08-23T09:40:27Z</time>
 </trkpt>
 <trkpt lat="47.724110" lon="13.154285">
 <ele>745.19</ele>
 <time>2010-08-23T09:40:38Z</time>
 </trkpt>
 <trkpt lat="47.724277" lon="13.154322">
 <ele>746.92</ele>
 <time>2010-08-23T09:40:49Z</time>
 </trkpt>
 <trkpt lat="47.724461" lon="13.154354">
 <ele>749.12</ele>
 <time>2010-08-23T09:41:01Z</time>
 </trkpt>
 <trkpt lat="47.724598" lon="13.154371">
 <ele>750.73</ele>
 <time>2010-08-23T09:41:10Z</time>
 </trkpt>
 <trkpt lat="47.724800" lon="13.154386">
 <ele>753.19</ele>
 <time>2010-08-23T09:41:23Z</time>
 </trkpt>
 <trkpt lat="47.725002" lon="13.154401">
 <ele>755.34</ele>
 <time>2010-08-23T09:41:36Z</time>
 </trkpt>
 <trkpt lat="47.725174" lon="13.154409">
 <ele>757.61</ele>
 <time>2010-08-23T09:41:47Z</time>
 </trkpt>
 <trkpt lat="47.725349" lon="13.154414">
 <ele>759.56</ele>
 <time>2010-08-23T09:41:58Z</time>
 </trkpt>
 <trkpt lat="47.725510" lon="13.154430">
 <ele>761.33</ele>
 <time>2010-08-23T09:42:08Z</time>
 </trkpt>
 <trkpt lat="47.725643" lon="13.154443">
 <ele>763.11</ele>
 <time>2010-08-23T09:42:16Z</time>
 </trkpt>
 <trkpt lat="47.725822" lon="13.154457">
 <ele>765.00</ele>
 <time>2010-08-23T09:42:25Z</time>
 </trkpt>
 <trkpt lat="47.726002" lon="13.154470">
 <ele>766.64</ele>
 <time>2010-08-23T09:42:34Z</time>
 </trkpt>
 <trkpt lat="47.726177" lon="13.154501">
 <ele>768.11</ele>
 <time>2010-08-23T09:42:44Z</time>
 </trkpt>
 <trkpt lat="47.726337" lon="13.154598">
 <ele>769.10</ele>
 <time>2010-08-23T09:42:54Z</time>
 </trkpt>
 <trkpt lat="47.726406" lon="13.154765">
 <ele>770.02</ele>
 <time>2010-08-23T09:43:02Z</time>
 </trkpt>
 <trkpt lat="47.726391" lon="13.154956">
 <ele>771.28</ele>
 <time>2010-08-23T09:43:10Z</time>
 </trkpt>
 <trkpt lat="47.726280" lon="13.155110">
 <ele>772.10</ele>
 <time>2010-08-23T09:43:19Z</time>
 </trkpt>
 <trkpt lat="47.726097" lon="13.155214">
 <ele>773.33</ele>
 <time>2010-08-23T09:43:30Z</time>
 </trkpt>
 <trkpt lat="47.725910" lon="13.155288">
 <ele>774.19</ele>
 <time>2010-08-23T09:43:41Z</time>
 </trkpt>
 <trkpt lat="47.725742" lon="13.155349">
 <ele>775.85</ele>
 <time>2010-08-23T09:43:51Z</time>
 </trkpt>
 <trkpt lat="47.725586" lon="13.155408">
 <ele>777.46</ele>
 <time>2010-08-23T09:44:01Z</time>
 </trkpt>
 <trkpt lat="47.725414" lon="13.155472">
 <ele>779.60</ele>
 <time>2010-08-23T09:44:13Z</time>
 </trkpt>
 <trkpt lat="47.725254" lon="13.155536">
 <ele>781.44</ele>
 <time>2010-08-23T09:44:24Z</time>
 </trkpt>
 <trkpt lat="47.725143" lon="13.155580">
 <ele>782.65</ele>
 <time>2010-08-23T09:44:32Z</time>
 </trkpt>
 <trkpt lat="47.725002" lon="13.155650">
 <ele>784.37</ele>
 <time>2010-08-23T09:44:42Z</time>
 </trkpt>
 <trkpt lat="47.724854" lon="13.155739">
 <ele>786.30</ele>
 <time>2010-08-23T09:44:53Z</time>
 </trkpt>
 <trkpt lat="47.724731" lon="13.155828">
 <ele>787.76</ele>
 <time>2010-08-23T09:45:02Z</time>
 </trkpt>
 <trkpt lat="47.724586" lon="13.155941">
 <ele>789.69</ele>
 <time>2010-08-23T09:45:13Z</time>
 </trkpt>
 <trkpt lat="47.724457" lon="13.156061">
 <ele>791.37</ele>
 <time>2010-08-23T09:45:23Z</time>
 </trkpt>
 <trkpt lat="47.724319" lon="13.156199">
 <ele>793.36</ele>
 <time>2010-08-23T09:45:34Z</time>
 </trkpt>
 <trkpt lat="47.724186" lon="13.156365">
 <ele>795.08</ele>
 <time>2010-08-23T09:45:46Z</time>
 </trkpt>
 <trkpt lat="47.724033" lon="13.156570">
 <ele>797.40</ele>
 <time>2010-08-23T09:46:00Z</time>
 </trkpt>
 <trkpt lat="47.723927" lon="13.156747">
 <ele>799.14</ele>
 <time>2010-08-23T09:46:11Z</time>
 </trkpt>
 <trkpt lat="47.723839" lon="13.156917">
 <ele>800.92</ele>
 <time>2010-08-23T09:46:21Z</time>
 </trkpt>
 <trkpt lat="47.723736" lon="13.157108">
 <ele>802.53</ele>
 <time>2010-08-23T09:46:32Z</time>
 </trkpt>
 <trkpt lat="47.723629" lon="13.157322">
 <ele>804.49</ele>
 <time>2010-08-23T09:46:44Z</time>
 </trkpt>
 <trkpt lat="47.723518" lon="13.157548">
 <ele>806.74</ele>
 <time>2010-08-23T09:46:57Z</time>
 </trkpt>
 <trkpt lat="47.723396" lon="13.157773">
 <ele>808.60</ele>
 <time>2010-08-23T09:47:10Z</time>
 </trkpt>
 <trkpt lat="47.723270" lon="13.157986">
 <ele>811.07</ele>
 <time>2010-08-23T09:47:23Z</time>
 </trkpt>
 <trkpt lat="47.723137" lon="13.158158">
 <ele>812.67</ele>
 <time>2010-08-23T09:47:35Z</time>
 </trkpt>
 <trkpt lat="47.722992" lon="13.158355">
 <ele>814.44</ele>
 <time>2010-08-23T09:47:48Z</time>
 </trkpt>
 <trkpt lat="47.722870" lon="13.158499">
 <ele>816.00</ele>
 <time>2010-08-23T09:47:58Z</time>
 </trkpt>
 <trkpt lat="47.722694" lon="13.158674">
 <ele>818.24</ele>
 <time>2010-08-23T09:48:12Z</time>
 </trkpt>
 <trkpt lat="47.722553" lon="13.158799">
 <ele>820.08</ele>
 <time>2010-08-23T09:48:23Z</time>
 </trkpt>
 <trkpt lat="47.722370" lon="13.158956">
 <ele>822.37</ele>
 <time>2010-08-23T09:48:37Z</time>
 </trkpt>
 <trkpt lat="47.722229" lon="13.159080">
 <ele>823.99</ele>
 <time>2010-08-23T09:48:48Z</time>
 </trkpt>
 <trkpt lat="47.722095" lon="13.159186">
 <ele>825.48</ele>
 <time>2010-08-23T09:48:58Z</time>
 </trkpt>
 <trkpt lat="47.721920" lon="13.159330">
 <ele>827.50</ele>
 <time>2010-08-23T09:49:11Z</time>
 </trkpt>
 <trkpt lat="47.721783" lon="13.159441">
 <ele>829.23</ele>
 <time>2010-08-23T09:49:21Z</time>
 </trkpt>
 <trkpt lat="47.721630" lon="13.159555">
 <ele>831.09</ele>
 <time>2010-08-23T09:49:32Z</time>
 </trkpt>
 <trkpt lat="47.721493" lon="13.159651">
 <ele>832.71</ele>
 <time>2010-08-23T09:49:42Z</time>
 </trkpt>
 <trkpt lat="47.721352" lon="13.159747">
 <ele>834.15</ele>
 <time>2010-08-23T09:49:52Z</time>
 </trkpt>
 <trkpt lat="47.721226" lon="13.159835">
 <ele>835.50</ele>
 <time>2010-08-23T09:50:01Z</time>
 </trkpt>
 <trkpt lat="47.721069" lon="13.159925">
 <ele>837.12</ele>
 <time>2010-08-23T09:50:12Z</time>
 </trkpt>
 <trkpt lat="47.720928" lon="13.160004">
 <ele>838.62</ele>
 <time>2010-08-23T09:50:22Z</time>
 </trkpt>
 <trkpt lat="47.720772" lon="13.160090">
 <ele>840.62</ele>
 <time>2010-08-23T09:50:33Z</time>
 </trkpt>
 <trkpt lat="47.720589" lon="13.160187">
 <ele>842.86</ele>
 <time>2010-08-23T09:50:46Z</time>
 </trkpt>
 <trkpt lat="47.720440" lon="13.160261">
 <ele>844.24</ele>
 <time>2010-08-23T09:50:56Z</time>
 </trkpt>
 <trkpt lat="47.720295" lon="13.160336">
 <ele>845.75</ele>
 <time>2010-08-23T09:51:06Z</time>
 </trkpt>
 <trkpt lat="47.720165" lon="13.160413">
 <ele>847.26</ele>
 <time>2010-08-23T09:51:15Z</time>
 </trkpt>
 <trkpt lat="47.720016" lon="13.160524">
 <ele>848.72</ele>
 <time>2010-08-23T09:51:26Z</time>
 </trkpt>
 <trkpt lat="47.719856" lon="13.160668">
 <ele>850.97</ele>
 <time>2010-08-23T09:51:38Z</time>
 </trkpt>
 <trkpt lat="47.719719" lon="13.160822">
 <ele>852.38</ele>
 <time>2010-08-23T09:51:49Z</time>
 </trkpt>
 <trkpt lat="47.719585" lon="13.160994">
 <ele>854.51</ele>
 <time>2010-08-23T09:52:00Z</time>
 </trkpt>
 <trkpt lat="47.719456" lon="13.161171">
 <ele>855.74</ele>
 <time>2010-08-23T09:52:11Z</time>
 </trkpt>
 <trkpt lat="47.719330" lon="13.161414">
 <ele>857.76</ele>
 <time>2010-08-23T09:52:24Z</time>
 </trkpt>
 <trkpt lat="47.719227" lon="13.161682">
 <ele>859.09</ele>
 <time>2010-08-23T09:52:36Z</time>
 </trkpt>
 <trkpt lat="47.719109" lon="13.161956">
 <ele>860.64</ele>
 <time>2010-08-23T09:52:49Z</time>
 </trkpt>
 <trkpt lat="47.719013" lon="13.162155">
 <ele>861.36</ele>
 <time>2010-08-23T09:52:58Z</time>
 </trkpt>
 <trkpt lat="47.719006" lon="13.162331">
 <ele>862.18</ele>
 <time>2010-08-23T09:53:04Z</time>
 </trkpt>
 <trkpt lat="47.718998" lon="13.162389">
 <ele>862.44</ele>
 <time>2010-08-23T09:53:06Z</time>
 </trkpt>
 <trkpt lat="47.718983" lon="13.162421">
 <ele>863.44</ele>
 <time>2010-08-23T09:53:11Z</time>
 </trkpt>
 <trkpt lat="47.718906" lon="13.162408">
 <ele>866.12</ele>
 <time>2010-08-23T10:10:46Z</time>
 </trkpt>
 <trkpt lat="47.718864" lon="13.162393">
 <ele>866.21</ele>
 <time>2010-08-23T10:10:49Z</time>
 </trkpt>
 <trkpt lat="47.718788" lon="13.162457">
 <ele>866.27</ele>
 <time>2010-08-23T10:10:54Z</time>
 </trkpt>
 <trkpt lat="47.718651" lon="13.162571">
 <ele>866.87</ele>
 <time>2010-08-23T10:11:02Z</time>
 </trkpt>
 <trkpt lat="47.718460" lon="13.162702">
 <ele>868.30</ele>
 <time>2010-08-23T10:11:13Z</time>
 </trkpt>
 <trkpt lat="47.718296" lon="13.162771">
 <ele>869.72</ele>
 <time>2010-08-23T10:11:22Z</time>
 </trkpt>
 <trkpt lat="47.718105" lon="13.162814">
 <ele>870.30</ele>
 <time>2010-08-23T10:11:32Z</time>
 </trkpt>
 <trkpt lat="47.717888" lon="13.162796">
 <ele>872.42</ele>
 <time>2010-08-23T10:11:43Z</time>
 </trkpt>
 <trkpt lat="47.717735" lon="13.162753">
 <ele>872.98</ele>
 <time>2010-08-23T10:11:51Z</time>
 </trkpt>
 <trkpt lat="47.717552" lon="13.162691">
 <ele>874.99</ele>
 <time>2010-08-23T10:12:01Z</time>
 </trkpt>
 <trkpt lat="47.717361" lon="13.162598">
 <ele>876.73</ele>
 <time>2010-08-23T10:12:12Z</time>
 </trkpt>
 <trkpt lat="47.717190" lon="13.162512">
 <ele>878.60</ele>
 <time>2010-08-23T10:12:22Z</time>
 </trkpt>
 <trkpt lat="47.717045" lon="13.162432">
 <ele>880.20</ele>
 <time>2010-08-23T10:12:31Z</time>
 </trkpt>
 <trkpt lat="47.716896" lon="13.162354">
 <ele>881.64</ele>
 <time>2010-08-23T10:12:41Z</time>
 </trkpt>
 <trkpt lat="47.716709" lon="13.162244">
 <ele>884.02</ele>
 <time>2010-08-23T10:12:54Z</time>
 </trkpt>
 <trkpt lat="47.716515" lon="13.162140">
 <ele>886.01</ele>
 <time>2010-08-23T10:13:07Z</time>
 </trkpt>
 <trkpt lat="47.716396" lon="13.162071">
 <ele>887.51</ele>
 <time>2010-08-23T10:13:15Z</time>
 </trkpt>
 <trkpt lat="47.716194" lon="13.161964">
 <ele>889.91</ele>
 <time>2010-08-23T10:13:29Z</time>
 </trkpt>
 <trkpt lat="47.716030" lon="13.161924">
 <ele>892.16</ele>
 <time>2010-08-23T10:13:41Z</time>
 </trkpt>
 <trkpt lat="47.715858" lon="13.161848">
 <ele>894.20</ele>
 <time>2010-08-23T10:13:54Z</time>
 </trkpt>
 <trkpt lat="47.715736" lon="13.161792">
 <ele>895.60</ele>
 <time>2010-08-23T10:14:03Z</time>
 </trkpt>
 <trkpt lat="47.715611" lon="13.161741">
 <ele>897.12</ele>
 <time>2010-08-23T10:14:12Z</time>
 </trkpt>
 <trkpt lat="47.715446" lon="13.161690">
 <ele>899.14</ele>
 <time>2010-08-23T10:14:24Z</time>
 </trkpt>
 <trkpt lat="47.715313" lon="13.161666">
 <ele>900.88</ele>
 <time>2010-08-23T10:14:34Z</time>
 </trkpt>
 <trkpt lat="47.715157" lon="13.161613">
 <ele>902.34</ele>
 <time>2010-08-23T10:14:45Z</time>
 </trkpt>
 <trkpt lat="47.715019" lon="13.161568">
 <ele>903.74</ele>
 <time>2010-08-23T10:14:54Z</time>
 </trkpt>
 <trkpt lat="47.714882" lon="13.161550">
 <ele>905.24</ele>
 <time>2010-08-23T10:15:04Z</time>
 </trkpt>
 <trkpt lat="47.714764" lon="13.161526">
 <ele>906.41</ele>
 <time>2010-08-23T10:15:13Z</time>
 </trkpt>
 <trkpt lat="47.714622" lon="13.161484">
 <ele>908.38</ele>
 <time>2010-08-23T10:15:23Z</time>
 </trkpt>
 <trkpt lat="47.714466" lon="13.161427">
 <ele>909.82</ele>
 <time>2010-08-23T10:15:34Z</time>
 </trkpt>
 <trkpt lat="47.714314" lon="13.161352">
 <ele>911.70</ele>
 <time>2010-08-23T10:15:45Z</time>
 </trkpt>
 <trkpt lat="47.714188" lon="13.161291">
 <ele>913.19</ele>
 <time>2010-08-23T10:15:54Z</time>
 </trkpt>
 <trkpt lat="47.714039" lon="13.161202">
 <ele>914.83</ele>
 <time>2010-08-23T10:16:05Z</time>
 </trkpt>
 <trkpt lat="47.713867" lon="13.161087">
 <ele>917.16</ele>
 <time>2010-08-23T10:16:18Z</time>
 </trkpt>
 <trkpt lat="47.713734" lon="13.160987">
 <ele>918.55</ele>
 <time>2010-08-23T10:16:28Z</time>
 </trkpt>
 <trkpt lat="47.713604" lon="13.160905">
 <ele>919.81</ele>
 <time>2010-08-23T10:16:37Z</time>
 </trkpt>
 <trkpt lat="47.713470" lon="13.160825">
 <ele>920.79</ele>
 <time>2010-08-23T10:16:46Z</time>
 </trkpt>
 <trkpt lat="47.713329" lon="13.160763">
 <ele>921.64</ele>
 <time>2010-08-23T10:16:55Z</time>
 </trkpt>
 <trkpt lat="47.713142" lon="13.160724">
 <ele>923.03</ele>
 <time>2010-08-23T10:17:05Z</time>
 </trkpt>
 <trkpt lat="47.712994" lon="13.160732">
 <ele>923.67</ele>
 <time>2010-08-23T10:17:12Z</time>
 </trkpt>
 <trkpt lat="47.712807" lon="13.160736">
 <ele>924.29</ele>
 <time>2010-08-23T10:17:20Z</time>
 </trkpt>
 <trkpt lat="47.712574" lon="13.160786">
 <ele>924.83</ele>
 <time>2010-08-23T10:17:29Z</time>
 </trkpt>
 <trkpt lat="47.712467" lon="13.160850">
 <ele>924.95</ele>
 <time>2010-08-23T10:17:34Z</time>
 </trkpt>
 <trkpt lat="47.712337" lon="13.160935">
 <ele>925.47</ele>
 <time>2010-08-23T10:17:40Z</time>
 </trkpt>
 <trkpt lat="47.712170" lon="13.161056">
 <ele>925.46</ele>
 <time>2010-08-23T10:17:46Z</time>
 </trkpt>
 <trkpt lat="47.711864" lon="13.161262">
 <ele>926.24</ele>
 <time>2010-08-23T10:17:56Z</time>
 </trkpt>
 <trkpt lat="47.711586" lon="13.161483">
 <ele>926.40</ele>
 <time>2010-08-23T10:18:06Z</time>
 </trkpt>
 <trkpt lat="47.711266" lon="13.161808">
 <ele>927.60</ele>
 <time>2010-08-23T10:18:19Z</time>
 </trkpt>
 <trkpt lat="47.711040" lon="13.162077">
 <ele>927.86</ele>
 <time>2010-08-23T10:18:28Z</time>
 </trkpt>
 <trkpt lat="47.710808" lon="13.162434">
 <ele>927.55</ele>
 <time>2010-08-23T10:18:37Z</time>
 </trkpt>
 <trkpt lat="47.710739" lon="13.162564">
 <ele>928.36</ele>
 <time>2010-08-23T10:18:41Z</time>
 </trkpt>
 <trkpt lat="47.710735" lon="13.162568">
 <ele>928.74</ele>
 <time>2010-08-23T10:18:43Z</time>
 </trkpt>
 <trkpt lat="47.710705" lon="13.162720">
 <ele>928.51</ele>
 <time>2010-08-23T10:19:06Z</time>
 </trkpt>
 <trkpt lat="47.710663" lon="13.162946">
 <ele>927.57</ele>
 <time>2010-08-23T10:19:10Z</time>
 </trkpt>
 <trkpt lat="47.710609" lon="13.163492">
 <ele>924.69</ele>
 <time>2010-08-23T10:19:17Z</time>
 </trkpt>
 <trkpt lat="47.710609" lon="13.163597">
 <ele>924.69</ele>
 <time>2010-08-23T10:19:18Z</time>
 </trkpt>
 <trkpt lat="47.710709" lon="13.164344">
 <ele>919.58</ele>
 <time>2010-08-23T10:19:24Z</time>
 </trkpt>
 <trkpt lat="47.710880" lon="13.165138">
 <ele>913.77</ele>
 <time>2010-08-23T10:19:29Z</time>
 </trkpt>
 <trkpt lat="47.711140" lon="13.166333">
 <ele>906.48</ele>
 <time>2010-08-23T10:19:36Z</time>
 </trkpt>
 <trkpt lat="47.711205" lon="13.166660">
 <ele>905.66</ele>
 <time>2010-08-23T10:19:38Z</time>
 </trkpt>
 <trkpt lat="47.711323" lon="13.167425">
 <ele>905.69</ele>
 <time>2010-08-23T10:19:43Z</time>
 </trkpt>
 <trkpt lat="47.711388" lon="13.168070">
 <ele>907.26</ele>
 <time>2010-08-23T10:19:48Z</time>
 </trkpt>
 <trkpt lat="47.711407" lon="13.168572">
 <ele>908.54</ele>
 <time>2010-08-23T10:19:53Z</time>
 </trkpt>
 <trkpt lat="47.711403" lon="13.168922">
 <ele>910.69</ele>
 <time>2010-08-23T10:19:58Z</time>
 </trkpt>
 <trkpt lat="47.711380" lon="13.169368">
 <ele>912.49</ele>
 <time>2010-08-23T10:20:06Z</time>
 </trkpt>
 <trkpt lat="47.711353" lon="13.169709">
 <ele>913.67</ele>
 <time>2010-08-23T10:20:13Z</time>
 </trkpt>
 <trkpt lat="47.711311" lon="13.170103">
 <ele>915.29</ele>
 <time>2010-08-23T10:20:22Z</time>
 </trkpt>
 <trkpt lat="47.711285" lon="13.170427">
 <ele>916.14</ele>
 <time>2010-08-23T10:20:30Z</time>
 </trkpt>
 <trkpt lat="47.711250" lon="13.170749">
 <ele>917.80</ele>
 <time>2010-08-23T10:20:39Z</time>
 </trkpt>
 <trkpt lat="47.711224" lon="13.171075">
 <ele>919.65</ele>
 <time>2010-08-23T10:20:49Z</time>
 </trkpt>
 <trkpt lat="47.711205" lon="13.171252">
 <ele>920.83</ele>
 <time>2010-08-23T10:20:55Z</time>
 </trkpt>
 <trkpt lat="47.711189" lon="13.171517">
 <ele>922.91</ele>
 <time>2010-08-23T10:21:05Z</time>
 </trkpt>
 <trkpt lat="47.711205" lon="13.171825">
 <ele>925.23</ele>
 <time>2010-08-23T10:21:17Z</time>
 </trkpt>
 <trkpt lat="47.711250" lon="13.172101">
 <ele>927.09</ele>
 <time>2010-08-23T10:21:28Z</time>
 </trkpt>
 <trkpt lat="47.711327" lon="13.172372">
 <ele>928.91</ele>
 <time>2010-08-23T10:21:39Z</time>
 </trkpt>
 <trkpt lat="47.711430" lon="13.172612">
 <ele>929.90</ele>
 <time>2010-08-23T10:21:49Z</time>
 </trkpt>
 <trkpt lat="47.711529" lon="13.172772">
 <ele>930.51</ele>
 <time>2010-08-23T10:21:56Z</time>
 </trkpt>
 <trkpt lat="47.711662" lon="13.172944">
 <ele>930.66</ele>
 <time>2010-08-23T10:22:03Z</time>
 </trkpt>
 <trkpt lat="47.711872" lon="13.173134">
 <ele>930.32</ele>
 <time>2010-08-23T10:22:11Z</time>
 </trkpt>
 <trkpt lat="47.712139" lon="13.173296">
 <ele>930.29</ele>
 <time>2010-08-23T10:22:19Z</time>
 </trkpt>
 <trkpt lat="47.712433" lon="13.173427">
 <ele>930.25</ele>
 <time>2010-08-23T10:22:27Z</time>
 </trkpt>
 <trkpt lat="47.712688" lon="13.173551">
 <ele>930.59</ele>
 <time>2010-08-23T10:22:35Z</time>
 </trkpt>
 <trkpt lat="47.712917" lon="13.173690">
 <ele>932.07</ele>
 <time>2010-08-23T10:22:44Z</time>
 </trkpt>
 <trkpt lat="47.713100" lon="13.173814">
 <ele>934.10</ele>
 <time>2010-08-23T10:22:53Z</time>
 </trkpt>
 <trkpt lat="47.713329" lon="13.173998">
 <ele>936.42</ele>
 <time>2010-08-23T10:23:05Z</time>
 </trkpt>
 <trkpt lat="47.713505" lon="13.174171">
 <ele>938.58</ele>
 <time>2010-08-23T10:23:15Z</time>
 </trkpt>
 <trkpt lat="47.713676" lon="13.174356">
 <ele>940.83</ele>
 <time>2010-08-23T10:23:25Z</time>
 </trkpt>
 <trkpt lat="47.713806" lon="13.174512">
 <ele>942.17</ele>
 <time>2010-08-23T10:23:33Z</time>
 </trkpt>
 <trkpt lat="47.713985" lon="13.174749">
 <ele>944.09</ele>
 <time>2010-08-23T10:23:45Z</time>
 </trkpt>
 <trkpt lat="47.714142" lon="13.174988">
 <ele>945.51</ele>
 <time>2010-08-23T10:23:56Z</time>
 </trkpt>
 <trkpt lat="47.714317" lon="13.175295">
 <ele>946.94</ele>
 <time>2010-08-23T10:24:09Z</time>
 </trkpt>
 <trkpt lat="47.714458" lon="13.175558">
 <ele>948.10</ele>
 <time>2010-08-23T10:24:20Z</time>
 </trkpt>
 <trkpt lat="47.714581" lon="13.175810">
 <ele>948.95</ele>
 <time>2010-08-23T10:24:30Z</time>
 </trkpt>
 <trkpt lat="47.714733" lon="13.176100">
 <ele>950.01</ele>
 <time>2010-08-23T10:24:42Z</time>
 </trkpt>
 <trkpt lat="47.714840" lon="13.176335">
 <ele>951.04</ele>
 <time>2010-08-23T10:24:51Z</time>
 </trkpt>
 <trkpt lat="47.714981" lon="13.176636">
 <ele>952.77</ele>
 <time>2010-08-23T10:25:03Z</time>
 </trkpt>
 <trkpt lat="47.715096" lon="13.176885">
 <ele>954.28</ele>
 <time>2010-08-23T10:25:13Z</time>
 </trkpt>
 <trkpt lat="47.715210" lon="13.177169">
 <ele>956.88</ele>
 <time>2010-08-23T10:25:24Z</time>
 </trkpt>
 <trkpt lat="47.715298" lon="13.177435">
 <ele>958.68</ele>
 <time>2010-08-23T10:25:34Z</time>
 </trkpt>
 <trkpt lat="47.715389" lon="13.177741">
 <ele>960.95</ele>
 <time>2010-08-23T10:25:45Z</time>
 </trkpt>
 <trkpt lat="47.715469" lon="13.178062">
 <ele>963.37</ele>
 <time>2010-08-23T10:25:56Z</time>
 </trkpt>
 <trkpt lat="47.715530" lon="13.178328">
 <ele>964.37</ele>
 <time>2010-08-23T10:26:05Z</time>
 </trkpt>
 <trkpt lat="47.715569" lon="13.178537">
 <ele>964.67</ele>
 <time>2010-08-23T10:26:11Z</time>
 </trkpt>
 <trkpt lat="47.715618" lon="13.178842">
 <ele>963.71</ele>
 <time>2010-08-23T10:26:18Z</time>
 </trkpt>
 <trkpt lat="47.715668" lon="13.179255">
 <ele>961.62</ele>
 <time>2010-08-23T10:26:24Z</time>
 </trkpt>
 <trkpt lat="47.715706" lon="13.179797">
 <ele>959.84</ele>
 <time>2010-08-23T10:26:30Z</time>
 </trkpt>
 <trkpt lat="47.715717" lon="13.180422">
 <ele>957.30</ele>
 <time>2010-08-23T10:26:36Z</time>
 </trkpt>
 <trkpt lat="47.715645" lon="13.180875">
 <ele>955.33</ele>
 <time>2010-08-23T10:26:40Z</time>
 </trkpt>
 <trkpt lat="47.715466" lon="13.181288">
 <ele>953.26</ele>
 <time>2010-08-23T10:26:44Z</time>
 </trkpt>
 <trkpt lat="47.715145" lon="13.181744">
 <ele>950.46</ele>
 <time>2010-08-23T10:26:49Z</time>
 </trkpt>
 <trkpt lat="47.714848" lon="13.182052">
 <ele>948.44</ele>
 <time>2010-08-23T10:26:53Z</time>
 </trkpt>
 <trkpt lat="47.714287" lon="13.182390">
 <ele>942.26</ele>
 <time>2010-08-23T10:26:59Z</time>
 </trkpt>
 <trkpt lat="47.713795" lon="13.182652">
 <ele>936.76</ele>
 <time>2010-08-23T10:27:03Z</time>
 </trkpt>
 <trkpt lat="47.713371" lon="13.183148">
 <ele>930.78</ele>
 <time>2010-08-23T10:27:07Z</time>
 </trkpt>
 <trkpt lat="47.712841" lon="13.183753">
 <ele>923.39</ele>
 <time>2010-08-23T10:27:12Z</time>
 </trkpt>
 <trkpt lat="47.712765" lon="13.183911">
 <ele>922.20</ele>
 <time>2010-08-23T10:27:13Z</time>
 </trkpt>
 <trkpt lat="47.712627" lon="13.184235">
 <ele>921.13</ele>
 <time>2010-08-23T10:27:15Z</time>
 </trkpt>
 <trkpt lat="47.712524" lon="13.184510">
 <ele>918.72</ele>
 <time>2010-08-23T10:27:17Z</time>
 </trkpt>
 <trkpt lat="47.712299" lon="13.185597">
 <ele>910.22</ele>
 <time>2010-08-23T10:27:23Z</time>
 </trkpt>
 <trkpt lat="47.712036" lon="13.186330">
 <ele>904.15</ele>
 <time>2010-08-23T10:27:27Z</time>
 </trkpt>
 <trkpt lat="47.711647" lon="13.186959">
 <ele>897.43</ele>
 <time>2010-08-23T10:27:31Z</time>
 </trkpt>
 <trkpt lat="47.711117" lon="13.187726">
 <ele>888.83</ele>
 <time>2010-08-23T10:27:36Z</time>
 </trkpt>
 <trkpt lat="47.710651" lon="13.188338">
 <ele>883.30</ele>
 <time>2010-08-23T10:27:40Z</time>
 </trkpt>
 <trkpt lat="47.710209" lon="13.188883">
 <ele>878.03</ele>
 <time>2010-08-23T10:27:44Z</time>
 </trkpt>
 <trkpt lat="47.709957" lon="13.189117">
 <ele>877.65</ele>
 <time>2010-08-23T10:27:47Z</time>
 </trkpt>
 <trkpt lat="47.709892" lon="13.189172">
 <ele>877.90</ele>
 <time>2010-08-23T10:27:48Z</time>
 </trkpt>
 <trkpt lat="47.709747" lon="13.189445">
 <ele>878.43</ele>
 <time>2010-08-23T10:27:52Z</time>
 </trkpt>
 <trkpt lat="47.709839" lon="13.189581">
 <ele>878.17</ele>
 <time>2010-08-23T10:27:54Z</time>
 </trkpt>
 <trkpt lat="47.710011" lon="13.189576">
 <ele>877.33</ele>
 <time>2010-08-23T10:27:56Z</time>
 </trkpt>
 <trkpt lat="47.710209" lon="13.189385">
 <ele>875.07</ele>
 <time>2010-08-23T10:27:59Z</time>
 </trkpt>
 <trkpt lat="47.710613" lon="13.188910">
 <ele>871.13</ele>
 <time>2010-08-23T10:28:05Z</time>
 </trkpt>
 <trkpt lat="47.711086" lon="13.188596">
 <ele>865.97</ele>
 <time>2010-08-23T10:28:10Z</time>
 </trkpt>
 <trkpt lat="47.711632" lon="13.188240">
 <ele>859.27</ele>
 <time>2010-08-23T10:28:15Z</time>
 </trkpt>
 <trkpt lat="47.712364" lon="13.187718">
 <ele>848.83</ele>
 <time>2010-08-23T10:28:21Z</time>
 </trkpt>
 <trkpt lat="47.713104" lon="13.187248">
 <ele>839.96</ele>
 <time>2010-08-23T10:28:27Z</time>
 </trkpt>
 <trkpt lat="47.713520" lon="13.187098">
 <ele>836.85</ele>
 <time>2010-08-23T10:28:30Z</time>
 </trkpt>
 <trkpt lat="47.714077" lon="13.187029">
 <ele>830.30</ele>
 <time>2010-08-23T10:28:34Z</time>
 </trkpt>
 <trkpt lat="47.714592" lon="13.187045">
 <ele>824.90</ele>
 <time>2010-08-23T10:28:38Z</time>
 </trkpt>
 <trkpt lat="47.714699" lon="13.187037">
 <ele>823.81</ele>
 <time>2010-08-23T10:28:39Z</time>
 </trkpt>
 <trkpt lat="47.714878" lon="13.186974">
 <ele>822.96</ele>
 <time>2010-08-23T10:28:41Z</time>
 </trkpt>
 <trkpt lat="47.715099" lon="13.186759">
 <ele>822.05</ele>
 <time>2010-08-23T10:28:44Z</time>
 </trkpt>
 <trkpt lat="47.715244" lon="13.186490">
 <ele>821.03</ele>
 <time>2010-08-23T10:28:47Z</time>
 </trkpt>
 <trkpt lat="47.715347" lon="13.186408">
 <ele>820.80</ele>
 <time>2010-08-23T10:28:49Z</time>
 </trkpt>
 <trkpt lat="47.715488" lon="13.186515">
 <ele>820.21</ele>
 <time>2010-08-23T10:28:52Z</time>
 </trkpt>
 <trkpt lat="47.715485" lon="13.186688">
 <ele>819.71</ele>
 <time>2010-08-23T10:28:54Z</time>
 </trkpt>
 <trkpt lat="47.715359" lon="13.186928">
 <ele>818.96</ele>
 <time>2010-08-23T10:28:57Z</time>
 </trkpt>
 <trkpt lat="47.715076" lon="13.187407">
 <ele>815.15</ele>
 <time>2010-08-23T10:29:02Z</time>
 </trkpt>
 <trkpt lat="47.714764" lon="13.188079">
 <ele>807.89</ele>
 <time>2010-08-23T10:29:07Z</time>
 </trkpt>
 <trkpt lat="47.714405" lon="13.188750">
 <ele>801.45</ele>
 <time>2010-08-23T10:29:12Z</time>
 </trkpt>
 <trkpt lat="47.714012" lon="13.189235">
 <ele>795.61</ele>
 <time>2010-08-23T10:29:16Z</time>
 </trkpt>
 <trkpt lat="47.713490" lon="13.189719">
 <ele>790.22</ele>
 <time>2010-08-23T10:29:21Z</time>
 </trkpt>
 <trkpt lat="47.713295" lon="13.189949">
 <ele>787.81</ele>
 <time>2010-08-23T10:29:23Z</time>
 </trkpt>
 <trkpt lat="47.712914" lon="13.190712">
 <ele>781.48</ele>
 <time>2010-08-23T10:29:28Z</time>
 </trkpt>
 <trkpt lat="47.712852" lon="13.190845">
 <ele>780.41</ele>
 <time>2010-08-23T10:29:29Z</time>
 </trkpt>
 <trkpt lat="47.712543" lon="13.191251">
 <ele>777.38</ele>
 <time>2010-08-23T10:29:33Z</time>
 </trkpt>
 <trkpt lat="47.712444" lon="13.191326">
 <ele>776.30</ele>
 <time>2010-08-23T10:29:34Z</time>
 </trkpt>
 <trkpt lat="47.712128" lon="13.191540">
 <ele>772.75</ele>
 <time>2010-08-23T10:29:37Z</time>
 </trkpt>
 <trkpt lat="47.711781" lon="13.191954">
 <ele>768.39</ele>
 <time>2010-08-23T10:29:41Z</time>
 </trkpt>
 <trkpt lat="47.711632" lon="13.192350">
 <ele>765.91</ele>
 <time>2010-08-23T10:29:44Z</time>
 </trkpt>
 <trkpt lat="47.711521" lon="13.192743">
 <ele>764.78</ele>
 <time>2010-08-23T10:29:47Z</time>
 </trkpt>
 <trkpt lat="47.711277" lon="13.193218">
 <ele>761.70</ele>
 <time>2010-08-23T10:29:51Z</time>
 </trkpt>
 <trkpt lat="47.710922" lon="13.193747">
 <ele>756.74</ele>
 <time>2010-08-23T10:29:56Z</time>
 </trkpt>
 <trkpt lat="47.710773" lon="13.194212">
 <ele>753.50</ele>
 <time>2010-08-23T10:30:00Z</time>
 </trkpt>
 <trkpt lat="47.710796" lon="13.194580">
 <ele>750.64</ele>
 <time>2010-08-23T10:30:03Z</time>
 </trkpt>
 <trkpt lat="47.710903" lon="13.194866">
 <ele>748.79</ele>
 <time>2010-08-23T10:30:06Z</time>
 </trkpt>
 <trkpt lat="47.710991" lon="13.194997">
 <ele>748.06</ele>
 <time>2010-08-23T10:30:08Z</time>
 </trkpt>
 <trkpt lat="47.711033" lon="13.195047">
 <ele>747.93</ele>
 <time>2010-08-23T10:30:09Z</time>
 </trkpt>
 <trkpt lat="47.711224" lon="13.195213">
 <ele>749.13</ele>
 <time>2010-08-23T10:30:15Z</time>
 </trkpt>
 <trkpt lat="47.711239" lon="13.195231">
 <ele>749.86</ele>
 <time>2010-08-23T10:30:18Z</time>
 </trkpt>
 <trkpt lat="47.711346" lon="13.195269">
 <ele>749.22</ele>
 <time>2010-08-23T10:30:25Z</time>
 </trkpt>
 <trkpt lat="47.711517" lon="13.195279">
 <ele>749.25</ele>
 <time>2010-08-23T10:30:32Z</time>
 </trkpt>
 <trkpt lat="47.711609" lon="13.195262">
 <ele>749.04</ele>
 <time>2010-08-23T10:30:36Z</time>
 </trkpt>
 <trkpt lat="47.711651" lon="13.195217">
 <ele>749.72</ele>
 <time>2010-08-23T10:30:51Z</time>
 </trkpt>
 <trkpt lat="47.711864" lon="13.195143">
 <ele>748.42</ele>
 <time>2010-08-23T10:30:57Z</time>
 </trkpt>
 <trkpt lat="47.712173" lon="13.194999">
 <ele>747.06</ele>
 <time>2010-08-23T10:31:03Z</time>
 </trkpt>
 <trkpt lat="47.712498" lon="13.194803">
 <ele>745.97</ele>
 <time>2010-08-23T10:31:09Z</time>
 </trkpt>
 <trkpt lat="47.712910" lon="13.194436">
 <ele>743.84</ele>
 <time>2010-08-23T10:31:16Z</time>
 </trkpt>
 <trkpt lat="47.713421" lon="13.193974">
 <ele>741.93</ele>
 <time>2010-08-23T10:31:24Z</time>
 </trkpt>
 <trkpt lat="47.714092" lon="13.193449">
 <ele>740.34</ele>
 <time>2010-08-23T10:31:34Z</time>
 </trkpt>
 <trkpt lat="47.714607" lon="13.192899">
 <ele>739.11</ele>
 <time>2010-08-23T10:31:42Z</time>
 </trkpt>
 <trkpt lat="47.715244" lon="13.192175">
 <ele>736.60</ele>
 <time>2010-08-23T10:31:52Z</time>
 </trkpt>
 <trkpt lat="47.715641" lon="13.191741">
 <ele>735.36</ele>
 <time>2010-08-23T10:31:58Z</time>
 </trkpt>
 <trkpt lat="47.715946" lon="13.191600">
 <ele>734.68</ele>
 <time>2010-08-23T10:32:02Z</time>
 </trkpt>
 <trkpt lat="47.716183" lon="13.191709">
 <ele>733.79</ele>
 <time>2010-08-23T10:32:05Z</time>
 </trkpt>
 <trkpt lat="47.716568" lon="13.192053">
 <ele>732.92</ele>
 <time>2010-08-23T10:32:10Z</time>
 </trkpt>
 <trkpt lat="47.716774" lon="13.192227">
 <ele>732.06</ele>
 <time>2010-08-23T10:32:13Z</time>
 </trkpt>
 <trkpt lat="47.717102" lon="13.192292">
 <ele>731.09</ele>
 <time>2010-08-23T10:32:17Z</time>
 </trkpt>
 <trkpt lat="47.717339" lon="13.192151">
 <ele>730.27</ele>
 <time>2010-08-23T10:32:20Z</time>
 </trkpt>
 <trkpt lat="47.717411" lon="13.192078">
 <ele>729.91</ele>
 <time>2010-08-23T10:32:21Z</time>
 </trkpt>
 <trkpt lat="47.717846" lon="13.191608">
 <ele>726.46</ele>
 <time>2010-08-23T10:32:27Z</time>
 </trkpt>
 <trkpt lat="47.718170" lon="13.191440">
 <ele>725.54</ele>
 <time>2010-08-23T10:32:31Z</time>
 </trkpt>
 <trkpt lat="47.718571" lon="13.191300">
 <ele>725.72</ele>
 <time>2010-08-23T10:32:36Z</time>
 </trkpt>
 <trkpt lat="47.718834" lon="13.191070">
 <ele>725.89</ele>
 <time>2010-08-23T10:32:40Z</time>
 </trkpt>
 <trkpt lat="47.719105" lon="13.190941">
 <ele>725.79</ele>
 <time>2010-08-23T10:32:44Z</time>
 </trkpt>
 <trkpt lat="47.719166" lon="13.190942">
 <ele>725.71</ele>
 <time>2010-08-23T10:32:45Z</time>
 </trkpt>
 <trkpt lat="47.719303" lon="13.190944">
 <ele>725.66</ele>
 <time>2010-08-23T10:32:47Z</time>
 </trkpt>
 <trkpt lat="47.719654" lon="13.190795">
 <ele>725.67</ele>
 <time>2010-08-23T10:32:52Z</time>
 </trkpt>
 <trkpt lat="47.719795" lon="13.190704">
 <ele>725.45</ele>
 <time>2010-08-23T10:32:54Z</time>
 </trkpt>
 <trkpt lat="47.720093" lon="13.190651">
 <ele>724.36</ele>
 <time>2010-08-23T10:32:58Z</time>
 </trkpt>
 <trkpt lat="47.720257" lon="13.190681">
 <ele>723.74</ele>
 <time>2010-08-23T10:33:00Z</time>
 </trkpt>
 <trkpt lat="47.720669" lon="13.190584">
 <ele>721.41</ele>
 <time>2010-08-23T10:33:05Z</time>
 </trkpt>
 <trkpt lat="47.720840" lon="13.190437">
 <ele>720.73</ele>
 <time>2010-08-23T10:33:07Z</time>
 </trkpt>
 <trkpt lat="47.720921" lon="13.190353">
 <ele>719.97</ele>
 <time>2010-08-23T10:33:08Z</time>
 </trkpt>
 <trkpt lat="47.721394" lon="13.190000">
 <ele>715.12</ele>
 <time>2010-08-23T10:33:13Z</time>
 </trkpt>
 <trkpt lat="47.721508" lon="13.189971">
 <ele>714.02</ele>
 <time>2010-08-23T10:33:14Z</time>
 </trkpt>
 <trkpt lat="47.721962" lon="13.189921">
 <ele>709.22</ele>
 <time>2010-08-23T10:33:18Z</time>
 </trkpt>
 <trkpt lat="47.722389" lon="13.189607">
 <ele>704.90</ele>
 <time>2010-08-23T10:33:22Z</time>
 </trkpt>
 <trkpt lat="47.722702" lon="13.189280">
 <ele>701.66</ele>
 <time>2010-08-23T10:33:25Z</time>
 </trkpt>
 <trkpt lat="47.722946" lon="13.188675">
 <ele>697.11</ele>
 <time>2010-08-23T10:33:29Z</time>
 </trkpt>
 <trkpt lat="47.723019" lon="13.188156">
 <ele>695.05</ele>
 <time>2010-08-23T10:33:32Z</time>
 </trkpt>
 <trkpt lat="47.723133" lon="13.187742">
 <ele>693.76</ele>
 <time>2010-08-23T10:33:35Z</time>
 </trkpt>
 <trkpt lat="47.723293" lon="13.187538">
 <ele>692.86</ele>
 <time>2010-08-23T10:33:37Z</time>
 </trkpt>
 <trkpt lat="47.723717" lon="13.187075">
 <ele>688.99</ele>
 <time>2010-08-23T10:33:42Z</time>
 </trkpt>
 <trkpt lat="47.723888" lon="13.186823">
 <ele>687.43</ele>
 <time>2010-08-23T10:33:44Z</time>
 </trkpt>
 <trkpt lat="47.724243" lon="13.186467">
 <ele>684.46</ele>
 <time>2010-08-23T10:33:48Z</time>
 </trkpt>
 <trkpt lat="47.724533" lon="13.186251">
 <ele>682.64</ele>
 <time>2010-08-23T10:33:51Z</time>
 </trkpt>
 <trkpt lat="47.724991" lon="13.185827">
 <ele>680.21</ele>
 <time>2010-08-23T10:33:56Z</time>
 </trkpt>
 <trkpt lat="47.725079" lon="13.185766">
 <ele>680.21</ele>
 <time>2010-08-23T10:33:57Z</time>
 </trkpt>
 <trkpt lat="47.725597" lon="13.185561">
 <ele>681.01</ele>
 <time>2010-08-23T10:34:03Z</time>
 </trkpt>
 <trkpt lat="47.725674" lon="13.185522">
 <ele>681.29</ele>
 <time>2010-08-23T10:34:04Z</time>
 </trkpt>
 <trkpt lat="47.725746" lon="13.185474">
 <ele>681.52</ele>
 <time>2010-08-23T10:34:05Z</time>
 </trkpt>
 <trkpt lat="47.726017" lon="13.185168">
 <ele>682.87</ele>
 <time>2010-08-23T10:34:10Z</time>
 </trkpt>
 <trkpt lat="47.726151" lon="13.184808">
 <ele>682.91</ele>
 <time>2010-08-23T10:34:14Z</time>
 </trkpt>
 <trkpt lat="47.726219" lon="13.184509">
 <ele>682.51</ele>
 <time>2010-08-23T10:34:17Z</time>
 </trkpt>
 <trkpt lat="47.726337" lon="13.183596">
 <ele>681.74</ele>
 <time>2010-08-23T10:34:26Z</time>
 </trkpt>
 <trkpt lat="47.726637" lon="13.183293">
 <ele>680.59</ele>
 <time>2010-08-23T10:34:31Z</time>
 </trkpt>
 <trkpt lat="47.726901" lon="13.182917">
 <ele>680.17</ele>
 <time>2010-08-23T10:34:37Z</time>
 </trkpt>
 <trkpt lat="47.727166" lon="13.182574">
 <ele>679.41</ele>
 <time>2010-08-23T10:34:41Z</time>
 </trkpt>
 <trkpt lat="47.727216" lon="13.182173">
 <ele>678.95</ele>
 <time>2010-08-23T10:34:43Z</time>
 </trkpt>
 <trkpt lat="47.727164" lon="13.181758">
 <ele>678.07</ele>
 <time>2010-08-23T10:34:46Z</time>
 </trkpt>
 <trkpt lat="47.727171" lon="13.181491">
 <ele>677.72</ele>
 <time>2010-08-23T10:34:48Z</time>
 </trkpt>
 <trkpt lat="47.727413" lon="13.180695">
 <ele>676.86</ele>
 <time>2010-08-23T10:34:54Z</time>
 </trkpt>
 <trkpt lat="47.727627" lon="13.180314">
 <ele>676.41</ele>
 <time>2010-08-23T10:34:58Z</time>
 </trkpt>
 <trkpt lat="47.727768" lon="13.179854">
 <ele>674.88</ele>
 <time>2010-08-23T10:35:02Z</time>
 </trkpt>
 <trkpt lat="47.727863" lon="13.178999">
 <ele>670.83</ele>
 <time>2010-08-23T10:35:09Z</time>
 </trkpt>
 <trkpt lat="47.727830" lon="13.178334">
 <ele>669.44</ele>
 <time>2010-08-23T10:35:12Z</time>
 </trkpt>
 <trkpt lat="47.727756" lon="13.177236">
 <ele>665.67</ele>
 <time>2010-08-23T10:35:18Z</time>
 </trkpt>
 <trkpt lat="47.727699" lon="13.176454">
 <ele>662.70</ele>
 <time>2010-08-23T10:35:25Z</time>
 </trkpt>
 <trkpt lat="47.727672" lon="13.175455">
 <ele>662.14</ele>
 <time>2010-08-23T10:35:30Z</time>
 </trkpt>
 <trkpt lat="47.727713" lon="13.174554">
 <ele>662.47</ele>
 <time>2010-08-23T10:35:37Z</time>
 </trkpt>
 <trkpt lat="47.727806" lon="13.174000">
 <ele>662.03</ele>
 <time>2010-08-23T10:35:43Z</time>
 </trkpt>
 <trkpt lat="47.727939" lon="13.173212">
 <ele>660.76</ele>
 <time>2010-08-23T10:35:50Z</time>
 </trkpt>
 <trkpt lat="47.728143" lon="13.172571">
 <ele>658.14</ele>
 <time>2010-08-23T10:35:55Z</time>
 </trkpt>
 <trkpt lat="47.728312" lon="13.172126">
 <ele>655.76</ele>
 <time>2010-08-23T10:36:00Z</time>
 </trkpt>
 <trkpt lat="47.728306" lon="13.171759">
 <ele>655.40</ele>
 <time>2010-08-23T10:36:01Z</time>
 </trkpt>
 <trkpt lat="47.728128" lon="13.171182">
 <ele>654.46</ele>
 <time>2010-08-23T10:36:05Z</time>
 </trkpt>
 <trkpt lat="47.728106" lon="13.170499">
 <ele>653.65</ele>
 <time>2010-08-23T10:36:11Z</time>
 </trkpt>
 <trkpt lat="47.728370" lon="13.170107">
 <ele>652.93</ele>
 <time>2010-08-23T10:36:15Z</time>
 </trkpt>
 <trkpt lat="47.728710" lon="13.169966">
 <ele>653.49</ele>
 <time>2010-08-23T10:36:19Z</time>
 </trkpt>
 <trkpt lat="47.729252" lon="13.169472">
 <ele>653.71</ele>
 <time>2010-08-23T10:36:28Z</time>
 </trkpt>
 <trkpt lat="47.729733" lon="13.168971">
 <ele>653.65</ele>
 <time>2010-08-23T10:36:36Z</time>
 </trkpt>
 <trkpt lat="47.729973" lon="13.168512">
 <ele>652.80</ele>
 <time>2010-08-23T10:36:42Z</time>
 </trkpt>
 <trkpt lat="47.730335" lon="13.168025">
 <ele>651.86</ele>
 <time>2010-08-23T10:36:49Z</time>
 </trkpt>
 <trkpt lat="47.730682" lon="13.167744">
 <ele>652.11</ele>
 <time>2010-08-23T10:36:55Z</time>
 </trkpt>
 <trkpt lat="47.731113" lon="13.167394">
 <ele>651.66</ele>
 <time>2010-08-23T10:37:02Z</time>
 </trkpt>
 <trkpt lat="47.731487" lon="13.166919">
 <ele>651.66</ele>
 <time>2010-08-23T10:37:09Z</time>
 </trkpt>
 <trkpt lat="47.731682" lon="13.166405">
 <ele>651.62</ele>
 <time>2010-08-23T10:37:15Z</time>
 </trkpt>
 <trkpt lat="47.731815" lon="13.165870">
 <ele>651.77</ele>
 <time>2010-08-23T10:37:21Z</time>
 </trkpt>
 <trkpt lat="47.732056" lon="13.165077">
 <ele>651.67</ele>
 <time>2010-08-23T10:37:30Z</time>
 </trkpt>
 <trkpt lat="47.732311" lon="13.164724">
 <ele>651.89</ele>
 <time>2010-08-23T10:37:35Z</time>
 </trkpt>
 <trkpt lat="47.732365" lon="13.164672">
 <ele>651.93</ele>
 <time>2010-08-23T10:37:36Z</time>
 </trkpt>
 <trkpt lat="47.732880" lon="13.164290">
 <ele>652.63</ele>
 <time>2010-08-23T10:37:45Z</time>
 </trkpt>
 <trkpt lat="47.733299" lon="13.163922">
 <ele>652.84</ele>
 <time>2010-08-23T10:37:53Z</time>
 </trkpt>
 <trkpt lat="47.733711" lon="13.163512">
 <ele>652.41</ele>
 <time>2010-08-23T10:38:01Z</time>
 </trkpt>
 <trkpt lat="47.734188" lon="13.163038">
 <ele>653.19</ele>
 <time>2010-08-23T10:38:10Z</time>
 </trkpt>
 <trkpt lat="47.734543" lon="13.162771">
 <ele>652.72</ele>
 <time>2010-08-23T10:38:16Z</time>
 </trkpt>
 <trkpt lat="47.734882" lon="13.162607">
 <ele>652.36</ele>
 <time>2010-08-23T10:38:22Z</time>
 </trkpt>
 <trkpt lat="47.735268" lon="13.162469">
 <ele>652.23</ele>
 <time>2010-08-23T10:38:29Z</time>
 </trkpt>
 <trkpt lat="47.735653" lon="13.162328">
 <ele>652.43</ele>
 <time>2010-08-23T10:38:36Z</time>
 </trkpt>
 <trkpt lat="47.736031" lon="13.162218">
 <ele>652.14</ele>
 <time>2010-08-23T10:38:41Z</time>
 </trkpt>
 <trkpt lat="47.736473" lon="13.162145">
 <ele>651.44</ele>
 <time>2010-08-23T10:38:47Z</time>
 </trkpt>
 <trkpt lat="47.737091" lon="13.162071">
 <ele>649.81</ele>
 <time>2010-08-23T10:38:55Z</time>
 </trkpt>
 <trkpt lat="47.737316" lon="13.162018">
 <ele>649.29</ele>
 <time>2010-08-23T10:38:58Z</time>
 </trkpt>
 <trkpt lat="47.737656" lon="13.161781">
 <ele>647.31</ele>
 <time>2010-08-23T10:39:03Z</time>
 </trkpt>
 <trkpt lat="47.737713" lon="13.161700">
 <ele>646.79</ele>
 <time>2010-08-23T10:39:04Z</time>
 </trkpt>
 <trkpt lat="47.738117" lon="13.161073">
 <ele>642.52</ele>
 <time>2010-08-23T10:39:11Z</time>
 </trkpt>
 <trkpt lat="47.738274" lon="13.160834">
 <ele>641.01</ele>
 <time>2010-08-23T10:39:15Z</time>
 </trkpt>
 <trkpt lat="47.738373" lon="13.160719">
 <ele>640.91</ele>
 <time>2010-08-23T10:39:19Z</time>
 </trkpt>
 <trkpt lat="47.738419" lon="13.160659">
 <ele>641.30</ele>
 <time>2010-08-23T10:39:24Z</time>
 </trkpt>
 <trkpt lat="47.738422" lon="13.160655">
 <ele>641.39</ele>
 <time>2010-08-23T10:39:26Z</time>
 </trkpt>
 <trkpt lat="47.738426" lon="13.160449">
 <ele>640.57</ele>
 <time>2010-08-23T10:39:33Z</time>
 </trkpt>
 <trkpt lat="47.738400" lon="13.160387">
 <ele>640.10</ele>
 <time>2010-08-23T10:39:34Z</time>
 </trkpt>
 <trkpt lat="47.738167" lon="13.159865">
 <ele>636.67</ele>
 <time>2010-08-23T10:39:40Z</time>
 </trkpt>
 <trkpt lat="47.738018" lon="13.159543">
 <ele>633.67</ele>
 <time>2010-08-23T10:39:43Z</time>
 </trkpt>
 <trkpt lat="47.737816" lon="13.158813">
 <ele>628.58</ele>
 <time>2010-08-23T10:39:48Z</time>
 </trkpt>
 <trkpt lat="47.737537" lon="13.157835">
 <ele>620.29</ele>
 <time>2010-08-23T10:39:54Z</time>
 </trkpt>
 <trkpt lat="47.737408" lon="13.157542">
 <ele>618.63</ele>
 <time>2010-08-23T10:39:56Z</time>
 </trkpt>
 <trkpt lat="47.737087" lon="13.157123">
 <ele>618.29</ele>
 <time>2010-08-23T10:40:00Z</time>
 </trkpt>
 <trkpt lat="47.736996" lon="13.157055">
 <ele>618.57</ele>
 <time>2010-08-23T10:40:01Z</time>
 </trkpt>
 <trkpt lat="47.736259" lon="13.156615">
 <ele>619.55</ele>
 <time>2010-08-23T10:40:09Z</time>
 </trkpt>
 <trkpt lat="47.735825" lon="13.156202">
 <ele>619.25</ele>
 <time>2010-08-23T10:40:15Z</time>
 </trkpt>
 <trkpt lat="47.735573" lon="13.155779">
 <ele>618.78</ele>
 <time>2010-08-23T10:40:20Z</time>
 </trkpt>
 <trkpt lat="47.735271" lon="13.155105">
 <ele>619.12</ele>
 <time>2010-08-23T10:40:27Z</time>
 </trkpt>
 <trkpt lat="47.735149" lon="13.154796">
 <ele>619.08</ele>
 <time>2010-08-23T10:40:30Z</time>
 </trkpt>
 <trkpt lat="47.734955" lon="13.154045">
 <ele>619.85</ele>
 <time>2010-08-23T10:40:38Z</time>
 </trkpt>
 <trkpt lat="47.734882" lon="13.153758">
 <ele>621.05</ele>
 <time>2010-08-23T10:40:42Z</time>
 </trkpt>
 <trkpt lat="47.734734" lon="13.153553">
 <ele>622.28</ele>
 <time>2010-08-23T10:40:47Z</time>
 </trkpt>
 <trkpt lat="47.734428" lon="13.153409">
 <ele>622.17</ele>
 <time>2010-08-23T10:40:53Z</time>
 </trkpt>
 <trkpt lat="47.734142" lon="13.153352">
 <ele>622.46</ele>
 <time>2010-08-23T10:40:58Z</time>
 </trkpt>
 <trkpt lat="47.733757" lon="13.153197">
 <ele>622.32</ele>
 <time>2010-08-23T10:41:04Z</time>
 </trkpt>
 <trkpt lat="47.733467" lon="13.152981">
 <ele>621.69</ele>
 <time>2010-08-23T10:41:10Z</time>
 </trkpt>
 <trkpt lat="47.733196" lon="13.152748">
 <ele>620.83</ele>
 <time>2010-08-23T10:41:15Z</time>
 </trkpt>
 <trkpt lat="47.733082" lon="13.152636">
 <ele>620.71</ele>
 <time>2010-08-23T10:41:17Z</time>
 </trkpt>
 <trkpt lat="47.732803" lon="13.152143">
 <ele>620.36</ele>
 <time>2010-08-23T10:41:23Z</time>
 </trkpt>
 <trkpt lat="47.732635" lon="13.151949">
 <ele>620.01</ele>
 <time>2010-08-23T10:41:26Z</time>
 </trkpt>
 <trkpt lat="47.732403" lon="13.151740">
 <ele>619.56</ele>
 <time>2010-08-23T10:41:30Z</time>
 </trkpt>
 <trkpt lat="47.731991" lon="13.151509">
 <ele>620.20</ele>
 <time>2010-08-23T10:41:37Z</time>
 </trkpt>
 <trkpt lat="47.731602" lon="13.151242">
 <ele>621.40</ele>
 <time>2010-08-23T10:41:44Z</time>
 </trkpt>
 <trkpt lat="47.731331" lon="13.150951">
 <ele>622.09</ele>
 <time>2010-08-23T10:41:50Z</time>
 </trkpt>
 <trkpt lat="47.731110" lon="13.150682">
 <ele>622.63</ele>
 <time>2010-08-23T10:41:55Z</time>
 </trkpt>
 <trkpt lat="47.730995" lon="13.150275">
 <ele>622.12</ele>
 <time>2010-08-23T10:42:00Z</time>
 </trkpt>
 <trkpt lat="47.730968" lon="13.149979">
 <ele>621.57</ele>
 <time>2010-08-23T10:42:03Z</time>
 </trkpt>
 <trkpt lat="47.730846" lon="13.149586">
 <ele>620.36</ele>
 <time>2010-08-23T10:42:07Z</time>
 </trkpt>
 <trkpt lat="47.730766" lon="13.149400">
 <ele>619.74</ele>
 <time>2010-08-23T10:42:09Z</time>
 </trkpt>
 <trkpt lat="47.730679" lon="13.148844">
 <ele>618.74</ele>
 <time>2010-08-23T10:42:14Z</time>
 </trkpt>
 <trkpt lat="47.730762" lon="13.148234">
 <ele>616.80</ele>
 <time>2010-08-23T10:42:19Z</time>
 </trkpt>
 <trkpt lat="47.730862" lon="13.148005">
 <ele>615.16</ele>
 <time>2010-08-23T10:42:21Z</time>
 </trkpt>
 <trkpt lat="47.731136" lon="13.147231">
 <ele>610.75</ele>
 <time>2010-08-23T10:42:27Z</time>
 </trkpt>
 <trkpt lat="47.731182" lon="13.146489">
 <ele>606.30</ele>
 <time>2010-08-23T10:42:32Z</time>
 </trkpt>
 <trkpt lat="47.731033" lon="13.146029">
 <ele>604.21</ele>
 <time>2010-08-23T10:42:36Z</time>
 </trkpt>
 <trkpt lat="47.730946" lon="13.145946">
 <ele>603.49</ele>
 <time>2010-08-23T10:42:37Z</time>
 </trkpt>
 <trkpt lat="47.730473" lon="13.145441">
 <ele>598.05</ele>
 <time>2010-08-23T10:42:43Z</time>
 </trkpt>
 <trkpt lat="47.730385" lon="13.145352">
 <ele>598.05</ele>
 <time>2010-08-23T10:42:44Z</time>
 </trkpt>
 <trkpt lat="47.729797" lon="13.144804">
 <ele>592.09</ele>
 <time>2010-08-23T10:42:50Z</time>
 </trkpt>
 <trkpt lat="47.729118" lon="13.144414">
 <ele>585.97</ele>
 <time>2010-08-23T10:42:56Z</time>
 </trkpt>
 <trkpt lat="47.728661" lon="13.144249">
 <ele>582.12</ele>
 <time>2010-08-23T10:43:00Z</time>
 </trkpt>
 <trkpt lat="47.728088" lon="13.143979">
 <ele>578.90</ele>
 <time>2010-08-23T10:43:05Z</time>
 </trkpt>
 <trkpt lat="47.727612" lon="13.143847">
 <ele>575.95</ele>
 <time>2010-08-23T10:43:09Z</time>
 </trkpt>
 <trkpt lat="47.727264" lon="13.143728">
 <ele>573.18</ele>
 <time>2010-08-23T10:43:12Z</time>
 </trkpt>
 <trkpt lat="47.726830" lon="13.143764">
 <ele>569.89</ele>
 <time>2010-08-23T10:43:16Z</time>
 </trkpt>
 <trkpt lat="47.726620" lon="13.143833">
 <ele>568.18</ele>
 <time>2010-08-23T10:43:18Z</time>
 </trkpt>
 <trkpt lat="47.726185" lon="13.143826">
 <ele>565.37</ele>
 <time>2010-08-23T10:43:22Z</time>
 </trkpt>
 <trkpt lat="47.725830" lon="13.143713">
 <ele>563.05</ele>
 <time>2010-08-23T10:43:25Z</time>
 </trkpt>
 <trkpt lat="47.725548" lon="13.143525">
 <ele>561.27</ele>
 <time>2010-08-23T10:43:28Z</time>
 </trkpt>
 <trkpt lat="47.725113" lon="13.143423">
 <ele>558.21</ele>
 <time>2010-08-23T10:43:32Z</time>
 </trkpt>
 <trkpt lat="47.724880" lon="13.143440">
 <ele>557.21</ele>
 <time>2010-08-23T10:43:34Z</time>
 </trkpt>
 <trkpt lat="47.724445" lon="13.143394">
 <ele>552.89</ele>
 <time>2010-08-23T10:43:38Z</time>
 </trkpt>
 <trkpt lat="47.724171" lon="13.143280">
 <ele>550.45</ele>
 <time>2010-08-23T10:43:41Z</time>
 </trkpt>
 <trkpt lat="47.723789" lon="13.142894">
 <ele>546.04</ele>
 <time>2010-08-23T10:43:46Z</time>
 </trkpt>
 <trkpt lat="47.723606" lon="13.142410">
 <ele>542.96</ele>
 <time>2010-08-23T10:43:50Z</time>
 </trkpt>
 <trkpt lat="47.723621" lon="13.142138">
 <ele>541.90</ele>
 <time>2010-08-23T10:43:52Z</time>
 </trkpt>
 <trkpt lat="47.723587" lon="13.141840">
 <ele>541.41</ele>
 <time>2010-08-23T10:43:54Z</time>
 </trkpt>
 <trkpt lat="47.723412" lon="13.141147">
 <ele>541.18</ele>
 <time>2010-08-23T10:43:59Z</time>
 </trkpt>
 <trkpt lat="47.723186" lon="13.140514">
 <ele>540.83</ele>
 <time>2010-08-23T10:44:04Z</time>
 </trkpt>
 <trkpt lat="47.722954" lon="13.139563">
 <ele>540.77</ele>
 <time>2010-08-23T10:44:12Z</time>
 </trkpt>
 <trkpt lat="47.722729" lon="13.138771">
 <ele>540.69</ele>
 <time>2010-08-23T10:44:19Z</time>
 </trkpt>
 <trkpt lat="47.722488" lon="13.138170">
 <ele>540.42</ele>
 <time>2010-08-23T10:44:25Z</time>
 </trkpt>
 <trkpt lat="47.722168" lon="13.137579">
 <ele>540.08</ele>
 <time>2010-08-23T10:44:32Z</time>
 </trkpt>
 <trkpt lat="47.721905" lon="13.137206">
 <ele>540.48</ele>
 <time>2010-08-23T10:44:37Z</time>
 </trkpt>
 <trkpt lat="47.721432" lon="13.136863">
 <ele>540.40</ele>
 <time>2010-08-23T10:44:43Z</time>
 </trkpt>
 <trkpt lat="47.720989" lon="13.136628">
 <ele>540.24</ele>
 <time>2010-08-23T10:44:49Z</time>
 </trkpt>
 <trkpt lat="47.720432" lon="13.136372">
 <ele>540.19</ele>
 <time>2010-08-23T10:44:56Z</time>
 </trkpt>
 <trkpt lat="47.719978" lon="13.136217">
 <ele>540.05</ele>
 <time>2010-08-23T10:45:02Z</time>
 </trkpt>
 <trkpt lat="47.719437" lon="13.136168">
 <ele>539.95</ele>
 <time>2010-08-23T10:45:09Z</time>
 </trkpt>
 <trkpt lat="47.719009" lon="13.136236">
 <ele>539.74</ele>
 <time>2010-08-23T10:45:15Z</time>
 </trkpt>
 <trkpt lat="47.718590" lon="13.136369">
 <ele>539.15</ele>
 <time>2010-08-23T10:45:22Z</time>
 </trkpt>
 <trkpt lat="47.717995" lon="13.136406">
 <ele>537.61</ele>
 <time>2010-08-23T10:45:30Z</time>
 </trkpt>
 <trkpt lat="47.717403" lon="13.136313">
 <ele>535.15</ele>
 <time>2010-08-23T10:45:37Z</time>
 </trkpt>
 <trkpt lat="47.716480" lon="13.136125">
 <ele>533.63</ele>
 <time>2010-08-23T10:45:48Z</time>
 </trkpt>
 <trkpt lat="47.715973" lon="13.136068">
 <ele>533.79</ele>
 <time>2010-08-23T10:45:55Z</time>
 </trkpt>
 <trkpt lat="47.715416" lon="13.136076">
 <ele>533.87</ele>
 <time>2010-08-23T10:46:03Z</time>
 </trkpt>
 <trkpt lat="47.715080" lon="13.136014">
 <ele>533.67</ele>
 <time>2010-08-23T10:46:08Z</time>
 </trkpt>
 <trkpt lat="47.714787" lon="13.135846">
 <ele>533.90</ele>
 <time>2010-08-23T10:46:13Z</time>
 </trkpt>
 <trkpt lat="47.714691" lon="13.135767">
 <ele>533.98</ele>
 <time>2010-08-23T10:46:15Z</time>
 </trkpt>
 <trkpt lat="47.714275" lon="13.135435">
 <ele>534.11</ele>
 <time>2010-08-23T10:46:22Z</time>
 </trkpt>
 <trkpt lat="47.713718" lon="13.134916">
 <ele>534.11</ele>
 <time>2010-08-23T10:46:32Z</time>
 </trkpt>
 <trkpt lat="47.713280" lon="13.134554">
 <ele>534.27</ele>
 <time>2010-08-23T10:46:40Z</time>
 </trkpt>
 <trkpt lat="47.713116" lon="13.134453">
 <ele>534.72</ele>
 <time>2010-08-23T10:46:43Z</time>
 </trkpt>
 <trkpt lat="47.712738" lon="13.134393">
 <ele>534.47</ele>
 <time>2010-08-23T10:46:49Z</time>
 </trkpt>
 <trkpt lat="47.712177" lon="13.134257">
 <ele>533.29</ele>
 <time>2010-08-23T10:46:57Z</time>
 </trkpt>
 <trkpt lat="47.711555" lon="13.133955">
 <ele>531.66</ele>
 <time>2010-08-23T10:47:06Z</time>
 </trkpt>
 <trkpt lat="47.710823" lon="13.133523">
 <ele>530.60</ele>
 <time>2010-08-23T10:47:17Z</time>
 </trkpt>
 <trkpt lat="47.710384" lon="13.133278">
 <ele>529.96</ele>
 <time>2010-08-23T10:47:24Z</time>
 </trkpt>
 <trkpt lat="47.709934" lon="13.133035">
 <ele>529.20</ele>
 <time>2010-08-23T10:47:32Z</time>
 </trkpt>
 <trkpt lat="47.709522" lon="13.132760">
 <ele>529.14</ele>
 <time>2010-08-23T10:47:39Z</time>
 </trkpt>
 <trkpt lat="47.709038" lon="13.132405">
 <ele>528.24</ele>
 <time>2010-08-23T10:47:47Z</time>
 </trkpt>
 <trkpt lat="47.708668" lon="13.132054">
 <ele>528.58</ele>
 <time>2010-08-23T10:47:54Z</time>
 </trkpt>
 <trkpt lat="47.708263" lon="13.131579">
 <ele>528.10</ele>
 <time>2010-08-23T10:48:02Z</time>
 </trkpt>
 <trkpt lat="47.707829" lon="13.131006">
 <ele>527.99</ele>
 <time>2010-08-23T10:48:11Z</time>
 </trkpt>
 <trkpt lat="47.707550" lon="13.130528">
 <ele>527.61</ele>
 <time>2010-08-23T10:48:18Z</time>
 </trkpt>
 <trkpt lat="47.707302" lon="13.129998">
 <ele>527.29</ele>
 <time>2010-08-23T10:48:25Z</time>
 </trkpt>
 <trkpt lat="47.707020" lon="13.129329">
 <ele>526.51</ele>
 <time>2010-08-23T10:48:33Z</time>
 </trkpt>
 <trkpt lat="47.706837" lon="13.128707">
 <ele>526.26</ele>
 <time>2010-08-23T10:48:40Z</time>
 </trkpt>
 <trkpt lat="47.706779" lon="13.128063">
 <ele>527.13</ele>
 <time>2010-08-23T10:48:47Z</time>
 </trkpt>
 <trkpt lat="47.706841" lon="13.127416">
 <ele>527.39</ele>
 <time>2010-08-23T10:48:54Z</time>
 </trkpt>
 <trkpt lat="47.706871" lon="13.127058">
 <ele>527.21</ele>
 <time>2010-08-23T10:48:58Z</time>
 </trkpt>
 <trkpt lat="47.706932" lon="13.126406">
 <ele>527.15</ele>
 <time>2010-08-23T10:49:05Z</time>
 </trkpt>
 <trkpt lat="47.706963" lon="13.125666">
 <ele>527.46</ele>
 <time>2010-08-23T10:49:13Z</time>
 </trkpt>
 <trkpt lat="47.706966" lon="13.125385">
 <ele>527.22</ele>
 <time>2010-08-23T10:49:16Z</time>
 </trkpt>
 <trkpt lat="47.706936" lon="13.125010">
 <ele>526.73</ele>
 <time>2010-08-23T10:49:20Z</time>
 </trkpt>
 <trkpt lat="47.706768" lon="13.124291">
 <ele>527.33</ele>
 <time>2010-08-23T10:49:28Z</time>
 </trkpt>
 <trkpt lat="47.706577" lon="13.123693">
 <ele>526.99</ele>
 <time>2010-08-23T10:49:35Z</time>
 </trkpt>
 <trkpt lat="47.706291" lon="13.123128">
 <ele>527.28</ele>
 <time>2010-08-23T10:49:43Z</time>
 </trkpt>
 <trkpt lat="47.705997" lon="13.122746">
 <ele>527.60</ele>
 <time>2010-08-23T10:49:50Z</time>
 </trkpt>
 <trkpt lat="47.705673" lon="13.122551">
 <ele>527.62</ele>
 <time>2010-08-23T10:49:56Z</time>
 </trkpt>
 <trkpt lat="47.705315" lon="13.122488">
 <ele>527.36</ele>
 <time>2010-08-23T10:50:02Z</time>
 </trkpt>
 <trkpt lat="47.704811" lon="13.122504">
 <ele>526.94</ele>
 <time>2010-08-23T10:50:10Z</time>
 </trkpt>
 <trkpt lat="47.704411" lon="13.122534">
 <ele>526.49</ele>
 <time>2010-08-23T10:50:17Z</time>
 </trkpt>
 <trkpt lat="47.703987" lon="13.122557">
 <ele>526.34</ele>
 <time>2010-08-23T10:50:24Z</time>
 </trkpt>
 <trkpt lat="47.703423" lon="13.122606">
 <ele>525.39</ele>
 <time>2010-08-23T10:50:33Z</time>
 </trkpt>
 <trkpt lat="47.702690" lon="13.122654">
 <ele>524.86</ele>
 <time>2010-08-23T10:50:45Z</time>
 </trkpt>
 <trkpt lat="47.701878" lon="13.122696">
 <ele>524.92</ele>
 <time>2010-08-23T10:50:58Z</time>
 </trkpt>
 <trkpt lat="47.701374" lon="13.122703">
 <ele>524.52</ele>
 <time>2010-08-23T10:51:06Z</time>
 </trkpt>
 <trkpt lat="47.700935" lon="13.122613">
 <ele>523.57</ele>
 <time>2010-08-23T10:51:13Z</time>
 </trkpt>
 <trkpt lat="47.700554" lon="13.122430">
 <ele>523.82</ele>
 <time>2010-08-23T10:51:20Z</time>
 </trkpt>
 <trkpt lat="47.700314" lon="13.122189">
 <ele>523.68</ele>
 <time>2010-08-23T10:51:25Z</time>
 </trkpt>
 <trkpt lat="47.700005" lon="13.121751">
 <ele>523.43</ele>
 <time>2010-08-23T10:51:32Z</time>
 </trkpt>
 <trkpt lat="47.699802" lon="13.121393">
 <ele>523.05</ele>
 <time>2010-08-23T10:51:37Z</time>
 </trkpt>
 <trkpt lat="47.699532" lon="13.120649">
 <ele>522.70</ele>
 <time>2010-08-23T10:51:46Z</time>
 </trkpt>
 <trkpt lat="47.699375" lon="13.120012">
 <ele>522.40</ele>
 <time>2010-08-23T10:51:54Z</time>
 </trkpt>
 <trkpt lat="47.699291" lon="13.119420">
 <ele>522.65</ele>
 <time>2010-08-23T10:52:02Z</time>
 </trkpt>
 <trkpt lat="47.699261" lon="13.118726">
 <ele>522.50</ele>
 <time>2010-08-23T10:52:10Z</time>
 </trkpt>
 <trkpt lat="47.699299" lon="13.118007">
 <ele>522.51</ele>
 <time>2010-08-23T10:52:18Z</time>
 </trkpt>
 <trkpt lat="47.699364" lon="13.117467">
 <ele>522.14</ele>
 <time>2010-08-23T10:52:25Z</time>
 </trkpt>
 <trkpt lat="47.699455" lon="13.117012">
 <ele>522.43</ele>
 <time>2010-08-23T10:52:32Z</time>
 </trkpt>
 <trkpt lat="47.699551" lon="13.116638">
 <ele>522.36</ele>
 <time>2010-08-23T10:52:38Z</time>
 </trkpt>
 <trkpt lat="47.699684" lon="13.116242">
 <ele>522.20</ele>
 <time>2010-08-23T10:52:44Z</time>
 </trkpt>
 <trkpt lat="47.699886" lon="13.115796">
 <ele>522.22</ele>
 <time>2010-08-23T10:52:51Z</time>
 </trkpt>
 <trkpt lat="47.700153" lon="13.115325">
 <ele>522.16</ele>
 <time>2010-08-23T10:52:59Z</time>
 </trkpt>
 <trkpt lat="47.700447" lon="13.114884">
 <ele>522.60</ele>
 <time>2010-08-23T10:53:07Z</time>
 </trkpt>
 <trkpt lat="47.700645" lon="13.114428">
 <ele>522.95</ele>
 <time>2010-08-23T10:53:14Z</time>
 </trkpt>
 <trkpt lat="47.700798" lon="13.113940">
 <ele>523.36</ele>
 <time>2010-08-23T10:53:21Z</time>
 </trkpt>
 <trkpt lat="47.700829" lon="13.113787">
 <ele>523.41</ele>
 <time>2010-08-23T10:53:23Z</time>
 </trkpt>
 <trkpt lat="47.700871" lon="13.113048">
 <ele>523.07</ele>
 <time>2010-08-23T10:53:32Z</time>
 </trkpt>
 <trkpt lat="47.700836" lon="13.112797">
 <ele>522.75</ele>
 <time>2010-08-23T10:53:35Z</time>
 </trkpt>
 <trkpt lat="47.700619" lon="13.112096">
 <ele>522.41</ele>
 <time>2010-08-23T10:53:44Z</time>
 </trkpt>
 <trkpt lat="47.700375" lon="13.111656">
 <ele>522.21</ele>
 <time>2010-08-23T10:53:51Z</time>
 </trkpt>
 <trkpt lat="47.700142" lon="13.111406">
 <ele>521.84</ele>
 <time>2010-08-23T10:53:56Z</time>
 </trkpt>
 <trkpt lat="47.699772" lon="13.111198">
 <ele>520.79</ele>
 <time>2010-08-23T10:54:02Z</time>
 </trkpt>
 <trkpt lat="47.699333" lon="13.111017">
 <ele>519.33</ele>
 <time>2010-08-23T10:54:09Z</time>
 </trkpt>
 <trkpt lat="47.699345" lon="13.110934">
 <ele>519.94</ele>
 <time>2010-08-23T10:54:13Z</time>
 </trkpt>
 <trkpt lat="47.699451" lon="13.110970">
 <ele>519.44</ele>
 <time>2010-08-23T10:54:17Z</time>
 </trkpt>
 <trkpt lat="47.699650" lon="13.110984">
 <ele>517.58</ele>
 <time>2010-08-23T10:54:23Z</time>
 </trkpt>
 <trkpt lat="47.699757" lon="13.111007">
 <ele>517.78</ele>
 <time>2010-08-23T10:54:27Z</time>
 </trkpt>
 <trkpt lat="47.699829" lon="13.110871">
 <ele>518.27</ele>
 <time>2010-08-23T10:54:32Z</time>
 </trkpt>
 <trkpt lat="47.699913" lon="13.110632">
 <ele>517.43</ele>
 <time>2010-08-23T10:54:37Z</time>
 </trkpt>
 <trkpt lat="47.699989" lon="13.110405">
 <ele>516.97</ele>
 <time>2010-08-23T10:54:42Z</time>
 </trkpt>
 <trkpt lat="47.700005" lon="13.110347">
 <ele>517.06</ele>
 <time>2010-08-23T10:54:44Z</time>
 </trkpt>
 <trkpt lat="47.699955" lon="13.110268">
 <ele>517.02</ele>
 <time>2010-08-23T10:54:48Z</time>
 </trkpt>
 <trkpt lat="47.699795" lon="13.110128">
 <ele>515.99</ele>
 <time>2010-08-23T10:54:53Z</time>
 </trkpt>
 <trkpt lat="47.699623" lon="13.109946">
 <ele>516.20</ele>
 <time>2010-08-23T10:54:59Z</time>
 </trkpt>
 <trkpt lat="47.699493" lon="13.109710">
 <ele>516.45</ele>
 <time>2010-08-23T10:55:05Z</time>
 </trkpt>
 <trkpt lat="47.699432" lon="13.109492">
 <ele>516.13</ele>
 <time>2010-08-23T10:55:09Z</time>
 </trkpt>
 <trkpt lat="47.699287" lon="13.109052">
 <ele>515.35</ele>
 <time>2010-08-23T10:55:16Z</time>
 </trkpt>
 <trkpt lat="47.699261" lon="13.108991">
 <ele>515.34</ele>
 <time>2010-08-23T10:55:17Z</time>
 </trkpt>
 <trkpt lat="47.699043" lon="13.108655">
 <ele>514.78</ele>
 <time>2010-08-23T10:55:24Z</time>
 </trkpt>
 <trkpt lat="47.698990" lon="13.108550">
 <ele>515.27</ele>
 <time>2010-08-23T10:55:30Z</time>
 </trkpt>
 <trkpt lat="47.698990" lon="13.108547">
 <ele>515.36</ele>
 <time>2010-08-23T10:55:31Z</time>
 </trkpt>
 <trkpt lat="47.698910" lon="13.108474">
 <ele>514.98</ele>
 <time>2010-08-23T10:55:43Z</time>
 </trkpt>
 <trkpt lat="47.698799" lon="13.108385">
 <ele>514.50</ele>
 <time>2010-08-23T10:55:47Z</time>
 </trkpt>
 <trkpt lat="47.698765" lon="13.108359">
 <ele>514.28</ele>
 <time>2010-08-23T10:55:48Z</time>
 </trkpt>
 <trkpt lat="47.698627" lon="13.108225">
 <ele>513.82</ele>
 <time>2010-08-23T10:55:52Z</time>
 </trkpt>
 <trkpt lat="47.698345" lon="13.107957">
 <ele>513.66</ele>
 <time>2010-08-23T10:55:59Z</time>
 </trkpt>
 <trkpt lat="47.697964" lon="13.107794">
 <ele>512.81</ele>
 <time>2010-08-23T10:56:05Z</time>
 </trkpt>
 <trkpt lat="47.697590" lon="13.107758">
 <ele>512.03</ele>
 <time>2010-08-23T10:56:11Z</time>
 </trkpt>
 <trkpt lat="47.697124" lon="13.107791">
 <ele>511.20</ele>
 <time>2010-08-23T10:56:18Z</time>
 </trkpt>
 <trkpt lat="47.696823" lon="13.107674">
 <ele>511.35</ele>
 <time>2010-08-23T10:56:23Z</time>
 </trkpt>
 <trkpt lat="47.696404" lon="13.107224">
 <ele>510.68</ele>
 <time>2010-08-23T10:56:31Z</time>
 </trkpt>
 <trkpt lat="47.695988" lon="13.106880">
 <ele>509.78</ele>
 <time>2010-08-23T10:56:38Z</time>
 </trkpt>
 <trkpt lat="47.695606" lon="13.106541">
 <ele>508.32</ele>
 <time>2010-08-23T10:56:44Z</time>
 </trkpt>
 <trkpt lat="47.695255" lon="13.105998">
 <ele>506.81</ele>
 <time>2010-08-23T10:56:51Z</time>
 </trkpt>
 <trkpt lat="47.694908" lon="13.105207">
 <ele>508.63</ele>
 <time>2010-08-23T10:57:01Z</time>
 </trkpt>
 <trkpt lat="47.694817" lon="13.104826">
 <ele>509.49</ele>
 <time>2010-08-23T10:57:06Z</time>
 </trkpt>
 <trkpt lat="47.694660" lon="13.104279">
 <ele>509.24</ele>
 <time>2010-08-23T10:57:13Z</time>
 </trkpt>
 <trkpt lat="47.694641" lon="13.104196">
 <ele>509.21</ele>
 <time>2010-08-23T10:57:14Z</time>
 </trkpt>
 <trkpt lat="47.694523" lon="13.103585">
 <ele>508.79</ele>
 <time>2010-08-23T10:57:21Z</time>
 </trkpt>
 <trkpt lat="47.694431" lon="13.103053">
 <ele>508.66</ele>
 <time>2010-08-23T10:57:27Z</time>
 </trkpt>
 <trkpt lat="47.694309" lon="13.102764">
 <ele>508.92</ele>
 <time>2010-08-23T10:57:31Z</time>
 </trkpt>
 <trkpt lat="47.694229" lon="13.102652">
 <ele>508.76</ele>
 <time>2010-08-23T10:57:33Z</time>
 </trkpt>
 <trkpt lat="47.694042" lon="13.102433">
 <ele>508.52</ele>
 <time>2010-08-23T10:57:37Z</time>
 </trkpt>
 <trkpt lat="47.693783" lon="13.102281">
 <ele>508.16</ele>
 <time>2010-08-23T10:57:41Z</time>
 </trkpt>
 <trkpt lat="47.693398" lon="13.102149">
 <ele>508.17</ele>
 <time>2010-08-23T10:57:48Z</time>
 </trkpt>
 <trkpt lat="47.693226" lon="13.102109">
 <ele>507.51</ele>
 <time>2010-08-23T10:57:51Z</time>
 </trkpt>
 <trkpt lat="47.692871" lon="13.102109">
 <ele>507.52</ele>
 <time>2010-08-23T10:57:57Z</time>
 </trkpt>
 <trkpt lat="47.692516" lon="13.102185">
 <ele>506.93</ele>
 <time>2010-08-23T10:58:03Z</time>
 </trkpt>
 <trkpt lat="47.692333" lon="13.102207">
 <ele>507.92</ele>
 <time>2010-08-23T10:58:06Z</time>
 </trkpt>
 <trkpt lat="47.691963" lon="13.102108">
 <ele>506.85</ele>
 <time>2010-08-23T10:58:12Z</time>
 </trkpt>
 <trkpt lat="47.691566" lon="13.101823">
 <ele>506.76</ele>
 <time>2010-08-23T10:58:19Z</time>
 </trkpt>
 <trkpt lat="47.691196" lon="13.101510">
 <ele>506.46</ele>
 <time>2010-08-23T10:58:26Z</time>
 </trkpt>
 <trkpt lat="47.690979" lon="13.101383">
 <ele>506.08</ele>
 <time>2010-08-23T10:58:30Z</time>
 </trkpt>
 <trkpt lat="47.690563" lon="13.101323">
 <ele>506.24</ele>
 <time>2010-08-23T10:58:37Z</time>
 </trkpt>
 <trkpt lat="47.690010" lon="13.101321">
 <ele>505.88</ele>
 <time>2010-08-23T10:58:46Z</time>
 </trkpt>
 <trkpt lat="47.689404" lon="13.101195">
 <ele>505.27</ele>
 <time>2010-08-23T10:58:56Z</time>
 </trkpt>
 <trkpt lat="47.689167" lon="13.100965">
 <ele>505.30</ele>
 <time>2010-08-23T10:59:01Z</time>
 </trkpt>
 <trkpt lat="47.688950" lon="13.100585">
 <ele>504.98</ele>
 <time>2010-08-23T10:59:07Z</time>
 </trkpt>
 <trkpt lat="47.688797" lon="13.100370">
 <ele>504.81</ele>
 <time>2010-08-23T10:59:11Z</time>
 </trkpt>
 <trkpt lat="47.688572" lon="13.100075">
 <ele>505.09</ele>
 <time>2010-08-23T10:59:18Z</time>
 </trkpt>
 <trkpt lat="47.688545" lon="13.100002">
 <ele>506.00</ele>
 <time>2010-08-23T10:59:21Z</time>
 </trkpt>
 <trkpt lat="47.688541" lon="13.100000">
 <ele>506.14</ele>
 <time>2010-08-23T10:59:22Z</time>
 </trkpt>
 <trkpt lat="47.688545" lon="13.099911">
 <ele>505.62</ele>
 <time>2010-08-23T10:59:54Z</time>
 </trkpt>
 <trkpt lat="47.688480" lon="13.099871">
 <ele>505.46</ele>
 <time>2010-08-23T10:59:57Z</time>
 </trkpt>
 <trkpt lat="47.688446" lon="13.099871">
 <ele>505.36</ele>
 <time>2010-08-23T10:59:58Z</time>
 </trkpt>
 <trkpt lat="47.688118" lon="13.099876">
 <ele>505.25</ele>
 <time>2010-08-23T11:00:06Z</time>
 </trkpt>
 <trkpt lat="47.687733" lon="13.099891">
 <ele>504.15</ele>
 <time>2010-08-23T11:00:14Z</time>
 </trkpt>
 <trkpt lat="47.687328" lon="13.099909">
 <ele>504.26</ele>
 <time>2010-08-23T11:00:22Z</time>
 </trkpt>
 <trkpt lat="47.687126" lon="13.099942">
 <ele>504.99</ele>
 <time>2010-08-23T11:00:27Z</time>
 </trkpt>
 <trkpt lat="47.687031" lon="13.099794">
 <ele>504.80</ele>
 <time>2010-08-23T11:00:32Z</time>
 </trkpt>
 <trkpt lat="47.687023" lon="13.099736">
 <ele>504.61</ele>
 <time>2010-08-23T11:00:33Z</time>
 </trkpt>
 <trkpt lat="47.687004" lon="13.099346">
 <ele>503.37</ele>
 <time>2010-08-23T11:00:39Z</time>
 </trkpt>
 <trkpt lat="47.686947" lon="13.098953">
 <ele>502.93</ele>
 <time>2010-08-23T11:00:45Z</time>
 </trkpt>
 <trkpt lat="47.686852" lon="13.098713">
 <ele>502.77</ele>
 <time>2010-08-23T11:00:50Z</time>
 </trkpt>
 <trkpt lat="47.686737" lon="13.098696">
 <ele>502.70</ele>
 <time>2010-08-23T11:00:54Z</time>
 </trkpt>
 <trkpt lat="47.686646" lon="13.098788">
 <ele>502.82</ele>
 <time>2010-08-23T11:00:57Z</time>
 </trkpt>
 <trkpt lat="47.686501" lon="13.098978">
 <ele>502.99</ele>
 <time>2010-08-23T11:01:02Z</time>
 </trkpt>
 <trkpt lat="47.686237" lon="13.099279">
 <ele>502.88</ele>
 <time>2010-08-23T11:01:09Z</time>
 </trkpt>
 <trkpt lat="47.686096" lon="13.099431">
 <ele>503.03</ele>
 <time>2010-08-23T11:01:13Z</time>
 </trkpt>
 <trkpt lat="47.685799" lon="13.099781">
 <ele>502.78</ele>
 <time>2010-08-23T11:01:21Z</time>
 </trkpt>
 <trkpt lat="47.685612" lon="13.100059">
 <ele>502.75</ele>
 <time>2010-08-23T11:01:27Z</time>
 </trkpt>
 <trkpt lat="47.685463" lon="13.100177">
 <ele>503.84</ele>
 <time>2010-08-23T11:01:32Z</time>
 </trkpt>
 <trkpt lat="47.685177" lon="13.100197">
 <ele>503.33</ele>
 <time>2010-08-23T11:01:39Z</time>
 </trkpt>
 <trkpt lat="47.684975" lon="13.100205">
 <ele>502.95</ele>
 <time>2010-08-23T11:01:45Z</time>
 </trkpt>
 <trkpt lat="47.684921" lon="13.100198">
 <ele>503.26</ele>
 <time>2010-08-23T11:01:48Z</time>
 </trkpt>
 <trkpt lat="47.684937" lon="13.100165">
 <ele>504.20</ele>
 <time>2010-08-23T11:01:53Z</time>
 </trkpt>
 <trkpt lat="47.684959" lon="13.100103">
 <ele>503.18</ele>
 <time>2010-08-23T11:01:56Z</time>
 </trkpt>
 </trkseg>
 </trk>
</gpx>
